<?xml version="1.0" encoding="UTF-8" standalone="no" ?>
<gpx xmlns="http://www.topografix.com/GPX/1/1" xmlns:xsi="http://www.w3.org/2001/XMLSchema-instance" xsi:schemaLocation="http://www.topografix.com/GPX/1/1 http://www.topografix.com/GPX/1/1/gpx.xsd" version="1.1" creator="VisuGPX - https://www.visugpx.com">
  <metadata>
    <name>GR65 de Livinhac le Haut à Figeac</name>
    <desc><![CDATA[Etape assez difficile sur le chemin de Saint Jacques de Compostelle]]></desc>
  </metadata>
  <trk>
    <name><![CDATA[ACTIVE LOG090731]]></name>
    <trkseg>
      <trkpt lat="44.59132" lon="2.23156">
        <ele>199.162</ele>
        <time>2013-06-25T07:07:29Z</time>
      </trkpt>
      <trkpt lat="44.59132" lon="2.23155">
        <ele>199.162</ele>
        <time>2013-06-25T07:07:30Z</time>
      </trkpt>
      <trkpt lat="44.59133" lon="2.23155">
        <ele>202.188</ele>
        <time>2013-06-25T07:07:32Z</time>
      </trkpt>
      <trkpt lat="44.59134" lon="2.23156">
        <ele>203.575</ele>
        <time>2013-06-25T07:07:36Z</time>
      </trkpt>
      <trkpt lat="44.59134" lon="2.23156">
        <ele>206.595</ele>
        <time>2013-06-25T07:07:40Z</time>
      </trkpt>
      <trkpt lat="44.59134" lon="2.23158">
        <ele>208.071</ele>
        <time>2013-06-25T07:07:43Z</time>
      </trkpt>
      <trkpt lat="44.59131" lon="2.23156">
        <ele>212.795</ele>
        <time>2013-06-25T07:07:51Z</time>
      </trkpt>
      <trkpt lat="44.59131" lon="2.23157">
        <ele>211.997</ele>
        <time>2013-06-25T07:07:52Z</time>
      </trkpt>
      <trkpt lat="44.59132" lon="2.23159">
        <ele>215.132</ele>
        <time>2013-06-25T07:08:03Z</time>
      </trkpt>
      <trkpt lat="44.59131" lon="2.23159">
        <ele>218.241</ele>
        <time>2013-06-25T07:08:19Z</time>
      </trkpt>
      <trkpt lat="44.59131" lon="2.23158">
        <ele>221.244</ele>
        <time>2013-06-25T07:08:44Z</time>
      </trkpt>
      <trkpt lat="44.59131" lon="2.23155">
        <ele>222.406</ele>
        <time>2013-06-25T07:08:58Z</time>
      </trkpt>
      <trkpt lat="44.59133" lon="2.23147">
        <ele>223.539</ele>
        <time>2013-06-25T07:09:12Z</time>
      </trkpt>
      <trkpt lat="44.59145" lon="2.23125">
        <ele>224.826</ele>
        <time>2013-06-25T07:09:35Z</time>
      </trkpt>
      <trkpt lat="44.59143" lon="2.23109">
        <ele>224.574</ele>
        <time>2013-06-25T07:09:47Z</time>
      </trkpt>
      <trkpt lat="44.59139" lon="2.23082">
        <ele>223.383</ele>
        <time>2013-06-25T07:10:09Z</time>
      </trkpt>
      <trkpt lat="44.59136" lon="2.23077">
        <ele>223.502</ele>
        <time>2013-06-25T07:10:13Z</time>
      </trkpt>
      <trkpt lat="44.59129" lon="2.23053">
        <ele>221.657</ele>
        <time>2013-06-25T07:10:33Z</time>
      </trkpt>
      <trkpt lat="44.59127" lon="2.23043">
        <ele>220.993</ele>
        <time>2013-06-25T07:10:42Z</time>
      </trkpt>
      <trkpt lat="44.59128" lon="2.2303">
        <ele>220.298</ele>
        <time>2013-06-25T07:11:06Z</time>
      </trkpt>
      <trkpt lat="44.59129" lon="2.23022">
        <ele>220.006</ele>
        <time>2013-06-25T07:11:25Z</time>
      </trkpt>
      <trkpt lat="44.59131" lon="2.23018">
        <ele>219.829</ele>
        <time>2013-06-25T07:11:30Z</time>
      </trkpt>
      <trkpt lat="44.59141" lon="2.2299">
        <ele>219.111</ele>
        <time>2013-06-25T07:11:51Z</time>
      </trkpt>
      <trkpt lat="44.59143" lon="2.2298">
        <ele>218.452</ele>
        <time>2013-06-25T07:12:10Z</time>
      </trkpt>
      <trkpt lat="44.59156" lon="2.22955">
        <ele>218.297</ele>
        <time>2013-06-25T07:12:31Z</time>
      </trkpt>
      <trkpt lat="44.59164" lon="2.22925">
        <ele>217.297</ele>
        <time>2013-06-25T07:12:53Z</time>
      </trkpt>
      <trkpt lat="44.59166" lon="2.22922">
        <ele>217.332</ele>
        <time>2013-06-25T07:12:56Z</time>
      </trkpt>
      <trkpt lat="44.5918" lon="2.22884">
        <ele>213.498</ele>
        <time>2013-06-25T07:13:25Z</time>
      </trkpt>
      <trkpt lat="44.592" lon="2.22851">
        <ele>210.934</ele>
        <time>2013-06-25T07:13:55Z</time>
      </trkpt>
      <trkpt lat="44.59207" lon="2.22838">
        <ele>210.564</ele>
        <time>2013-06-25T07:14:06Z</time>
      </trkpt>
      <trkpt lat="44.59209" lon="2.22832">
        <ele>210.646</ele>
        <time>2013-06-25T07:14:10Z</time>
      </trkpt>
      <trkpt lat="44.59211" lon="2.22819">
        <ele>209.413</ele>
        <time>2013-06-25T07:14:20Z</time>
      </trkpt>
      <trkpt lat="44.59216" lon="2.22816">
        <ele>208.445</ele>
        <time>2013-06-25T07:14:25Z</time>
      </trkpt>
      <trkpt lat="44.59222" lon="2.22815">
        <ele>207.719</ele>
        <time>2013-06-25T07:14:30Z</time>
      </trkpt>
      <trkpt lat="44.59246" lon="2.22804">
        <ele>206.025</ele>
        <time>2013-06-25T07:14:54Z</time>
      </trkpt>
      <trkpt lat="44.5927" lon="2.22796">
        <ele>202.877</ele>
        <time>2013-06-25T07:15:18Z</time>
      </trkpt>
      <trkpt lat="44.59292" lon="2.22778">
        <ele>201.259</ele>
        <time>2013-06-25T07:15:41Z</time>
      </trkpt>
      <trkpt lat="44.59321" lon="2.22753">
        <ele>199.986</ele>
        <time>2013-06-25T07:16:11Z</time>
      </trkpt>
      <trkpt lat="44.59349" lon="2.22733">
        <ele>199.577</ele>
        <time>2013-06-25T07:16:39Z</time>
      </trkpt>
      <trkpt lat="44.59378" lon="2.22715">
        <ele>198.762</ele>
        <time>2013-06-25T07:17:07Z</time>
      </trkpt>
      <trkpt lat="44.59413" lon="2.227">
        <ele>198.278</ele>
        <time>2013-06-25T07:17:39Z</time>
      </trkpt>
      <trkpt lat="44.59443" lon="2.22686">
        <ele>198.252</ele>
        <time>2013-06-25T07:18:07Z</time>
      </trkpt>
      <trkpt lat="44.59471" lon="2.22663">
        <ele>198.677</ele>
        <time>2013-06-25T07:18:37Z</time>
      </trkpt>
      <trkpt lat="44.59478" lon="2.22663">
        <ele>199.021</ele>
        <time>2013-06-25T07:19:01Z</time>
      </trkpt>
      <trkpt lat="44.59492" lon="2.22662">
        <ele>200.468</ele>
        <time>2013-06-25T07:19:44Z</time>
      </trkpt>
      <trkpt lat="44.59501" lon="2.22663">
        <ele>201.299</ele>
        <time>2013-06-25T07:19:59Z</time>
      </trkpt>
      <trkpt lat="44.59519" lon="2.22662">
        <ele>202.122</ele>
        <time>2013-06-25T07:20:20Z</time>
      </trkpt>
      <trkpt lat="44.59519" lon="2.22662">
        <ele>202.453</ele>
        <time>2013-06-25T07:20:36Z</time>
      </trkpt>
      <trkpt lat="44.59521" lon="2.22662">
        <ele>202.483</ele>
        <time>2013-06-25T07:21:17Z</time>
      </trkpt>
      <trkpt lat="44.59523" lon="2.22662">
        <ele>202.505</ele>
        <time>2013-06-25T07:21:36Z</time>
      </trkpt>
      <trkpt lat="44.59523" lon="2.2266">
        <ele>201.839</ele>
        <time>2013-06-25T07:22:01Z</time>
      </trkpt>
      <trkpt lat="44.59529" lon="2.22661">
        <ele>203.495</ele>
        <time>2013-06-25T07:22:15Z</time>
      </trkpt>
      <trkpt lat="44.59543" lon="2.22663">
        <ele>204.077</ele>
        <time>2013-06-25T07:22:31Z</time>
      </trkpt>
      <trkpt lat="44.59554" lon="2.22663">
        <ele>205.118</ele>
        <time>2013-06-25T07:22:46Z</time>
      </trkpt>
      <trkpt lat="44.59566" lon="2.22664">
        <ele>208.148</ele>
        <time>2013-06-25T07:23:02Z</time>
      </trkpt>
      <trkpt lat="44.59578" lon="2.2267">
        <ele>209.702</ele>
        <time>2013-06-25T07:23:20Z</time>
      </trkpt>
      <trkpt lat="44.59591" lon="2.22672">
        <ele>211.282</ele>
        <time>2013-06-25T07:23:35Z</time>
      </trkpt>
      <trkpt lat="44.59604" lon="2.22675">
        <ele>214.412</ele>
        <time>2013-06-25T07:23:55Z</time>
      </trkpt>
      <trkpt lat="44.59613" lon="2.22677">
        <ele>216.17</ele>
        <time>2013-06-25T07:24:14Z</time>
      </trkpt>
      <trkpt lat="44.59622" lon="2.22679">
        <ele>218.408</ele>
        <time>2013-06-25T07:24:32Z</time>
      </trkpt>
      <trkpt lat="44.59632" lon="2.22674">
        <ele>220.768</ele>
        <time>2013-06-25T07:24:52Z</time>
      </trkpt>
      <trkpt lat="44.59642" lon="2.2267">
        <ele>222.378</ele>
        <time>2013-06-25T07:25:10Z</time>
      </trkpt>
      <trkpt lat="44.59651" lon="2.22664">
        <ele>224.268</ele>
        <time>2013-06-25T07:25:30Z</time>
      </trkpt>
      <trkpt lat="44.59661" lon="2.22656">
        <ele>226.699</ele>
        <time>2013-06-25T07:25:51Z</time>
      </trkpt>
      <trkpt lat="44.5967" lon="2.22648">
        <ele>228.601</ele>
        <time>2013-06-25T07:26:10Z</time>
      </trkpt>
      <trkpt lat="44.59678" lon="2.22642">
        <ele>230.334</ele>
        <time>2013-06-25T07:26:28Z</time>
      </trkpt>
      <trkpt lat="44.59691" lon="2.22636">
        <ele>232.159</ele>
        <time>2013-06-25T07:26:47Z</time>
      </trkpt>
      <trkpt lat="44.59705" lon="2.22628">
        <ele>233.165</ele>
        <time>2013-06-25T07:27:07Z</time>
      </trkpt>
      <trkpt lat="44.59714" lon="2.22628">
        <ele>235.642</ele>
        <time>2013-06-25T07:27:22Z</time>
      </trkpt>
      <trkpt lat="44.59722" lon="2.22629">
        <ele>237.356</ele>
        <time>2013-06-25T07:27:40Z</time>
      </trkpt>
      <trkpt lat="44.59728" lon="2.22629">
        <ele>241.094</ele>
        <time>2013-06-25T07:27:54Z</time>
      </trkpt>
      <trkpt lat="44.59737" lon="2.22631">
        <ele>242.58</ele>
        <time>2013-06-25T07:28:13Z</time>
      </trkpt>
      <trkpt lat="44.59749" lon="2.22636">
        <ele>245.45</ele>
        <time>2013-06-25T07:28:34Z</time>
      </trkpt>
      <trkpt lat="44.59766" lon="2.22643">
        <ele>247.88</ele>
        <time>2013-06-25T07:28:56Z</time>
      </trkpt>
      <trkpt lat="44.59781" lon="2.22649">
        <ele>248.944</ele>
        <time>2013-06-25T07:29:16Z</time>
      </trkpt>
      <trkpt lat="44.59794" lon="2.22655">
        <ele>251.055</ele>
        <time>2013-06-25T07:29:36Z</time>
      </trkpt>
      <trkpt lat="44.59801" lon="2.22657">
        <ele>251.722</ele>
        <time>2013-06-25T07:29:57Z</time>
      </trkpt>
      <trkpt lat="44.59805" lon="2.22658">
        <ele>252.729</ele>
        <time>2013-06-25T07:30:17Z</time>
      </trkpt>
      <trkpt lat="44.59816" lon="2.22661">
        <ele>254.599</ele>
        <time>2013-06-25T07:30:34Z</time>
      </trkpt>
      <trkpt lat="44.59818" lon="2.22662">
        <ele>255.942</ele>
        <time>2013-06-25T07:30:37Z</time>
      </trkpt>
      <trkpt lat="44.59833" lon="2.22669">
        <ele>257.317</ele>
        <time>2013-06-25T07:30:58Z</time>
      </trkpt>
      <trkpt lat="44.59848" lon="2.22676">
        <ele>259.351</ele>
        <time>2013-06-25T07:31:19Z</time>
      </trkpt>
      <trkpt lat="44.59861" lon="2.22681">
        <ele>261.4</ele>
        <time>2013-06-25T07:31:39Z</time>
      </trkpt>
      <trkpt lat="44.59874" lon="2.22688">
        <ele>264.179</ele>
        <time>2013-06-25T07:32:01Z</time>
      </trkpt>
      <trkpt lat="44.59883" lon="2.22694">
        <ele>267.129</ele>
        <time>2013-06-25T07:32:20Z</time>
      </trkpt>
      <trkpt lat="44.59897" lon="2.22695">
        <ele>269.248</ele>
        <time>2013-06-25T07:32:41Z</time>
      </trkpt>
      <trkpt lat="44.59909" lon="2.22694">
        <ele>272.101</ele>
        <time>2013-06-25T07:33:02Z</time>
      </trkpt>
      <trkpt lat="44.59912" lon="2.22684">
        <ele>271.421</ele>
        <time>2013-06-25T07:33:17Z</time>
      </trkpt>
      <trkpt lat="44.5991" lon="2.22692">
        <ele>271.452</ele>
        <time>2013-06-25T07:33:37Z</time>
      </trkpt>
      <trkpt lat="44.5991" lon="2.22697">
        <ele>271.086</ele>
        <time>2013-06-25T07:33:56Z</time>
      </trkpt>
      <trkpt lat="44.5991" lon="2.22699">
        <ele>271.568</ele>
        <time>2013-06-25T07:34:20Z</time>
      </trkpt>
      <trkpt lat="44.59904" lon="2.22697">
        <ele>270.883</ele>
        <time>2013-06-25T07:34:52Z</time>
      </trkpt>
      <trkpt lat="44.59897" lon="2.227">
        <ele>269.22</ele>
        <time>2013-06-25T07:35:12Z</time>
      </trkpt>
      <trkpt lat="44.59899" lon="2.22698">
        <ele>269.72</ele>
        <time>2013-06-25T07:35:49Z</time>
      </trkpt>
      <trkpt lat="44.59909" lon="2.22697">
        <ele>271.041</ele>
        <time>2013-06-25T07:36:08Z</time>
      </trkpt>
      <trkpt lat="44.5991" lon="2.22698">
        <ele>271.192</ele>
        <time>2013-06-25T07:36:30Z</time>
      </trkpt>
      <trkpt lat="44.59911" lon="2.22695">
        <ele>271.331</ele>
        <time>2013-06-25T07:36:47Z</time>
      </trkpt>
      <trkpt lat="44.59917" lon="2.22693">
        <ele>272.003</ele>
        <time>2013-06-25T07:37:06Z</time>
      </trkpt>
      <trkpt lat="44.59936" lon="2.22692">
        <ele>274.371</ele>
        <time>2013-06-25T07:37:28Z</time>
      </trkpt>
      <trkpt lat="44.59954" lon="2.22694">
        <ele>275.855</ele>
        <time>2013-06-25T07:37:50Z</time>
      </trkpt>
      <trkpt lat="44.5997" lon="2.22698">
        <ele>279.132</ele>
        <time>2013-06-25T07:38:10Z</time>
      </trkpt>
      <trkpt lat="44.59985" lon="2.22706">
        <ele>281.704</ele>
        <time>2013-06-25T07:38:30Z</time>
      </trkpt>
      <trkpt lat="44.59999" lon="2.22716">
        <ele>283.595</ele>
        <time>2013-06-25T07:38:51Z</time>
      </trkpt>
      <trkpt lat="44.60018" lon="2.22724">
        <ele>286.445</ele>
        <time>2013-06-25T07:39:15Z</time>
      </trkpt>
      <trkpt lat="44.60037" lon="2.22725">
        <ele>288.014</ele>
        <time>2013-06-25T07:39:38Z</time>
      </trkpt>
      <trkpt lat="44.60053" lon="2.2272">
        <ele>289.708</ele>
        <time>2013-06-25T07:39:58Z</time>
      </trkpt>
      <trkpt lat="44.6007" lon="2.22715">
        <ele>292.84</ele>
        <time>2013-06-25T07:40:19Z</time>
      </trkpt>
      <trkpt lat="44.60092" lon="2.22715">
        <ele>294.746</ele>
        <time>2013-06-25T07:40:44Z</time>
      </trkpt>
      <trkpt lat="44.60115" lon="2.22713">
        <ele>296.47</ele>
        <time>2013-06-25T07:41:09Z</time>
      </trkpt>
      <trkpt lat="44.60137" lon="2.22708">
        <ele>297.838</ele>
        <time>2013-06-25T07:41:33Z</time>
      </trkpt>
      <trkpt lat="44.60156" lon="2.22705">
        <ele>299.852</ele>
        <time>2013-06-25T07:41:55Z</time>
      </trkpt>
      <trkpt lat="44.6016" lon="2.22704">
        <ele>300.794</ele>
        <time>2013-06-25T07:42:00Z</time>
      </trkpt>
      <trkpt lat="44.60179" lon="2.22699">
        <ele>302.433</ele>
        <time>2013-06-25T07:42:23Z</time>
      </trkpt>
      <trkpt lat="44.60194" lon="2.22694">
        <ele>304.655</ele>
        <time>2013-06-25T07:42:42Z</time>
      </trkpt>
      <trkpt lat="44.60212" lon="2.22688">
        <ele>307.063</ele>
        <time>2013-06-25T07:43:04Z</time>
      </trkpt>
      <trkpt lat="44.60229" lon="2.22686">
        <ele>309.77</ele>
        <time>2013-06-25T07:43:26Z</time>
      </trkpt>
      <trkpt lat="44.60247" lon="2.22684">
        <ele>311.371</ele>
        <time>2013-06-25T07:43:48Z</time>
      </trkpt>
      <trkpt lat="44.60264" lon="2.22681">
        <ele>314.698</ele>
        <time>2013-06-25T07:44:09Z</time>
      </trkpt>
      <trkpt lat="44.60283" lon="2.22678">
        <ele>316.949</ele>
        <time>2013-06-25T07:44:32Z</time>
      </trkpt>
      <trkpt lat="44.603" lon="2.22675">
        <ele>319.269</ele>
        <time>2013-06-25T07:44:52Z</time>
      </trkpt>
      <trkpt lat="44.6032" lon="2.22668">
        <ele>320.617</ele>
        <time>2013-06-25T07:45:15Z</time>
      </trkpt>
      <trkpt lat="44.60339" lon="2.22662">
        <ele>322.815</ele>
        <time>2013-06-25T07:45:38Z</time>
      </trkpt>
      <trkpt lat="44.60357" lon="2.22654">
        <ele>325.123</ele>
        <time>2013-06-25T07:45:58Z</time>
      </trkpt>
      <trkpt lat="44.60376" lon="2.2265">
        <ele>327.399</ele>
        <time>2013-06-25T07:46:20Z</time>
      </trkpt>
      <trkpt lat="44.60394" lon="2.2265">
        <ele>329.297</ele>
        <time>2013-06-25T07:46:41Z</time>
      </trkpt>
      <trkpt lat="44.60412" lon="2.2265">
        <ele>330.841</ele>
        <time>2013-06-25T07:47:02Z</time>
      </trkpt>
      <trkpt lat="44.60431" lon="2.22649">
        <ele>333.5</ele>
        <time>2013-06-25T07:47:24Z</time>
      </trkpt>
      <trkpt lat="44.6045" lon="2.22645">
        <ele>334.515</ele>
        <time>2013-06-25T07:47:47Z</time>
      </trkpt>
      <trkpt lat="44.60466" lon="2.22632">
        <ele>336.582</ele>
        <time>2013-06-25T07:48:08Z</time>
      </trkpt>
      <trkpt lat="44.60484" lon="2.22617">
        <ele>338.837</ele>
        <time>2013-06-25T07:48:30Z</time>
      </trkpt>
      <trkpt lat="44.60497" lon="2.22607">
        <ele>338.787</ele>
        <time>2013-06-25T07:48:49Z</time>
      </trkpt>
      <trkpt lat="44.60515" lon="2.22597">
        <ele>339.502</ele>
        <time>2013-06-25T07:49:11Z</time>
      </trkpt>
      <trkpt lat="44.60536" lon="2.22576">
        <ele>340.301</ele>
        <time>2013-06-25T07:49:38Z</time>
      </trkpt>
      <trkpt lat="44.60534" lon="2.2255">
        <ele>340.942</ele>
        <time>2013-06-25T07:50:01Z</time>
      </trkpt>
      <trkpt lat="44.60543" lon="2.2254">
        <ele>340.235</ele>
        <time>2013-06-25T07:50:18Z</time>
      </trkpt>
      <trkpt lat="44.60539" lon="2.2255">
        <ele>340.576</ele>
        <time>2013-06-25T07:50:42Z</time>
      </trkpt>
      <trkpt lat="44.60541" lon="2.22552">
        <ele>341.196</ele>
        <time>2013-06-25T07:51:22Z</time>
      </trkpt>
      <trkpt lat="44.60539" lon="2.22553">
        <ele>341.027</ele>
        <time>2013-06-25T07:51:40Z</time>
      </trkpt>
      <trkpt lat="44.60538" lon="2.22552">
        <ele>340.738</ele>
        <time>2013-06-25T07:51:55Z</time>
      </trkpt>
      <trkpt lat="44.60539" lon="2.22556">
        <ele>340.7</ele>
        <time>2013-06-25T07:52:18Z</time>
      </trkpt>
      <trkpt lat="44.60537" lon="2.22562">
        <ele>341.119</ele>
        <time>2013-06-25T07:53:13Z</time>
      </trkpt>
      <trkpt lat="44.60538" lon="2.22563">
        <ele>336.299</ele>
        <time>2013-06-25T07:53:20Z</time>
      </trkpt>
      <trkpt lat="44.60539" lon="2.22563">
        <ele>341.03</ele>
        <time>2013-06-25T07:53:21Z</time>
      </trkpt>
      <trkpt lat="44.60539" lon="2.22563">
        <ele>339.942</ele>
        <time>2013-06-25T07:53:22Z</time>
      </trkpt>
      <trkpt lat="44.60542" lon="2.22562">
        <ele>339.187</ele>
        <time>2013-06-25T07:53:51Z</time>
      </trkpt>
      <trkpt lat="44.60549" lon="2.22562">
        <ele>339.723</ele>
        <time>2013-06-25T07:54:23Z</time>
      </trkpt>
      <trkpt lat="44.60544" lon="2.22561">
        <ele>340.178</ele>
        <time>2013-06-25T07:54:36Z</time>
      </trkpt>
      <trkpt lat="44.60539" lon="2.22557">
        <ele>340.652</ele>
        <time>2013-06-25T07:55:10Z</time>
      </trkpt>
      <trkpt lat="44.60538" lon="2.22557">
        <ele>340.37</ele>
        <time>2013-06-25T07:55:27Z</time>
      </trkpt>
      <trkpt lat="44.60541" lon="2.22545">
        <ele>340.096</ele>
        <time>2013-06-25T07:55:43Z</time>
      </trkpt>
      <trkpt lat="44.60561" lon="2.22537">
        <ele>339.38</ele>
        <time>2013-06-25T07:56:03Z</time>
      </trkpt>
      <trkpt lat="44.60562" lon="2.22536">
        <ele>339.372</ele>
        <time>2013-06-25T07:56:04Z</time>
      </trkpt>
      <trkpt lat="44.60585" lon="2.22529">
        <ele>338.42</ele>
        <time>2013-06-25T07:56:29Z</time>
      </trkpt>
      <trkpt lat="44.60599" lon="2.22528">
        <ele>338.63</ele>
        <time>2013-06-25T07:56:50Z</time>
      </trkpt>
      <trkpt lat="44.60609" lon="2.22526">
        <ele>338.124</ele>
        <time>2013-06-25T07:57:02Z</time>
      </trkpt>
      <trkpt lat="44.60633" lon="2.2252">
        <ele>337.116</ele>
        <time>2013-06-25T07:57:25Z</time>
      </trkpt>
      <trkpt lat="44.60656" lon="2.22512">
        <ele>335.882</ele>
        <time>2013-06-25T07:57:46Z</time>
      </trkpt>
      <trkpt lat="44.60671" lon="2.22507">
        <ele>336.067</ele>
        <time>2013-06-25T07:58:07Z</time>
      </trkpt>
      <trkpt lat="44.60671" lon="2.22508">
        <ele>335.16</ele>
        <time>2013-06-25T07:58:33Z</time>
      </trkpt>
      <trkpt lat="44.60682" lon="2.22503">
        <ele>335.158</ele>
        <time>2013-06-25T07:58:48Z</time>
      </trkpt>
      <trkpt lat="44.60715" lon="2.2249">
        <ele>334.368</ele>
        <time>2013-06-25T07:59:19Z</time>
      </trkpt>
      <trkpt lat="44.60749" lon="2.22476">
        <ele>333.419</ele>
        <time>2013-06-25T07:59:51Z</time>
      </trkpt>
      <trkpt lat="44.60771" lon="2.22466">
        <ele>332.844</ele>
        <time>2013-06-25T08:00:16Z</time>
      </trkpt>
      <trkpt lat="44.60773" lon="2.22465">
        <ele>332.765</ele>
        <time>2013-06-25T08:00:31Z</time>
      </trkpt>
      <trkpt lat="44.60802" lon="2.22453">
        <ele>331.955</ele>
        <time>2013-06-25T08:00:58Z</time>
      </trkpt>
      <trkpt lat="44.60823" lon="2.22445">
        <ele>332.374</ele>
        <time>2013-06-25T08:01:19Z</time>
      </trkpt>
      <trkpt lat="44.60844" lon="2.22434">
        <ele>331.166</ele>
        <time>2013-06-25T08:01:40Z</time>
      </trkpt>
      <trkpt lat="44.60868" lon="2.22427">
        <ele>330.632</ele>
        <time>2013-06-25T08:02:02Z</time>
      </trkpt>
      <trkpt lat="44.60887" lon="2.22418">
        <ele>329.551</ele>
        <time>2013-06-25T08:02:20Z</time>
      </trkpt>
      <trkpt lat="44.60904" lon="2.22407">
        <ele>329.413</ele>
        <time>2013-06-25T08:02:37Z</time>
      </trkpt>
      <trkpt lat="44.60918" lon="2.22396">
        <ele>328.325</ele>
        <time>2013-06-25T08:02:51Z</time>
      </trkpt>
      <trkpt lat="44.6093" lon="2.2239">
        <ele>327.614</ele>
        <time>2013-06-25T08:03:02Z</time>
      </trkpt>
      <trkpt lat="44.60944" lon="2.22379">
        <ele>327.347</ele>
        <time>2013-06-25T08:03:17Z</time>
      </trkpt>
      <trkpt lat="44.6096" lon="2.22372">
        <ele>326.853</ele>
        <time>2013-06-25T08:03:31Z</time>
      </trkpt>
      <trkpt lat="44.6098" lon="2.22362">
        <ele>325.777</ele>
        <time>2013-06-25T08:03:49Z</time>
      </trkpt>
      <trkpt lat="44.61004" lon="2.22348">
        <ele>326.669</ele>
        <time>2013-06-25T08:04:12Z</time>
      </trkpt>
      <trkpt lat="44.61016" lon="2.22324">
        <ele>327.503</ele>
        <time>2013-06-25T08:04:33Z</time>
      </trkpt>
      <trkpt lat="44.61016" lon="2.22322">
        <ele>328.003</ele>
        <time>2013-06-25T08:04:34Z</time>
      </trkpt>
      <trkpt lat="44.61019" lon="2.22298">
        <ele>328.044</ele>
        <time>2013-06-25T08:04:54Z</time>
      </trkpt>
      <trkpt lat="44.61021" lon="2.2227">
        <ele>328.706</ele>
        <time>2013-06-25T08:05:13Z</time>
      </trkpt>
      <trkpt lat="44.61024" lon="2.22241">
        <ele>327.892</ele>
        <time>2013-06-25T08:05:32Z</time>
      </trkpt>
      <trkpt lat="44.61027" lon="2.22205">
        <ele>327.443</ele>
        <time>2013-06-25T08:05:55Z</time>
      </trkpt>
      <trkpt lat="44.61033" lon="2.22166">
        <ele>327.674</ele>
        <time>2013-06-25T08:06:21Z</time>
      </trkpt>
      <trkpt lat="44.61049" lon="2.22136">
        <ele>328.433</ele>
        <time>2013-06-25T08:06:45Z</time>
      </trkpt>
      <trkpt lat="44.61059" lon="2.22119">
        <ele>328.054</ele>
        <time>2013-06-25T08:06:58Z</time>
      </trkpt>
      <trkpt lat="44.61066" lon="2.22106">
        <ele>328.396</ele>
        <time>2013-06-25T08:07:13Z</time>
      </trkpt>
      <trkpt lat="44.61068" lon="2.22098">
        <ele>328.453</ele>
        <time>2013-06-25T08:07:24Z</time>
      </trkpt>
      <trkpt lat="44.61073" lon="2.22093">
        <ele>328.538</ele>
        <time>2013-06-25T08:07:38Z</time>
      </trkpt>
      <trkpt lat="44.61079" lon="2.22082">
        <ele>328.655</ele>
        <time>2013-06-25T08:08:10Z</time>
      </trkpt>
      <trkpt lat="44.61101" lon="2.22044">
        <ele>328.277</ele>
        <time>2013-06-25T08:08:39Z</time>
      </trkpt>
      <trkpt lat="44.61118" lon="2.22015">
        <ele>328.845</ele>
        <time>2013-06-25T08:09:03Z</time>
      </trkpt>
      <trkpt lat="44.61135" lon="2.21985">
        <ele>329.201</ele>
        <time>2013-06-25T08:09:29Z</time>
      </trkpt>
      <trkpt lat="44.6115" lon="2.21959">
        <ele>330.115</ele>
        <time>2013-06-25T08:09:52Z</time>
      </trkpt>
      <trkpt lat="44.61167" lon="2.2193">
        <ele>332.103</ele>
        <time>2013-06-25T08:10:17Z</time>
      </trkpt>
      <trkpt lat="44.61184" lon="2.21899">
        <ele>333.4</ele>
        <time>2013-06-25T08:10:42Z</time>
      </trkpt>
      <trkpt lat="44.61202" lon="2.21873">
        <ele>333.632</ele>
        <time>2013-06-25T08:11:06Z</time>
      </trkpt>
      <trkpt lat="44.61218" lon="2.21849">
        <ele>335.216</ele>
        <time>2013-06-25T08:11:29Z</time>
      </trkpt>
      <trkpt lat="44.61231" lon="2.21828">
        <ele>335.041</ele>
        <time>2013-06-25T08:11:49Z</time>
      </trkpt>
      <trkpt lat="44.61233" lon="2.21825">
        <ele>335.103</ele>
        <time>2013-06-25T08:11:52Z</time>
      </trkpt>
      <trkpt lat="44.61253" lon="2.21799">
        <ele>335.537</ele>
        <time>2013-06-25T08:12:16Z</time>
      </trkpt>
      <trkpt lat="44.61269" lon="2.21775">
        <ele>335.564</ele>
        <time>2013-06-25T08:12:40Z</time>
      </trkpt>
      <trkpt lat="44.61276" lon="2.21753">
        <ele>335.661</ele>
        <time>2013-06-25T08:12:58Z</time>
      </trkpt>
      <trkpt lat="44.61277" lon="2.21722">
        <ele>335.078</ele>
        <time>2013-06-25T08:13:17Z</time>
      </trkpt>
      <trkpt lat="44.6128" lon="2.21707">
        <ele>334.981</ele>
        <time>2013-06-25T08:13:27Z</time>
      </trkpt>
      <trkpt lat="44.61285" lon="2.21668">
        <ele>333.274</ele>
        <time>2013-06-25T08:13:52Z</time>
      </trkpt>
      <trkpt lat="44.61286" lon="2.21651">
        <ele>333.84</ele>
        <time>2013-06-25T08:14:07Z</time>
      </trkpt>
      <trkpt lat="44.61293" lon="2.21627">
        <ele>333.676</ele>
        <time>2013-06-25T08:14:22Z</time>
      </trkpt>
      <trkpt lat="44.61303" lon="2.21609">
        <ele>333.904</ele>
        <time>2013-06-25T08:14:37Z</time>
      </trkpt>
      <trkpt lat="44.61313" lon="2.21589">
        <ele>334.796</ele>
        <time>2013-06-25T08:14:56Z</time>
      </trkpt>
      <trkpt lat="44.61317" lon="2.21585">
        <ele>335.111</ele>
        <time>2013-06-25T08:15:00Z</time>
      </trkpt>
      <trkpt lat="44.61336" lon="2.21559">
        <ele>335.309</ele>
        <time>2013-06-25T08:15:22Z</time>
      </trkpt>
      <trkpt lat="44.61358" lon="2.21528">
        <ele>335.315</ele>
        <time>2013-06-25T08:15:50Z</time>
      </trkpt>
      <trkpt lat="44.61378" lon="2.215">
        <ele>333.428</ele>
        <time>2013-06-25T08:16:16Z</time>
      </trkpt>
      <trkpt lat="44.61382" lon="2.21495">
        <ele>333.367</ele>
        <time>2013-06-25T08:16:36Z</time>
      </trkpt>
      <trkpt lat="44.61382" lon="2.21496">
        <ele>333.391</ele>
        <time>2013-06-25T08:17:18Z</time>
      </trkpt>
      <trkpt lat="44.61382" lon="2.21492">
        <ele>333.928</ele>
        <time>2013-06-25T08:18:02Z</time>
      </trkpt>
      <trkpt lat="44.61382" lon="2.21448">
        <ele>334.294</ele>
        <time>2013-06-25T08:18:31Z</time>
      </trkpt>
      <trkpt lat="44.6139" lon="2.21407">
        <ele>335.118</ele>
        <time>2013-06-25T08:18:59Z</time>
      </trkpt>
      <trkpt lat="44.61403" lon="2.21379">
        <ele>336.871</ele>
        <time>2013-06-25T08:19:21Z</time>
      </trkpt>
      <trkpt lat="44.6142" lon="2.21349">
        <ele>336.922</ele>
        <time>2013-06-25T08:19:46Z</time>
      </trkpt>
      <trkpt lat="44.61433" lon="2.21315">
        <ele>337.833</ele>
        <time>2013-06-25T08:20:10Z</time>
      </trkpt>
      <trkpt lat="44.61443" lon="2.21281">
        <ele>338.468</ele>
        <time>2013-06-25T08:20:34Z</time>
      </trkpt>
      <trkpt lat="44.61445" lon="2.2126">
        <ele>340.459</ele>
        <time>2013-06-25T08:20:56Z</time>
      </trkpt>
      <trkpt lat="44.61426" lon="2.21266">
        <ele>342.989</ele>
        <time>2013-06-25T08:21:21Z</time>
      </trkpt>
      <trkpt lat="44.61409" lon="2.2127">
        <ele>345.875</ele>
        <time>2013-06-25T08:21:44Z</time>
      </trkpt>
      <trkpt lat="44.61391" lon="2.21268">
        <ele>347.901</ele>
        <time>2013-06-25T08:22:07Z</time>
      </trkpt>
      <trkpt lat="44.61393" lon="2.21248">
        <ele>349.604</ele>
        <time>2013-06-25T08:22:25Z</time>
      </trkpt>
      <trkpt lat="44.61399" lon="2.21225">
        <ele>351.473</ele>
        <time>2013-06-25T08:22:46Z</time>
      </trkpt>
      <trkpt lat="44.61402" lon="2.21205">
        <ele>354.891</ele>
        <time>2013-06-25T08:23:04Z</time>
      </trkpt>
      <trkpt lat="44.61409" lon="2.21184">
        <ele>355.748</ele>
        <time>2013-06-25T08:23:24Z</time>
      </trkpt>
      <trkpt lat="44.61416" lon="2.21156">
        <ele>357.389</ele>
        <time>2013-06-25T08:23:46Z</time>
      </trkpt>
      <trkpt lat="44.61426" lon="2.21131">
        <ele>358.542</ele>
        <time>2013-06-25T08:24:08Z</time>
      </trkpt>
      <trkpt lat="44.61438" lon="2.21107">
        <ele>359.279</ele>
        <time>2013-06-25T08:24:31Z</time>
      </trkpt>
      <trkpt lat="44.61441" lon="2.21099">
        <ele>360.635</ele>
        <time>2013-06-25T08:24:47Z</time>
      </trkpt>
      <trkpt lat="44.61444" lon="2.21096">
        <ele>360.752</ele>
        <time>2013-06-25T08:25:06Z</time>
      </trkpt>
      <trkpt lat="44.61446" lon="2.21091">
        <ele>362.742</ele>
        <time>2013-06-25T08:25:24Z</time>
      </trkpt>
      <trkpt lat="44.61446" lon="2.21089">
        <ele>361.666</ele>
        <time>2013-06-25T08:26:00Z</time>
      </trkpt>
      <trkpt lat="44.61456" lon="2.21066">
        <ele>363.542</ele>
        <time>2013-06-25T08:26:21Z</time>
      </trkpt>
      <trkpt lat="44.61466" lon="2.21044">
        <ele>365.73</ele>
        <time>2013-06-25T08:26:42Z</time>
      </trkpt>
      <trkpt lat="44.61473" lon="2.21024">
        <ele>367.518</ele>
        <time>2013-06-25T08:27:01Z</time>
      </trkpt>
      <trkpt lat="44.61483" lon="2.21002">
        <ele>369.111</ele>
        <time>2013-06-25T08:27:23Z</time>
      </trkpt>
      <trkpt lat="44.61488" lon="2.20997">
        <ele>369.072</ele>
        <time>2013-06-25T08:27:45Z</time>
      </trkpt>
      <trkpt lat="44.6149" lon="2.20995">
        <ele>368.546</ele>
        <time>2013-06-25T08:29:55Z</time>
      </trkpt>
      <trkpt lat="44.61491" lon="2.20995">
        <ele>368.916</ele>
        <time>2013-06-25T08:30:20Z</time>
      </trkpt>
      <trkpt lat="44.6149" lon="2.20995">
        <ele>368.924</ele>
        <time>2013-06-25T08:30:55Z</time>
      </trkpt>
      <trkpt lat="44.61489" lon="2.20986">
        <ele>369.741</ele>
        <time>2013-06-25T08:31:26Z</time>
      </trkpt>
      <trkpt lat="44.6149" lon="2.20974">
        <ele>370.078</ele>
        <time>2013-06-25T08:31:35Z</time>
      </trkpt>
      <trkpt lat="44.61499" lon="2.20939">
        <ele>371.334</ele>
        <time>2013-06-25T08:32:01Z</time>
      </trkpt>
      <trkpt lat="44.61519" lon="2.20903">
        <ele>372.281</ele>
        <time>2013-06-25T08:32:32Z</time>
      </trkpt>
      <trkpt lat="44.61536" lon="2.20878">
        <ele>375.548</ele>
        <time>2013-06-25T08:32:56Z</time>
      </trkpt>
      <trkpt lat="44.61551" lon="2.20849">
        <ele>376.705</ele>
        <time>2013-06-25T08:33:22Z</time>
      </trkpt>
      <trkpt lat="44.61564" lon="2.2082">
        <ele>380.192</ele>
        <time>2013-06-25T08:33:48Z</time>
      </trkpt>
      <trkpt lat="44.61573" lon="2.20793">
        <ele>381.906</ele>
        <time>2013-06-25T08:34:12Z</time>
      </trkpt>
      <trkpt lat="44.61576" lon="2.20776">
        <ele>383.8</ele>
        <time>2013-06-25T08:34:32Z</time>
      </trkpt>
      <trkpt lat="44.61578" lon="2.20767">
        <ele>384.469</ele>
        <time>2013-06-25T08:34:52Z</time>
      </trkpt>
      <trkpt lat="44.61581" lon="2.20747">
        <ele>386.527</ele>
        <time>2013-06-25T08:35:30Z</time>
      </trkpt>
      <trkpt lat="44.61583" lon="2.20732">
        <ele>386.925</ele>
        <time>2013-06-25T08:35:48Z</time>
      </trkpt>
      <trkpt lat="44.61587" lon="2.20707">
        <ele>388.396</ele>
        <time>2013-06-25T08:36:08Z</time>
      </trkpt>
      <trkpt lat="44.61593" lon="2.20681">
        <ele>389.708</ele>
        <time>2013-06-25T08:36:30Z</time>
      </trkpt>
      <trkpt lat="44.61601" lon="2.20655">
        <ele>391.335</ele>
        <time>2013-06-25T08:36:52Z</time>
      </trkpt>
      <trkpt lat="44.61608" lon="2.20634">
        <ele>394.428</ele>
        <time>2013-06-25T08:37:09Z</time>
      </trkpt>
      <trkpt lat="44.61619" lon="2.20598">
        <ele>396.485</ele>
        <time>2013-06-25T08:37:37Z</time>
      </trkpt>
      <trkpt lat="44.61633" lon="2.20562">
        <ele>397.887</ele>
        <time>2013-06-25T08:38:05Z</time>
      </trkpt>
      <trkpt lat="44.61646" lon="2.20527">
        <ele>399.578</ele>
        <time>2013-06-25T08:38:34Z</time>
      </trkpt>
      <trkpt lat="44.61653" lon="2.20499">
        <ele>400.821</ele>
        <time>2013-06-25T08:38:56Z</time>
      </trkpt>
      <trkpt lat="44.6166" lon="2.20468">
        <ele>401.378</ele>
        <time>2013-06-25T08:39:16Z</time>
      </trkpt>
      <trkpt lat="44.61663" lon="2.20434">
        <ele>402.615</ele>
        <time>2013-06-25T08:39:40Z</time>
      </trkpt>
      <trkpt lat="44.61666" lon="2.20395">
        <ele>402.358</ele>
        <time>2013-06-25T08:40:04Z</time>
      </trkpt>
      <trkpt lat="44.6167" lon="2.20341">
        <ele>402.24</ele>
        <time>2013-06-25T08:40:38Z</time>
      </trkpt>
      <trkpt lat="44.61672" lon="2.20306">
        <ele>403.195</ele>
        <time>2013-06-25T08:41:00Z</time>
      </trkpt>
      <trkpt lat="44.61675" lon="2.20262">
        <ele>403.422</ele>
        <time>2013-06-25T08:41:28Z</time>
      </trkpt>
      <trkpt lat="44.61678" lon="2.20218">
        <ele>404.342</ele>
        <time>2013-06-25T08:41:57Z</time>
      </trkpt>
      <trkpt lat="44.61679" lon="2.20196">
        <ele>404.533</ele>
        <time>2013-06-25T08:42:13Z</time>
      </trkpt>
      <trkpt lat="44.61681" lon="2.20182">
        <ele>404.637</ele>
        <time>2013-06-25T08:42:30Z</time>
      </trkpt>
      <trkpt lat="44.61683" lon="2.20146">
        <ele>404.379</ele>
        <time>2013-06-25T08:42:54Z</time>
      </trkpt>
      <trkpt lat="44.61683" lon="2.20139">
        <ele>403.863</ele>
        <time>2013-06-25T08:43:11Z</time>
      </trkpt>
      <trkpt lat="44.61686" lon="2.20129">
        <ele>401.795</ele>
        <time>2013-06-25T08:43:30Z</time>
      </trkpt>
      <trkpt lat="44.61682" lon="2.20129">
        <ele>403.25</ele>
        <time>2013-06-25T08:43:59Z</time>
      </trkpt>
      <trkpt lat="44.61674" lon="2.20092">
        <ele>402.8</ele>
        <time>2013-06-25T08:44:24Z</time>
      </trkpt>
      <trkpt lat="44.61667" lon="2.2005">
        <ele>404.206</ele>
        <time>2013-06-25T08:44:51Z</time>
      </trkpt>
      <trkpt lat="44.61666" lon="2.20029">
        <ele>404.77</ele>
        <time>2013-06-25T08:45:14Z</time>
      </trkpt>
      <trkpt lat="44.61666" lon="2.20025">
        <ele>405.2</ele>
        <time>2013-06-25T08:45:24Z</time>
      </trkpt>
      <trkpt lat="44.61652" lon="2.19984">
        <ele>406.054</ele>
        <time>2013-06-25T08:45:55Z</time>
      </trkpt>
      <trkpt lat="44.61638" lon="2.19966">
        <ele>405.276</ele>
        <time>2013-06-25T08:46:14Z</time>
      </trkpt>
      <trkpt lat="44.61624" lon="2.19953">
        <ele>404.905</ele>
        <time>2013-06-25T08:46:33Z</time>
      </trkpt>
      <trkpt lat="44.61608" lon="2.19943">
        <ele>403.142</ele>
        <time>2013-06-25T08:46:52Z</time>
      </trkpt>
      <trkpt lat="44.61591" lon="2.19933">
        <ele>401.483</ele>
        <time>2013-06-25T08:47:10Z</time>
      </trkpt>
      <trkpt lat="44.61578" lon="2.19911">
        <ele>401.426</ele>
        <time>2013-06-25T08:47:28Z</time>
      </trkpt>
      <trkpt lat="44.61585" lon="2.19888">
        <ele>401.742</ele>
        <time>2013-06-25T08:47:42Z</time>
      </trkpt>
      <trkpt lat="44.61592" lon="2.19866">
        <ele>402.568</ele>
        <time>2013-06-25T08:47:58Z</time>
      </trkpt>
      <trkpt lat="44.61602" lon="2.19837">
        <ele>403.692</ele>
        <time>2013-06-25T08:48:19Z</time>
      </trkpt>
      <trkpt lat="44.61609" lon="2.19819">
        <ele>404.63</ele>
        <time>2013-06-25T08:48:33Z</time>
      </trkpt>
      <trkpt lat="44.61619" lon="2.19799">
        <ele>404.921</ele>
        <time>2013-06-25T08:48:49Z</time>
      </trkpt>
      <trkpt lat="44.61627" lon="2.19776">
        <ele>405.844</ele>
        <time>2013-06-25T08:49:06Z</time>
      </trkpt>
      <trkpt lat="44.61633" lon="2.19755">
        <ele>405.11</ele>
        <time>2013-06-25T08:49:22Z</time>
      </trkpt>
      <trkpt lat="44.61633" lon="2.19731">
        <ele>404.189</ele>
        <time>2013-06-25T08:49:39Z</time>
      </trkpt>
      <trkpt lat="44.6163" lon="2.1971">
        <ele>402.912</ele>
        <time>2013-06-25T08:49:55Z</time>
      </trkpt>
      <trkpt lat="44.6163" lon="2.19678">
        <ele>402.878</ele>
        <time>2013-06-25T08:50:16Z</time>
      </trkpt>
      <trkpt lat="44.61636" lon="2.19668">
        <ele>402.471</ele>
        <time>2013-06-25T08:50:24Z</time>
      </trkpt>
      <trkpt lat="44.6165" lon="2.1965">
        <ele>403.612</ele>
        <time>2013-06-25T08:50:41Z</time>
      </trkpt>
      <trkpt lat="44.61664" lon="2.19634">
        <ele>405.037</ele>
        <time>2013-06-25T08:50:58Z</time>
      </trkpt>
      <trkpt lat="44.61675" lon="2.19607">
        <ele>406.939</ele>
        <time>2013-06-25T08:51:18Z</time>
      </trkpt>
      <trkpt lat="44.61682" lon="2.19586">
        <ele>408.059</ele>
        <time>2013-06-25T08:51:34Z</time>
      </trkpt>
      <trkpt lat="44.61693" lon="2.19536">
        <ele>410.064</ele>
        <time>2013-06-25T08:52:08Z</time>
      </trkpt>
      <trkpt lat="44.61695" lon="2.19495">
        <ele>410.234</ele>
        <time>2013-06-25T08:52:35Z</time>
      </trkpt>
      <trkpt lat="44.61698" lon="2.19458">
        <ele>407.676</ele>
        <time>2013-06-25T08:53:03Z</time>
      </trkpt>
      <trkpt lat="44.61698" lon="2.19435">
        <ele>405.247</ele>
        <time>2013-06-25T08:53:20Z</time>
      </trkpt>
      <trkpt lat="44.61696" lon="2.19412">
        <ele>404.033</ele>
        <time>2013-06-25T08:53:40Z</time>
      </trkpt>
      <trkpt lat="44.61699" lon="2.19392">
        <ele>402.257</ele>
        <time>2013-06-25T08:53:56Z</time>
      </trkpt>
      <trkpt lat="44.61694" lon="2.19361">
        <ele>403.037</ele>
        <time>2013-06-25T08:54:14Z</time>
      </trkpt>
      <trkpt lat="44.61696" lon="2.19329">
        <ele>401.617</ele>
        <time>2013-06-25T08:54:34Z</time>
      </trkpt>
      <trkpt lat="44.61702" lon="2.193">
        <ele>400.661</ele>
        <time>2013-06-25T08:54:55Z</time>
      </trkpt>
      <trkpt lat="44.61703" lon="2.19291">
        <ele>400.327</ele>
        <time>2013-06-25T08:55:02Z</time>
      </trkpt>
      <trkpt lat="44.61692" lon="2.19268">
        <ele>398.877</ele>
        <time>2013-06-25T08:55:25Z</time>
      </trkpt>
      <trkpt lat="44.61695" lon="2.19269">
        <ele>399.161</ele>
        <time>2013-06-25T08:55:42Z</time>
      </trkpt>
      <trkpt lat="44.61686" lon="2.19272">
        <ele>399.687</ele>
        <time>2013-06-25T08:56:09Z</time>
      </trkpt>
      <trkpt lat="44.61694" lon="2.19263">
        <ele>399.829</ele>
        <time>2013-06-25T08:56:26Z</time>
      </trkpt>
      <trkpt lat="44.61686" lon="2.19264">
        <ele>399.652</ele>
        <time>2013-06-25T08:56:42Z</time>
      </trkpt>
      <trkpt lat="44.61683" lon="2.19267">
        <ele>399.823</ele>
        <time>2013-06-25T08:56:57Z</time>
      </trkpt>
      <trkpt lat="44.61685" lon="2.19267">
        <ele>400.074</ele>
        <time>2013-06-25T08:57:13Z</time>
      </trkpt>
      <trkpt lat="44.61688" lon="2.19261">
        <ele>400.419</ele>
        <time>2013-06-25T08:57:29Z</time>
      </trkpt>
      <trkpt lat="44.61691" lon="2.19263">
        <ele>399.966</ele>
        <time>2013-06-25T08:57:48Z</time>
      </trkpt>
      <trkpt lat="44.61683" lon="2.19254">
        <ele>400.395</ele>
        <time>2013-06-25T08:58:02Z</time>
      </trkpt>
      <trkpt lat="44.61681" lon="2.19252">
        <ele>400.265</ele>
        <time>2013-06-25T08:58:28Z</time>
      </trkpt>
      <trkpt lat="44.61685" lon="2.19255">
        <ele>400.385</ele>
        <time>2013-06-25T08:58:32Z</time>
      </trkpt>
      <trkpt lat="44.61693" lon="2.19264">
        <ele>400.334</ele>
        <time>2013-06-25T08:58:44Z</time>
      </trkpt>
      <trkpt lat="44.61694" lon="2.19263">
        <ele>399.94</ele>
        <time>2013-06-25T08:58:47Z</time>
      </trkpt>
      <trkpt lat="44.61687" lon="2.19264">
        <ele>400.266</ele>
        <time>2013-06-25T08:58:59Z</time>
      </trkpt>
      <trkpt lat="44.61681" lon="2.19259">
        <ele>400.305</ele>
        <time>2013-06-25T08:59:15Z</time>
      </trkpt>
      <trkpt lat="44.61684" lon="2.19261">
        <ele>399.838</ele>
        <time>2013-06-25T08:59:33Z</time>
      </trkpt>
      <trkpt lat="44.61687" lon="2.19262">
        <ele>400.275</ele>
        <time>2013-06-25T08:59:46Z</time>
      </trkpt>
      <trkpt lat="44.61688" lon="2.19262">
        <ele>399.831</ele>
        <time>2013-06-25T09:00:05Z</time>
      </trkpt>
      <trkpt lat="44.61686" lon="2.19258">
        <ele>399.958</ele>
        <time>2013-06-25T09:00:28Z</time>
      </trkpt>
      <trkpt lat="44.61686" lon="2.19261">
        <ele>399.688</ele>
        <time>2013-06-25T09:00:52Z</time>
      </trkpt>
      <trkpt lat="44.61686" lon="2.19259">
        <ele>400.164</ele>
        <time>2013-06-25T09:01:24Z</time>
      </trkpt>
      <trkpt lat="44.6169" lon="2.19263">
        <ele>399.53</ele>
        <time>2013-06-25T09:01:38Z</time>
      </trkpt>
      <trkpt lat="44.6169" lon="2.19266">
        <ele>399.702</ele>
        <time>2013-06-25T09:01:55Z</time>
      </trkpt>
      <trkpt lat="44.61685" lon="2.19264">
        <ele>399.535</ele>
        <time>2013-06-25T09:02:23Z</time>
      </trkpt>
      <trkpt lat="44.61686" lon="2.19264">
        <ele>399.562</ele>
        <time>2013-06-25T09:02:40Z</time>
      </trkpt>
      <trkpt lat="44.61689" lon="2.19262">
        <ele>399.401</ele>
        <time>2013-06-25T09:02:56Z</time>
      </trkpt>
      <trkpt lat="44.61692" lon="2.19262">
        <ele>400.002</ele>
        <time>2013-06-25T09:03:14Z</time>
      </trkpt>
      <trkpt lat="44.61689" lon="2.19264">
        <ele>399.396</ele>
        <time>2013-06-25T09:03:27Z</time>
      </trkpt>
      <trkpt lat="44.61685" lon="2.19267">
        <ele>399.723</ele>
        <time>2013-06-25T09:03:49Z</time>
      </trkpt>
      <trkpt lat="44.61683" lon="2.19259">
        <ele>399.389</ele>
        <time>2013-06-25T09:04:04Z</time>
      </trkpt>
      <trkpt lat="44.61686" lon="2.19259">
        <ele>399.788</ele>
        <time>2013-06-25T09:04:35Z</time>
      </trkpt>
      <trkpt lat="44.61681" lon="2.19268">
        <ele>399.937</ele>
        <time>2013-06-25T09:05:11Z</time>
      </trkpt>
      <trkpt lat="44.61689" lon="2.19263">
        <ele>399.049</ele>
        <time>2013-06-25T09:05:35Z</time>
      </trkpt>
      <trkpt lat="44.61691" lon="2.19262">
        <ele>399.345</ele>
        <time>2013-06-25T09:05:50Z</time>
      </trkpt>
      <trkpt lat="44.617" lon="2.19267">
        <ele>398.874</ele>
        <time>2013-06-25T09:06:09Z</time>
      </trkpt>
      <trkpt lat="44.6171" lon="2.19265">
        <ele>398.537</ele>
        <time>2013-06-25T09:06:20Z</time>
      </trkpt>
      <trkpt lat="44.61724" lon="2.19259">
        <ele>400.768</ele>
        <time>2013-06-25T09:06:39Z</time>
      </trkpt>
      <trkpt lat="44.61738" lon="2.19247">
        <ele>401.275</ele>
        <time>2013-06-25T09:07:01Z</time>
      </trkpt>
      <trkpt lat="44.61747" lon="2.19237">
        <ele>402.014</ele>
        <time>2013-06-25T09:07:16Z</time>
      </trkpt>
      <trkpt lat="44.61761" lon="2.19222">
        <ele>405.175</ele>
        <time>2013-06-25T09:07:37Z</time>
      </trkpt>
      <trkpt lat="44.61773" lon="2.19208">
        <ele>406.65</ele>
        <time>2013-06-25T09:07:55Z</time>
      </trkpt>
      <trkpt lat="44.61787" lon="2.19186">
        <ele>408.283</ele>
        <time>2013-06-25T09:08:19Z</time>
      </trkpt>
      <trkpt lat="44.61797" lon="2.19166">
        <ele>411.756</ele>
        <time>2013-06-25T09:08:40Z</time>
      </trkpt>
      <trkpt lat="44.61806" lon="2.19146">
        <ele>414.856</ele>
        <time>2013-06-25T09:08:59Z</time>
      </trkpt>
      <trkpt lat="44.61814" lon="2.19127">
        <ele>415.65</ele>
        <time>2013-06-25T09:09:17Z</time>
      </trkpt>
      <trkpt lat="44.61816" lon="2.1912">
        <ele>416.558</ele>
        <time>2013-06-25T09:09:36Z</time>
      </trkpt>
      <trkpt lat="44.61804" lon="2.19108">
        <ele>417.537</ele>
        <time>2013-06-25T09:09:53Z</time>
      </trkpt>
      <trkpt lat="44.6179" lon="2.19077">
        <ele>418.651</ele>
        <time>2013-06-25T09:10:19Z</time>
      </trkpt>
      <trkpt lat="44.61785" lon="2.19063">
        <ele>418.895</ele>
        <time>2013-06-25T09:10:34Z</time>
      </trkpt>
      <trkpt lat="44.61795" lon="2.19038">
        <ele>419.842</ele>
        <time>2013-06-25T09:10:58Z</time>
      </trkpt>
      <trkpt lat="44.61801" lon="2.19038">
        <ele>419.239</ele>
        <time>2013-06-25T09:11:14Z</time>
      </trkpt>
      <trkpt lat="44.61799" lon="2.19042">
        <ele>419.339</ele>
        <time>2013-06-25T09:11:30Z</time>
      </trkpt>
      <trkpt lat="44.618" lon="2.19045">
        <ele>419.88</ele>
        <time>2013-06-25T09:11:45Z</time>
      </trkpt>
      <trkpt lat="44.61812" lon="2.19046">
        <ele>419.369</ele>
        <time>2013-06-25T09:12:05Z</time>
      </trkpt>
      <trkpt lat="44.61811" lon="2.19042">
        <ele>419.054</ele>
        <time>2013-06-25T09:12:20Z</time>
      </trkpt>
      <trkpt lat="44.61813" lon="2.19044">
        <ele>419.324</ele>
        <time>2013-06-25T09:12:34Z</time>
      </trkpt>
      <trkpt lat="44.61803" lon="2.19047">
        <ele>420.246</ele>
        <time>2013-06-25T09:12:52Z</time>
      </trkpt>
      <trkpt lat="44.61804" lon="2.19049">
        <ele>420.357</ele>
        <time>2013-06-25T09:13:09Z</time>
      </trkpt>
      <trkpt lat="44.61801" lon="2.1905">
        <ele>420.267</ele>
        <time>2013-06-25T09:13:31Z</time>
      </trkpt>
      <trkpt lat="44.61803" lon="2.19047">
        <ele>420.712</ele>
        <time>2013-06-25T09:13:47Z</time>
      </trkpt>
      <trkpt lat="44.61803" lon="2.19043">
        <ele>420.706</ele>
        <time>2013-06-25T09:14:05Z</time>
      </trkpt>
      <trkpt lat="44.61796" lon="2.19035">
        <ele>420.793</ele>
        <time>2013-06-25T09:14:25Z</time>
      </trkpt>
      <trkpt lat="44.61792" lon="2.19033">
        <ele>420.98</ele>
        <time>2013-06-25T09:14:39Z</time>
      </trkpt>
      <trkpt lat="44.618" lon="2.19036">
        <ele>420.835</ele>
        <time>2013-06-25T09:14:58Z</time>
      </trkpt>
      <trkpt lat="44.61791" lon="2.19029">
        <ele>420.596</ele>
        <time>2013-06-25T09:15:19Z</time>
      </trkpt>
      <trkpt lat="44.61799" lon="2.19041">
        <ele>420.617</ele>
        <time>2013-06-25T09:16:05Z</time>
      </trkpt>
      <trkpt lat="44.618" lon="2.19042">
        <ele>420.883</ele>
        <time>2013-06-25T09:16:33Z</time>
      </trkpt>
      <trkpt lat="44.61802" lon="2.19039">
        <ele>420.154</ele>
        <time>2013-06-25T09:16:58Z</time>
      </trkpt>
      <trkpt lat="44.61801" lon="2.19038">
        <ele>420.017</ele>
        <time>2013-06-25T09:17:40Z</time>
      </trkpt>
      <trkpt lat="44.61797" lon="2.19033">
        <ele>419.923</ele>
        <time>2013-06-25T09:17:57Z</time>
      </trkpt>
      <trkpt lat="44.61789" lon="2.19016">
        <ele>418.772</ele>
        <time>2013-06-25T09:18:17Z</time>
      </trkpt>
      <trkpt lat="44.61769" lon="2.19">
        <ele>416.864</ele>
        <time>2013-06-25T09:18:39Z</time>
      </trkpt>
      <trkpt lat="44.6176" lon="2.18986">
        <ele>414.84</ele>
        <time>2013-06-25T09:18:53Z</time>
      </trkpt>
      <trkpt lat="44.61749" lon="2.18961">
        <ele>410.914</ele>
        <time>2013-06-25T09:19:14Z</time>
      </trkpt>
      <trkpt lat="44.61749" lon="2.1896">
        <ele>410.901</ele>
        <time>2013-06-25T09:19:15Z</time>
      </trkpt>
      <trkpt lat="44.61745" lon="2.18954">
        <ele>410.665</ele>
        <time>2013-06-25T09:19:21Z</time>
      </trkpt>
      <trkpt lat="44.61729" lon="2.1893">
        <ele>407.26</ele>
        <time>2013-06-25T09:19:44Z</time>
      </trkpt>
      <trkpt lat="44.61714" lon="2.18899">
        <ele>404.269</ele>
        <time>2013-06-25T09:20:09Z</time>
      </trkpt>
      <trkpt lat="44.617" lon="2.18868">
        <ele>401.156</ele>
        <time>2013-06-25T09:20:34Z</time>
      </trkpt>
      <trkpt lat="44.61693" lon="2.18856">
        <ele>400.535</ele>
        <time>2013-06-25T09:20:46Z</time>
      </trkpt>
      <trkpt lat="44.61706" lon="2.18822">
        <ele>397.402</ele>
        <time>2013-06-25T09:21:11Z</time>
      </trkpt>
      <trkpt lat="44.61723" lon="2.18798">
        <ele>394.722</ele>
        <time>2013-06-25T09:21:34Z</time>
      </trkpt>
      <trkpt lat="44.61736" lon="2.18787">
        <ele>392.922</ele>
        <time>2013-06-25T09:21:52Z</time>
      </trkpt>
      <trkpt lat="44.61757" lon="2.1878">
        <ele>389.721</ele>
        <time>2013-06-25T09:22:12Z</time>
      </trkpt>
      <trkpt lat="44.61783" lon="2.18778">
        <ele>386.706</ele>
        <time>2013-06-25T09:22:35Z</time>
      </trkpt>
      <trkpt lat="44.61807" lon="2.18778">
        <ele>383.704</ele>
        <time>2013-06-25T09:22:58Z</time>
      </trkpt>
      <trkpt lat="44.6183" lon="2.18778">
        <ele>380.61</ele>
        <time>2013-06-25T09:23:20Z</time>
      </trkpt>
      <trkpt lat="44.61853" lon="2.18776">
        <ele>377.912</ele>
        <time>2013-06-25T09:23:42Z</time>
      </trkpt>
      <trkpt lat="44.61855" lon="2.18775">
        <ele>377.253</ele>
        <time>2013-06-25T09:23:44Z</time>
      </trkpt>
      <trkpt lat="44.61875" lon="2.1876">
        <ele>374.158</ele>
        <time>2013-06-25T09:24:07Z</time>
      </trkpt>
      <trkpt lat="44.6189" lon="2.18735">
        <ele>372.37</ele>
        <time>2013-06-25T09:24:30Z</time>
      </trkpt>
      <trkpt lat="44.61902" lon="2.18705">
        <ele>370.848</ele>
        <time>2013-06-25T09:24:54Z</time>
      </trkpt>
      <trkpt lat="44.61908" lon="2.18681">
        <ele>369.295</ele>
        <time>2013-06-25T09:25:12Z</time>
      </trkpt>
      <trkpt lat="44.6191" lon="2.18668">
        <ele>367.673</ele>
        <time>2013-06-25T09:25:21Z</time>
      </trkpt>
      <trkpt lat="44.61906" lon="2.18627">
        <ele>364.449</ele>
        <time>2013-06-25T09:25:47Z</time>
      </trkpt>
      <trkpt lat="44.61909" lon="2.18582">
        <ele>363.601</ele>
        <time>2013-06-25T09:26:16Z</time>
      </trkpt>
      <trkpt lat="44.61912" lon="2.18536">
        <ele>364.433</ele>
        <time>2013-06-25T09:26:47Z</time>
      </trkpt>
      <trkpt lat="44.61912" lon="2.18504">
        <ele>367.458</ele>
        <time>2013-06-25T09:27:10Z</time>
      </trkpt>
      <trkpt lat="44.61913" lon="2.18465">
        <ele>369.945</ele>
        <time>2013-06-25T09:27:39Z</time>
      </trkpt>
      <trkpt lat="44.61915" lon="2.18431">
        <ele>372.501</ele>
        <time>2013-06-25T09:28:04Z</time>
      </trkpt>
      <trkpt lat="44.61917" lon="2.18391">
        <ele>373.462</ele>
        <time>2013-06-25T09:28:33Z</time>
      </trkpt>
      <trkpt lat="44.61918" lon="2.18356">
        <ele>374.7</ele>
        <time>2013-06-25T09:28:59Z</time>
      </trkpt>
      <trkpt lat="44.61919" lon="2.18322">
        <ele>377.222</ele>
        <time>2013-06-25T09:29:25Z</time>
      </trkpt>
      <trkpt lat="44.61919" lon="2.18291">
        <ele>378.719</ele>
        <time>2013-06-25T09:29:49Z</time>
      </trkpt>
      <trkpt lat="44.61921" lon="2.18265">
        <ele>381.734</ele>
        <time>2013-06-25T09:30:09Z</time>
      </trkpt>
      <trkpt lat="44.61927" lon="2.18232">
        <ele>383.751</ele>
        <time>2013-06-25T09:30:34Z</time>
      </trkpt>
      <trkpt lat="44.6193" lon="2.18196">
        <ele>385.811</ele>
        <time>2013-06-25T09:31:01Z</time>
      </trkpt>
      <trkpt lat="44.61929" lon="2.18192">
        <ele>385.882</ele>
        <time>2013-06-25T09:31:16Z</time>
      </trkpt>
      <trkpt lat="44.6193" lon="2.18191">
        <ele>386.219</ele>
        <time>2013-06-25T09:33:31Z</time>
      </trkpt>
      <trkpt lat="44.61926" lon="2.18182">
        <ele>386.138</ele>
        <time>2013-06-25T09:33:48Z</time>
      </trkpt>
      <trkpt lat="44.61914" lon="2.18164">
        <ele>385.848</ele>
        <time>2013-06-25T09:34:05Z</time>
      </trkpt>
      <trkpt lat="44.61909" lon="2.1816">
        <ele>385.573</ele>
        <time>2013-06-25T09:34:11Z</time>
      </trkpt>
      <trkpt lat="44.61892" lon="2.18156">
        <ele>386.401</ele>
        <time>2013-06-25T09:34:30Z</time>
      </trkpt>
      <trkpt lat="44.61875" lon="2.18154">
        <ele>387.796</ele>
        <time>2013-06-25T09:34:46Z</time>
      </trkpt>
      <trkpt lat="44.61858" lon="2.18152">
        <ele>388.079</ele>
        <time>2013-06-25T09:35:02Z</time>
      </trkpt>
      <trkpt lat="44.61832" lon="2.18149">
        <ele>389.123</ele>
        <time>2013-06-25T09:35:23Z</time>
      </trkpt>
      <trkpt lat="44.61803" lon="2.1814">
        <ele>390.207</ele>
        <time>2013-06-25T09:35:48Z</time>
      </trkpt>
      <trkpt lat="44.61773" lon="2.18118">
        <ele>392.245</ele>
        <time>2013-06-25T09:36:18Z</time>
      </trkpt>
      <trkpt lat="44.61749" lon="2.18096">
        <ele>393.899</ele>
        <time>2013-06-25T09:36:44Z</time>
      </trkpt>
      <trkpt lat="44.61724" lon="2.18073">
        <ele>394.487</ele>
        <time>2013-06-25T09:37:11Z</time>
      </trkpt>
      <trkpt lat="44.61703" lon="2.18054">
        <ele>394.278</ele>
        <time>2013-06-25T09:37:34Z</time>
      </trkpt>
      <trkpt lat="44.61688" lon="2.18025">
        <ele>394.619</ele>
        <time>2013-06-25T09:38:01Z</time>
      </trkpt>
      <trkpt lat="44.61688" lon="2.18024">
        <ele>394.352</ele>
        <time>2013-06-25T09:38:30Z</time>
      </trkpt>
      <trkpt lat="44.61683" lon="2.18017">
        <ele>394.086</ele>
        <time>2013-06-25T09:38:45Z</time>
      </trkpt>
      <trkpt lat="44.6169" lon="2.17986">
        <ele>396.275</ele>
        <time>2013-06-25T09:39:09Z</time>
      </trkpt>
      <trkpt lat="44.61701" lon="2.17956">
        <ele>396.444</ele>
        <time>2013-06-25T09:39:32Z</time>
      </trkpt>
      <trkpt lat="44.61711" lon="2.17921">
        <ele>395.852</ele>
        <time>2013-06-25T09:39:58Z</time>
      </trkpt>
      <trkpt lat="44.61708" lon="2.17913">
        <ele>395.125</ele>
        <time>2013-06-25T09:40:05Z</time>
      </trkpt>
      <trkpt lat="44.61698" lon="2.17889">
        <ele>393.619</ele>
        <time>2013-06-25T09:40:25Z</time>
      </trkpt>
      <trkpt lat="44.61704" lon="2.17874">
        <ele>393.198</ele>
        <time>2013-06-25T09:40:43Z</time>
      </trkpt>
      <trkpt lat="44.6171" lon="2.17863">
        <ele>392.391</ele>
        <time>2013-06-25T09:40:54Z</time>
      </trkpt>
      <trkpt lat="44.61725" lon="2.17852">
        <ele>392.406</ele>
        <time>2013-06-25T09:41:12Z</time>
      </trkpt>
      <trkpt lat="44.61734" lon="2.17854">
        <ele>392.755</ele>
        <time>2013-06-25T09:41:22Z</time>
      </trkpt>
      <trkpt lat="44.61752" lon="2.17845">
        <ele>393.286</ele>
        <time>2013-06-25T09:41:41Z</time>
      </trkpt>
      <trkpt lat="44.61755" lon="2.17843">
        <ele>392.297</ele>
        <time>2013-06-25T09:41:44Z</time>
      </trkpt>
      <trkpt lat="44.61769" lon="2.17813">
        <ele>390.092</ele>
        <time>2013-06-25T09:42:09Z</time>
      </trkpt>
      <trkpt lat="44.61784" lon="2.17785">
        <ele>387.793</ele>
        <time>2013-06-25T09:42:34Z</time>
      </trkpt>
      <trkpt lat="44.61788" lon="2.1778">
        <ele>385.832</ele>
        <time>2013-06-25T09:42:40Z</time>
      </trkpt>
      <trkpt lat="44.61818" lon="2.17777">
        <ele>383.806</ele>
        <time>2013-06-25T09:43:08Z</time>
      </trkpt>
      <trkpt lat="44.6183" lon="2.17776">
        <ele>381.278</ele>
        <time>2013-06-25T09:43:19Z</time>
      </trkpt>
      <trkpt lat="44.61856" lon="2.17751">
        <ele>378.777</ele>
        <time>2013-06-25T09:43:51Z</time>
      </trkpt>
      <trkpt lat="44.61871" lon="2.17717">
        <ele>379.887</ele>
        <time>2013-06-25T09:44:19Z</time>
      </trkpt>
      <trkpt lat="44.61871" lon="2.177">
        <ele>383.177</ele>
        <time>2013-06-25T09:44:34Z</time>
      </trkpt>
      <trkpt lat="44.61871" lon="2.17699">
        <ele>383.403</ele>
        <time>2013-06-25T09:44:35Z</time>
      </trkpt>
      <trkpt lat="44.61882" lon="2.17674">
        <ele>384.694</ele>
        <time>2013-06-25T09:44:58Z</time>
      </trkpt>
      <trkpt lat="44.61889" lon="2.17655">
        <ele>384.923</ele>
        <time>2013-06-25T09:45:14Z</time>
      </trkpt>
      <trkpt lat="44.61895" lon="2.17617">
        <ele>384.751</ele>
        <time>2013-06-25T09:45:42Z</time>
      </trkpt>
      <trkpt lat="44.61915" lon="2.17599">
        <ele>385.047</ele>
        <time>2013-06-25T09:46:07Z</time>
      </trkpt>
      <trkpt lat="44.61926" lon="2.1759">
        <ele>384.31</ele>
        <time>2013-06-25T09:46:27Z</time>
      </trkpt>
      <trkpt lat="44.61929" lon="2.17591">
        <ele>384.444</ele>
        <time>2013-06-25T09:47:18Z</time>
      </trkpt>
      <trkpt lat="44.61929" lon="2.1759">
        <ele>384.22</ele>
        <time>2013-06-25T09:47:41Z</time>
      </trkpt>
      <trkpt lat="44.61929" lon="2.17586">
        <ele>384.581</ele>
        <time>2013-06-25T09:48:01Z</time>
      </trkpt>
      <trkpt lat="44.61937" lon="2.1757">
        <ele>384.076</ele>
        <time>2013-06-25T09:48:18Z</time>
      </trkpt>
      <trkpt lat="44.61954" lon="2.17532">
        <ele>380.983</ele>
        <time>2013-06-25T09:48:47Z</time>
      </trkpt>
      <trkpt lat="44.61974" lon="2.17488">
        <ele>379.975</ele>
        <time>2013-06-25T09:49:21Z</time>
      </trkpt>
      <trkpt lat="44.61991" lon="2.17449">
        <ele>377.221</ele>
        <time>2013-06-25T09:49:52Z</time>
      </trkpt>
      <trkpt lat="44.61996" lon="2.17407">
        <ele>376.504</ele>
        <time>2013-06-25T09:50:20Z</time>
      </trkpt>
      <trkpt lat="44.61987" lon="2.17371">
        <ele>373.878</ele>
        <time>2013-06-25T09:50:45Z</time>
      </trkpt>
      <trkpt lat="44.61976" lon="2.17344">
        <ele>370.822</ele>
        <time>2013-06-25T09:51:05Z</time>
      </trkpt>
      <trkpt lat="44.61976" lon="2.17342">
        <ele>370.69</ele>
        <time>2013-06-25T09:51:06Z</time>
      </trkpt>
      <trkpt lat="44.61961" lon="2.173">
        <ele>367.812</ele>
        <time>2013-06-25T09:51:37Z</time>
      </trkpt>
      <trkpt lat="44.61944" lon="2.17252">
        <ele>366.609</ele>
        <time>2013-06-25T09:52:10Z</time>
      </trkpt>
      <trkpt lat="44.61929" lon="2.17207">
        <ele>365.327</ele>
        <time>2013-06-25T09:52:42Z</time>
      </trkpt>
      <trkpt lat="44.61918" lon="2.17165">
        <ele>362.279</ele>
        <time>2013-06-25T09:53:12Z</time>
      </trkpt>
      <trkpt lat="44.61914" lon="2.17135">
        <ele>359.98</ele>
        <time>2013-06-25T09:53:32Z</time>
      </trkpt>
      <trkpt lat="44.61908" lon="2.17092">
        <ele>357.673</ele>
        <time>2013-06-25T09:54:00Z</time>
      </trkpt>
      <trkpt lat="44.61906" lon="2.17048">
        <ele>356.735</ele>
        <time>2013-06-25T09:54:27Z</time>
      </trkpt>
      <trkpt lat="44.6191" lon="2.17019">
        <ele>355.857</ele>
        <time>2013-06-25T09:54:46Z</time>
      </trkpt>
      <trkpt lat="44.61917" lon="2.16959">
        <ele>354.651</ele>
        <time>2013-06-25T09:55:22Z</time>
      </trkpt>
      <trkpt lat="44.61921" lon="2.16911">
        <ele>354.079</ele>
        <time>2013-06-25T09:55:52Z</time>
      </trkpt>
      <trkpt lat="44.61927" lon="2.16863">
        <ele>352.937</ele>
        <time>2013-06-25T09:56:23Z</time>
      </trkpt>
      <trkpt lat="44.61927" lon="2.16862">
        <ele>352.365</ele>
        <time>2013-06-25T09:56:24Z</time>
      </trkpt>
      <trkpt lat="44.61921" lon="2.16855">
        <ele>352.311</ele>
        <time>2013-06-25T09:56:43Z</time>
      </trkpt>
      <trkpt lat="44.61925" lon="2.16854">
        <ele>352.038</ele>
        <time>2013-06-25T09:57:03Z</time>
      </trkpt>
      <trkpt lat="44.61914" lon="2.1685">
        <ele>352.351</ele>
        <time>2013-06-25T09:57:55Z</time>
      </trkpt>
      <trkpt lat="44.61901" lon="2.16844">
        <ele>353.019</ele>
        <time>2013-06-25T09:58:11Z</time>
      </trkpt>
      <trkpt lat="44.61874" lon="2.16836">
        <ele>352.684</ele>
        <time>2013-06-25T09:58:35Z</time>
      </trkpt>
      <trkpt lat="44.61847" lon="2.16831">
        <ele>351.869</ele>
        <time>2013-06-25T09:59:00Z</time>
      </trkpt>
      <trkpt lat="44.6182" lon="2.16822">
        <ele>350.718</ele>
        <time>2013-06-25T09:59:27Z</time>
      </trkpt>
      <trkpt lat="44.61813" lon="2.16821">
        <ele>349.681</ele>
        <time>2013-06-25T09:59:44Z</time>
      </trkpt>
      <trkpt lat="44.61795" lon="2.16812">
        <ele>348.016</ele>
        <time>2013-06-25T10:00:07Z</time>
      </trkpt>
      <trkpt lat="44.61795" lon="2.16812">
        <ele>348.004</ele>
        <time>2013-06-25T10:00:42Z</time>
      </trkpt>
      <trkpt lat="44.61792" lon="2.16817">
        <ele>348.06</ele>
        <time>2013-06-25T10:01:13Z</time>
      </trkpt>
      <trkpt lat="44.61764" lon="2.16823">
        <ele>345.865</ele>
        <time>2013-06-25T10:01:40Z</time>
      </trkpt>
      <trkpt lat="44.61742" lon="2.16836">
        <ele>343.636</ele>
        <time>2013-06-25T10:02:03Z</time>
      </trkpt>
      <trkpt lat="44.61719" lon="2.16853">
        <ele>341.968</ele>
        <time>2013-06-25T10:02:27Z</time>
      </trkpt>
      <trkpt lat="44.61695" lon="2.16853">
        <ele>342.281</ele>
        <time>2013-06-25T10:02:48Z</time>
      </trkpt>
      <trkpt lat="44.61685" lon="2.16837">
        <ele>339.47</ele>
        <time>2013-06-25T10:03:08Z</time>
      </trkpt>
      <trkpt lat="44.61683" lon="2.16819">
        <ele>337.09</ele>
        <time>2013-06-25T10:03:25Z</time>
      </trkpt>
      <trkpt lat="44.6168" lon="2.16804">
        <ele>335.335</ele>
        <time>2013-06-25T10:03:39Z</time>
      </trkpt>
      <trkpt lat="44.61679" lon="2.16788">
        <ele>334.885</ele>
        <time>2013-06-25T10:03:54Z</time>
      </trkpt>
      <trkpt lat="44.61679" lon="2.16764">
        <ele>332.889</ele>
        <time>2013-06-25T10:04:14Z</time>
      </trkpt>
      <trkpt lat="44.61678" lon="2.16735">
        <ele>330.459</ele>
        <time>2013-06-25T10:04:36Z</time>
      </trkpt>
      <trkpt lat="44.61675" lon="2.16713">
        <ele>329.128</ele>
        <time>2013-06-25T10:04:55Z</time>
      </trkpt>
      <trkpt lat="44.61671" lon="2.16686">
        <ele>326.897</ele>
        <time>2013-06-25T10:05:15Z</time>
      </trkpt>
      <trkpt lat="44.61671" lon="2.16682">
        <ele>326.179</ele>
        <time>2013-06-25T10:05:18Z</time>
      </trkpt>
      <trkpt lat="44.61664" lon="2.16664">
        <ele>323.413</ele>
        <time>2013-06-25T10:05:39Z</time>
      </trkpt>
      <trkpt lat="44.6166" lon="2.16644">
        <ele>322.16</ele>
        <time>2013-06-25T10:05:56Z</time>
      </trkpt>
      <trkpt lat="44.61658" lon="2.16626">
        <ele>321.042</ele>
        <time>2013-06-25T10:06:13Z</time>
      </trkpt>
      <trkpt lat="44.61654" lon="2.16611">
        <ele>318.716</ele>
        <time>2013-06-25T10:06:30Z</time>
      </trkpt>
      <trkpt lat="44.61651" lon="2.16593">
        <ele>316.78</ele>
        <time>2013-06-25T10:06:49Z</time>
      </trkpt>
      <trkpt lat="44.61646" lon="2.16582">
        <ele>315.711</ele>
        <time>2013-06-25T10:07:07Z</time>
      </trkpt>
      <trkpt lat="44.61642" lon="2.16573">
        <ele>314.671</ele>
        <time>2013-06-25T10:07:23Z</time>
      </trkpt>
      <trkpt lat="44.6164" lon="2.16561">
        <ele>312.785</ele>
        <time>2013-06-25T10:07:41Z</time>
      </trkpt>
      <trkpt lat="44.61636" lon="2.16552">
        <ele>310.88</ele>
        <time>2013-06-25T10:07:56Z</time>
      </trkpt>
      <trkpt lat="44.61629" lon="2.16543">
        <ele>309.489</ele>
        <time>2013-06-25T10:08:12Z</time>
      </trkpt>
      <trkpt lat="44.61625" lon="2.16533">
        <ele>308.504</ele>
        <time>2013-06-25T10:08:27Z</time>
      </trkpt>
      <trkpt lat="44.61623" lon="2.16522">
        <ele>306.612</ele>
        <time>2013-06-25T10:08:46Z</time>
      </trkpt>
      <trkpt lat="44.61623" lon="2.16519">
        <ele>306.368</ele>
        <time>2013-06-25T10:09:18Z</time>
      </trkpt>
      <trkpt lat="44.61623" lon="2.16519">
        <ele>306.491</ele>
        <time>2013-06-25T10:10:31Z</time>
      </trkpt>
      <trkpt lat="44.61621" lon="2.16515">
        <ele>305.436</ele>
        <time>2013-06-25T10:11:26Z</time>
      </trkpt>
      <trkpt lat="44.61615" lon="2.16511">
        <ele>304.495</ele>
        <time>2013-06-25T10:11:39Z</time>
      </trkpt>
      <trkpt lat="44.61609" lon="2.16502">
        <ele>302.66</ele>
        <time>2013-06-25T10:11:54Z</time>
      </trkpt>
      <trkpt lat="44.61604" lon="2.1649">
        <ele>301.33</ele>
        <time>2013-06-25T10:12:10Z</time>
      </trkpt>
      <trkpt lat="44.61609" lon="2.16466">
        <ele>299.335</ele>
        <time>2013-06-25T10:12:29Z</time>
      </trkpt>
      <trkpt lat="44.616" lon="2.16435">
        <ele>297.588</ele>
        <time>2013-06-25T10:12:52Z</time>
      </trkpt>
      <trkpt lat="44.61584" lon="2.16403">
        <ele>295.64</ele>
        <time>2013-06-25T10:13:20Z</time>
      </trkpt>
      <trkpt lat="44.61581" lon="2.16401">
        <ele>295.05</ele>
        <time>2013-06-25T10:13:24Z</time>
      </trkpt>
      <trkpt lat="44.61553" lon="2.16398">
        <ele>292.751</ele>
        <time>2013-06-25T10:13:51Z</time>
      </trkpt>
      <trkpt lat="44.61527" lon="2.16392">
        <ele>291.964</ele>
        <time>2013-06-25T10:14:16Z</time>
      </trkpt>
      <trkpt lat="44.61498" lon="2.16391">
        <ele>291.034</ele>
        <time>2013-06-25T10:14:44Z</time>
      </trkpt>
      <trkpt lat="44.61473" lon="2.16395">
        <ele>289.931</ele>
        <time>2013-06-25T10:15:08Z</time>
      </trkpt>
      <trkpt lat="44.61441" lon="2.16405">
        <ele>288.636</ele>
        <time>2013-06-25T10:15:38Z</time>
      </trkpt>
      <trkpt lat="44.61414" lon="2.16421">
        <ele>286.914</ele>
        <time>2013-06-25T10:16:06Z</time>
      </trkpt>
      <trkpt lat="44.61393" lon="2.16425">
        <ele>286.037</ele>
        <time>2013-06-25T10:16:29Z</time>
      </trkpt>
      <trkpt lat="44.61383" lon="2.16402">
        <ele>284.991</ele>
        <time>2013-06-25T10:16:51Z</time>
      </trkpt>
      <trkpt lat="44.61378" lon="2.16386">
        <ele>283.842</ele>
        <time>2013-06-25T10:17:12Z</time>
      </trkpt>
      <trkpt lat="44.61371" lon="2.16383">
        <ele>283</ele>
        <time>2013-06-25T10:17:42Z</time>
      </trkpt>
      <trkpt lat="44.61368" lon="2.16381">
        <ele>283.022</ele>
        <time>2013-06-25T10:17:59Z</time>
      </trkpt>
      <trkpt lat="44.61372" lon="2.16384">
        <ele>283.567</ele>
        <time>2013-06-25T10:18:20Z</time>
      </trkpt>
      <trkpt lat="44.61375" lon="2.16393">
        <ele>283.578</ele>
        <time>2013-06-25T10:18:40Z</time>
      </trkpt>
      <trkpt lat="44.61369" lon="2.16381">
        <ele>283.384</ele>
        <time>2013-06-25T10:18:57Z</time>
      </trkpt>
      <trkpt lat="44.61365" lon="2.16387">
        <ele>283.171</ele>
        <time>2013-06-25T10:19:24Z</time>
      </trkpt>
      <trkpt lat="44.61368" lon="2.16393">
        <ele>283.523</ele>
        <time>2013-06-25T10:19:51Z</time>
      </trkpt>
      <trkpt lat="44.61368" lon="2.16386">
        <ele>283.486</ele>
        <time>2013-06-25T10:20:15Z</time>
      </trkpt>
      <trkpt lat="44.61365" lon="2.16387">
        <ele>283.384</ele>
        <time>2013-06-25T10:20:52Z</time>
      </trkpt>
      <trkpt lat="44.61367" lon="2.16397">
        <ele>284.294</ele>
        <time>2013-06-25T10:21:15Z</time>
      </trkpt>
      <trkpt lat="44.61371" lon="2.16396">
        <ele>283.603</ele>
        <time>2013-06-25T10:21:30Z</time>
      </trkpt>
      <trkpt lat="44.6137" lon="2.16398">
        <ele>283.89</ele>
        <time>2013-06-25T10:21:46Z</time>
      </trkpt>
      <trkpt lat="44.61368" lon="2.16399">
        <ele>283.79</ele>
        <time>2013-06-25T10:22:01Z</time>
      </trkpt>
      <trkpt lat="44.61371" lon="2.16393">
        <ele>283.132</ele>
        <time>2013-06-25T10:22:18Z</time>
      </trkpt>
      <trkpt lat="44.61366" lon="2.16386">
        <ele>282.909</ele>
        <time>2013-06-25T10:22:50Z</time>
      </trkpt>
      <trkpt lat="44.61367" lon="2.16386">
        <ele>286.094</ele>
        <time>2013-06-25T10:23:10Z</time>
      </trkpt>
      <trkpt lat="44.61369" lon="2.16383">
        <ele>285.724</ele>
        <time>2013-06-25T10:24:07Z</time>
      </trkpt>
      <trkpt lat="44.61373" lon="2.16384">
        <ele>285.572</ele>
        <time>2013-06-25T10:24:57Z</time>
      </trkpt>
      <trkpt lat="44.61371" lon="2.1638">
        <ele>285.978</ele>
        <time>2013-06-25T10:25:24Z</time>
      </trkpt>
      <trkpt lat="44.61369" lon="2.1638">
        <ele>282.878</ele>
        <time>2013-06-25T10:26:08Z</time>
      </trkpt>
      <trkpt lat="44.61369" lon="2.16387">
        <ele>282.606</ele>
        <time>2013-06-25T10:26:21Z</time>
      </trkpt>
      <trkpt lat="44.61372" lon="2.16394">
        <ele>282.619</ele>
        <time>2013-06-25T10:26:46Z</time>
      </trkpt>
      <trkpt lat="44.61367" lon="2.16389">
        <ele>282.004</ele>
        <time>2013-06-25T10:27:19Z</time>
      </trkpt>
      <trkpt lat="44.61364" lon="2.16394">
        <ele>283.215</ele>
        <time>2013-06-25T10:27:32Z</time>
      </trkpt>
      <trkpt lat="44.61367" lon="2.16395">
        <ele>283.338</ele>
        <time>2013-06-25T10:27:43Z</time>
      </trkpt>
      <trkpt lat="44.61369" lon="2.16393">
        <ele>282.494</ele>
        <time>2013-06-25T10:28:02Z</time>
      </trkpt>
      <trkpt lat="44.61371" lon="2.16376">
        <ele>282.678</ele>
        <time>2013-06-25T10:28:17Z</time>
      </trkpt>
      <trkpt lat="44.61368" lon="2.16373">
        <ele>282.873</ele>
        <time>2013-06-25T10:28:36Z</time>
      </trkpt>
      <trkpt lat="44.61372" lon="2.16373">
        <ele>282.354</ele>
        <time>2013-06-25T10:28:49Z</time>
      </trkpt>
      <trkpt lat="44.61373" lon="2.16376">
        <ele>282.382</ele>
        <time>2013-06-25T10:29:36Z</time>
      </trkpt>
      <trkpt lat="44.61376" lon="2.16373">
        <ele>281.873</ele>
        <time>2013-06-25T10:30:13Z</time>
      </trkpt>
      <trkpt lat="44.61376" lon="2.16364">
        <ele>281.165</ele>
        <time>2013-06-25T10:30:44Z</time>
      </trkpt>
      <trkpt lat="44.61377" lon="2.16353">
        <ele>280.943</ele>
        <time>2013-06-25T10:30:53Z</time>
      </trkpt>
      <trkpt lat="44.61392" lon="2.16319">
        <ele>281.327</ele>
        <time>2013-06-25T10:31:19Z</time>
      </trkpt>
      <trkpt lat="44.614" lon="2.16286">
        <ele>281.148</ele>
        <time>2013-06-25T10:31:45Z</time>
      </trkpt>
      <trkpt lat="44.61403" lon="2.16273">
        <ele>280.383</ele>
        <time>2013-06-25T10:32:02Z</time>
      </trkpt>
      <trkpt lat="44.61406" lon="2.16268">
        <ele>280.884</ele>
        <time>2013-06-25T10:32:19Z</time>
      </trkpt>
      <trkpt lat="44.61425" lon="2.16268">
        <ele>282.806</ele>
        <time>2013-06-25T10:32:39Z</time>
      </trkpt>
      <trkpt lat="44.61448" lon="2.16264">
        <ele>285.612</ele>
        <time>2013-06-25T10:33:02Z</time>
      </trkpt>
      <trkpt lat="44.61468" lon="2.16263">
        <ele>288.983</ele>
        <time>2013-06-25T10:33:25Z</time>
      </trkpt>
      <trkpt lat="44.61488" lon="2.16257">
        <ele>291.2</ele>
        <time>2013-06-25T10:33:49Z</time>
      </trkpt>
      <trkpt lat="44.61505" lon="2.16244">
        <ele>292.621</ele>
        <time>2013-06-25T10:34:10Z</time>
      </trkpt>
      <trkpt lat="44.61524" lon="2.16221">
        <ele>291.753</ele>
        <time>2013-06-25T10:34:35Z</time>
      </trkpt>
      <trkpt lat="44.61539" lon="2.16204">
        <ele>291.732</ele>
        <time>2013-06-25T10:34:53Z</time>
      </trkpt>
      <trkpt lat="44.61555" lon="2.16181">
        <ele>289.285</ele>
        <time>2013-06-25T10:35:16Z</time>
      </trkpt>
      <trkpt lat="44.61574" lon="2.1616">
        <ele>288.487</ele>
        <time>2013-06-25T10:35:38Z</time>
      </trkpt>
      <trkpt lat="44.61598" lon="2.16153">
        <ele>287.193</ele>
        <time>2013-06-25T10:36:04Z</time>
      </trkpt>
      <trkpt lat="44.61612" lon="2.1618">
        <ele>287.699</ele>
        <time>2013-06-25T10:36:27Z</time>
      </trkpt>
      <trkpt lat="44.61623" lon="2.162">
        <ele>289.065</ele>
        <time>2013-06-25T10:36:47Z</time>
      </trkpt>
      <trkpt lat="44.61638" lon="2.16227">
        <ele>290.005</ele>
        <time>2013-06-25T10:37:10Z</time>
      </trkpt>
      <trkpt lat="44.61643" lon="2.16227">
        <ele>289.94</ele>
        <time>2013-06-25T10:37:15Z</time>
      </trkpt>
      <trkpt lat="44.61663" lon="2.16217">
        <ele>289.304</ele>
        <time>2013-06-25T10:37:39Z</time>
      </trkpt>
      <trkpt lat="44.61664" lon="2.16217">
        <ele>289.341</ele>
        <time>2013-06-25T10:38:01Z</time>
      </trkpt>
      <trkpt lat="44.61663" lon="2.16219">
        <ele>289.014</ele>
        <time>2013-06-25T10:38:36Z</time>
      </trkpt>
      <trkpt lat="44.61667" lon="2.16211">
        <ele>288.93</ele>
        <time>2013-06-25T10:38:52Z</time>
      </trkpt>
      <trkpt lat="44.61678" lon="2.162">
        <ele>289.394</ele>
        <time>2013-06-25T10:39:07Z</time>
      </trkpt>
      <trkpt lat="44.61687" lon="2.16187">
        <ele>289.019</ele>
        <time>2013-06-25T10:39:22Z</time>
      </trkpt>
      <trkpt lat="44.617" lon="2.16172">
        <ele>288.957</ele>
        <time>2013-06-25T10:39:39Z</time>
      </trkpt>
      <trkpt lat="44.61721" lon="2.16156">
        <ele>288.64</ele>
        <time>2013-06-25T10:40:00Z</time>
      </trkpt>
      <trkpt lat="44.61728" lon="2.16151">
        <ele>288.839</ele>
        <time>2013-06-25T10:40:17Z</time>
      </trkpt>
      <trkpt lat="44.61732" lon="2.16149">
        <ele>288.762</ele>
        <time>2013-06-25T10:40:34Z</time>
      </trkpt>
      <trkpt lat="44.61747" lon="2.16137">
        <ele>289</ele>
        <time>2013-06-25T10:40:52Z</time>
      </trkpt>
      <trkpt lat="44.61763" lon="2.16124">
        <ele>289.463</ele>
        <time>2013-06-25T10:41:10Z</time>
      </trkpt>
      <trkpt lat="44.61772" lon="2.16114">
        <ele>289.893</ele>
        <time>2013-06-25T10:41:22Z</time>
      </trkpt>
      <trkpt lat="44.6179" lon="2.16096">
        <ele>289.965</ele>
        <time>2013-06-25T10:41:45Z</time>
      </trkpt>
      <trkpt lat="44.61792" lon="2.16079">
        <ele>289.524</ele>
        <time>2013-06-25T10:42:00Z</time>
      </trkpt>
      <trkpt lat="44.61795" lon="2.16062">
        <ele>288.559</ele>
        <time>2013-06-25T10:42:14Z</time>
      </trkpt>
      <trkpt lat="44.61816" lon="2.16047">
        <ele>288.161</ele>
        <time>2013-06-25T10:42:34Z</time>
      </trkpt>
      <trkpt lat="44.61838" lon="2.1603">
        <ele>287.679</ele>
        <time>2013-06-25T10:42:58Z</time>
      </trkpt>
      <trkpt lat="44.61856" lon="2.16013">
        <ele>287.04</ele>
        <time>2013-06-25T10:43:20Z</time>
      </trkpt>
      <trkpt lat="44.61875" lon="2.15997">
        <ele>286.828</ele>
        <time>2013-06-25T10:43:41Z</time>
      </trkpt>
      <trkpt lat="44.6189" lon="2.15984">
        <ele>287.059</ele>
        <time>2013-06-25T10:43:59Z</time>
      </trkpt>
      <trkpt lat="44.61893" lon="2.15981">
        <ele>286.301</ele>
        <time>2013-06-25T10:44:02Z</time>
      </trkpt>
      <trkpt lat="44.61909" lon="2.15965">
        <ele>286.243</ele>
        <time>2013-06-25T10:44:23Z</time>
      </trkpt>
      <trkpt lat="44.61923" lon="2.15948">
        <ele>286.351</ele>
        <time>2013-06-25T10:44:41Z</time>
      </trkpt>
      <trkpt lat="44.61945" lon="2.15932">
        <ele>286.177</ele>
        <time>2013-06-25T10:45:03Z</time>
      </trkpt>
      <trkpt lat="44.61962" lon="2.15921">
        <ele>285.028</ele>
        <time>2013-06-25T10:45:24Z</time>
      </trkpt>
      <trkpt lat="44.61964" lon="2.15922">
        <ele>285.34</ele>
        <time>2013-06-25T10:45:50Z</time>
      </trkpt>
      <trkpt lat="44.61965" lon="2.15904">
        <ele>284.574</ele>
        <time>2013-06-25T10:46:18Z</time>
      </trkpt>
      <trkpt lat="44.61974" lon="2.15867">
        <ele>283.939</ele>
        <time>2013-06-25T10:46:46Z</time>
      </trkpt>
      <trkpt lat="44.61976" lon="2.15861">
        <ele>283.928</ele>
        <time>2013-06-25T10:46:51Z</time>
      </trkpt>
      <trkpt lat="44.61985" lon="2.15844">
        <ele>282.632</ele>
        <time>2013-06-25T10:47:08Z</time>
      </trkpt>
      <trkpt lat="44.62004" lon="2.15836">
        <ele>282.999</ele>
        <time>2013-06-25T10:47:30Z</time>
      </trkpt>
      <trkpt lat="44.62003" lon="2.15836">
        <ele>282.782</ele>
        <time>2013-06-25T10:47:32Z</time>
      </trkpt>
      <trkpt lat="44.62" lon="2.1584">
        <ele>283.236</ele>
        <time>2013-06-25T10:47:36Z</time>
      </trkpt>
      <trkpt lat="44.61982" lon="2.1584">
        <ele>283.34</ele>
        <time>2013-06-25T10:47:59Z</time>
      </trkpt>
      <trkpt lat="44.61982" lon="2.15839">
        <ele>282.91</ele>
        <time>2013-06-25T10:48:00Z</time>
      </trkpt>
      <trkpt lat="44.61988" lon="2.15805">
        <ele>284.288</ele>
        <time>2013-06-25T10:48:24Z</time>
      </trkpt>
      <trkpt lat="44.61996" lon="2.15766">
        <ele>285.566</ele>
        <time>2013-06-25T10:48:52Z</time>
      </trkpt>
      <trkpt lat="44.62003" lon="2.15732">
        <ele>287.017</ele>
        <time>2013-06-25T10:49:17Z</time>
      </trkpt>
      <trkpt lat="44.62009" lon="2.15689">
        <ele>288.252</ele>
        <time>2013-06-25T10:49:47Z</time>
      </trkpt>
      <trkpt lat="44.62011" lon="2.15653">
        <ele>289.205</ele>
        <time>2013-06-25T10:50:13Z</time>
      </trkpt>
      <trkpt lat="44.62013" lon="2.15632">
        <ele>290.396</ele>
        <time>2013-06-25T10:50:30Z</time>
      </trkpt>
      <trkpt lat="44.62016" lon="2.15603">
        <ele>292.073</ele>
        <time>2013-06-25T10:50:52Z</time>
      </trkpt>
      <trkpt lat="44.62016" lon="2.15579">
        <ele>293.34</ele>
        <time>2013-06-25T10:51:11Z</time>
      </trkpt>
      <trkpt lat="44.62016" lon="2.15544">
        <ele>294.447</ele>
        <time>2013-06-25T10:51:36Z</time>
      </trkpt>
      <trkpt lat="44.62016" lon="2.15509">
        <ele>295.749</ele>
        <time>2013-06-25T10:52:01Z</time>
      </trkpt>
      <trkpt lat="44.62018" lon="2.1548">
        <ele>295.416</ele>
        <time>2013-06-25T10:52:22Z</time>
      </trkpt>
      <trkpt lat="44.62017" lon="2.15438">
        <ele>294.984</ele>
        <time>2013-06-25T10:52:52Z</time>
      </trkpt>
      <trkpt lat="44.62017" lon="2.15399">
        <ele>293.868</ele>
        <time>2013-06-25T10:53:18Z</time>
      </trkpt>
      <trkpt lat="44.62015" lon="2.1537">
        <ele>292.62</ele>
        <time>2013-06-25T10:53:39Z</time>
      </trkpt>
      <trkpt lat="44.62014" lon="2.15331">
        <ele>292.074</ele>
        <time>2013-06-25T10:54:07Z</time>
      </trkpt>
      <trkpt lat="44.62017" lon="2.15304">
        <ele>290.782</ele>
        <time>2013-06-25T10:54:26Z</time>
      </trkpt>
      <trkpt lat="44.62019" lon="2.15292">
        <ele>290.253</ele>
        <time>2013-06-25T10:54:44Z</time>
      </trkpt>
      <trkpt lat="44.62026" lon="2.1528">
        <ele>289.79</ele>
        <time>2013-06-25T10:55:56Z</time>
      </trkpt>
      <trkpt lat="44.62027" lon="2.1528">
        <ele>289.15</ele>
        <time>2013-06-25T10:56:14Z</time>
      </trkpt>
      <trkpt lat="44.6203" lon="2.15274">
        <ele>289.357</ele>
        <time>2013-06-25T10:56:34Z</time>
      </trkpt>
      <trkpt lat="44.62047" lon="2.15247">
        <ele>289.078</ele>
        <time>2013-06-25T10:56:59Z</time>
      </trkpt>
      <trkpt lat="44.62066" lon="2.15212">
        <ele>288.128</ele>
        <time>2013-06-25T10:57:27Z</time>
      </trkpt>
      <trkpt lat="44.62082" lon="2.1518">
        <ele>286.945</ele>
        <time>2013-06-25T10:57:53Z</time>
      </trkpt>
      <trkpt lat="44.621" lon="2.15145">
        <ele>285.999</ele>
        <time>2013-06-25T10:58:22Z</time>
      </trkpt>
      <trkpt lat="44.6211" lon="2.1512">
        <ele>284.426</ele>
        <time>2013-06-25T10:58:42Z</time>
      </trkpt>
      <trkpt lat="44.6212" lon="2.15092">
        <ele>283.377</ele>
        <time>2013-06-25T10:59:03Z</time>
      </trkpt>
      <trkpt lat="44.62129" lon="2.15056">
        <ele>281.729</ele>
        <time>2013-06-25T10:59:28Z</time>
      </trkpt>
      <trkpt lat="44.6213" lon="2.15016">
        <ele>280.433</ele>
        <time>2013-06-25T10:59:56Z</time>
      </trkpt>
      <trkpt lat="44.62132" lon="2.15005">
        <ele>279.377</ele>
        <time>2013-06-25T11:00:06Z</time>
      </trkpt>
      <trkpt lat="44.62141" lon="2.14982">
        <ele>279.12</ele>
        <time>2013-06-25T11:00:31Z</time>
      </trkpt>
      <trkpt lat="44.62143" lon="2.14977">
        <ele>278.792</ele>
        <time>2013-06-25T11:01:39Z</time>
      </trkpt>
      <trkpt lat="44.62143" lon="2.14976">
        <ele>278.974</ele>
        <time>2013-06-25T11:01:40Z</time>
      </trkpt>
      <trkpt lat="44.62153" lon="2.14934">
        <ele>276.825</ele>
        <time>2013-06-25T11:02:10Z</time>
      </trkpt>
      <trkpt lat="44.62159" lon="2.14904">
        <ele>275.587</ele>
        <time>2013-06-25T11:02:33Z</time>
      </trkpt>
      <trkpt lat="44.62165" lon="2.14867">
        <ele>272.432</ele>
        <time>2013-06-25T11:03:00Z</time>
      </trkpt>
      <trkpt lat="44.62168" lon="2.1484">
        <ele>269.823</ele>
        <time>2013-06-25T11:03:19Z</time>
      </trkpt>
      <trkpt lat="44.62173" lon="2.14809">
        <ele>267.467</ele>
        <time>2013-06-25T11:03:41Z</time>
      </trkpt>
      <trkpt lat="44.62178" lon="2.14783">
        <ele>265.493</ele>
        <time>2013-06-25T11:04:00Z</time>
      </trkpt>
      <trkpt lat="44.62182" lon="2.14772">
        <ele>264.065</ele>
        <time>2013-06-25T11:04:21Z</time>
      </trkpt>
      <trkpt lat="44.62198" lon="2.14759">
        <ele>263.977</ele>
        <time>2013-06-25T11:04:39Z</time>
      </trkpt>
      <trkpt lat="44.62214" lon="2.14782">
        <ele>265.851</ele>
        <time>2013-06-25T11:05:02Z</time>
      </trkpt>
      <trkpt lat="44.62224" lon="2.14791">
        <ele>267.204</ele>
        <time>2013-06-25T11:05:20Z</time>
      </trkpt>
      <trkpt lat="44.62235" lon="2.14799">
        <ele>269.009</ele>
        <time>2013-06-25T11:05:36Z</time>
      </trkpt>
      <trkpt lat="44.62251" lon="2.14803">
        <ele>270.454</ele>
        <time>2013-06-25T11:05:54Z</time>
      </trkpt>
      <trkpt lat="44.62273" lon="2.14809">
        <ele>272.02</ele>
        <time>2013-06-25T11:06:16Z</time>
      </trkpt>
      <trkpt lat="44.62274" lon="2.1481">
        <ele>272.206</ele>
        <time>2013-06-25T11:06:17Z</time>
      </trkpt>
      <trkpt lat="44.62301" lon="2.14828">
        <ele>274.208</ele>
        <time>2013-06-25T11:06:45Z</time>
      </trkpt>
      <trkpt lat="44.62311" lon="2.14837">
        <ele>275.067</ele>
        <time>2013-06-25T11:07:01Z</time>
      </trkpt>
      <trkpt lat="44.62329" lon="2.14853">
        <ele>277.072</ele>
        <time>2013-06-25T11:07:22Z</time>
      </trkpt>
      <trkpt lat="44.62349" lon="2.14872">
        <ele>277.228</ele>
        <time>2013-06-25T11:07:46Z</time>
      </trkpt>
      <trkpt lat="44.62368" lon="2.14892">
        <ele>278.127</ele>
        <time>2013-06-25T11:08:09Z</time>
      </trkpt>
      <trkpt lat="44.62393" lon="2.14915">
        <ele>279.787</ele>
        <time>2013-06-25T11:08:37Z</time>
      </trkpt>
      <trkpt lat="44.62414" lon="2.14936">
        <ele>282.127</ele>
        <time>2013-06-25T11:09:03Z</time>
      </trkpt>
      <trkpt lat="44.6244" lon="2.14949">
        <ele>283.396</ele>
        <time>2013-06-25T11:09:30Z</time>
      </trkpt>
      <trkpt lat="44.62469" lon="2.14957">
        <ele>284.109</ele>
        <time>2013-06-25T11:09:58Z</time>
      </trkpt>
      <trkpt lat="44.62497" lon="2.14964">
        <ele>285.249</ele>
        <time>2013-06-25T11:10:25Z</time>
      </trkpt>
      <trkpt lat="44.62525" lon="2.14972">
        <ele>286.038</ele>
        <time>2013-06-25T11:10:52Z</time>
      </trkpt>
      <trkpt lat="44.62547" lon="2.14979">
        <ele>286.737</ele>
        <time>2013-06-25T11:11:15Z</time>
      </trkpt>
      <trkpt lat="44.62569" lon="2.14989">
        <ele>285.491</ele>
        <time>2013-06-25T11:11:38Z</time>
      </trkpt>
      <trkpt lat="44.62581" lon="2.14979">
        <ele>285.246</ele>
        <time>2013-06-25T11:11:57Z</time>
      </trkpt>
      <trkpt lat="44.6258" lon="2.14983">
        <ele>285.399</ele>
        <time>2013-06-25T11:12:53Z</time>
      </trkpt>
      <trkpt lat="44.62578" lon="2.14981">
        <ele>285.643</ele>
        <time>2013-06-25T11:14:44Z</time>
      </trkpt>
      <trkpt lat="44.62576" lon="2.14973">
        <ele>285.475</ele>
        <time>2013-06-25T11:14:52Z</time>
      </trkpt>
      <trkpt lat="44.62569" lon="2.14942">
        <ele>283.663</ele>
        <time>2013-06-25T11:15:15Z</time>
      </trkpt>
      <trkpt lat="44.62565" lon="2.14921">
        <ele>280.659</ele>
        <time>2013-06-25T11:15:32Z</time>
      </trkpt>
      <trkpt lat="44.6256" lon="2.14889">
        <ele>279.317</ele>
        <time>2013-06-25T11:15:52Z</time>
      </trkpt>
      <trkpt lat="44.62555" lon="2.14863">
        <ele>278.172</ele>
        <time>2013-06-25T11:16:08Z</time>
      </trkpt>
      <trkpt lat="44.62565" lon="2.14824">
        <ele>277.237</ele>
        <time>2013-06-25T11:16:32Z</time>
      </trkpt>
      <trkpt lat="44.62576" lon="2.148">
        <ele>274.133</ele>
        <time>2013-06-25T11:16:50Z</time>
      </trkpt>
      <trkpt lat="44.62586" lon="2.14767">
        <ele>270.961</ele>
        <time>2013-06-25T11:17:15Z</time>
      </trkpt>
      <trkpt lat="44.62592" lon="2.14748">
        <ele>269.836</ele>
        <time>2013-06-25T11:17:32Z</time>
      </trkpt>
      <trkpt lat="44.62594" lon="2.14716">
        <ele>266.486</ele>
        <time>2013-06-25T11:17:55Z</time>
      </trkpt>
      <trkpt lat="44.62596" lon="2.14684">
        <ele>263.433</ele>
        <time>2013-06-25T11:18:17Z</time>
      </trkpt>
      <trkpt lat="44.62597" lon="2.1465">
        <ele>260.191</ele>
        <time>2013-06-25T11:18:39Z</time>
      </trkpt>
      <trkpt lat="44.62599" lon="2.14607">
        <ele>257.909</ele>
        <time>2013-06-25T11:19:07Z</time>
      </trkpt>
      <trkpt lat="44.62601" lon="2.14595">
        <ele>256.531</ele>
        <time>2013-06-25T11:19:23Z</time>
      </trkpt>
      <trkpt lat="44.62601" lon="2.14574">
        <ele>255.641</ele>
        <time>2013-06-25T11:19:40Z</time>
      </trkpt>
      <trkpt lat="44.626" lon="2.1456">
        <ele>255.005</ele>
        <time>2013-06-25T11:19:57Z</time>
      </trkpt>
      <trkpt lat="44.62601" lon="2.14532">
        <ele>251.985</ele>
        <time>2013-06-25T11:20:17Z</time>
      </trkpt>
      <trkpt lat="44.62603" lon="2.14506">
        <ele>251.01</ele>
        <time>2013-06-25T11:20:35Z</time>
      </trkpt>
      <trkpt lat="44.62605" lon="2.14475">
        <ele>250.947</ele>
        <time>2013-06-25T11:20:54Z</time>
      </trkpt>
      <trkpt lat="44.62611" lon="2.14437">
        <ele>250.612</ele>
        <time>2013-06-25T11:21:16Z</time>
      </trkpt>
      <trkpt lat="44.62616" lon="2.14422">
        <ele>250.261</ele>
        <time>2013-06-25T11:21:38Z</time>
      </trkpt>
      <trkpt lat="44.62619" lon="2.14414">
        <ele>249.972</ele>
        <time>2013-06-25T11:21:58Z</time>
      </trkpt>
      <trkpt lat="44.62621" lon="2.14398">
        <ele>249.666</ele>
        <time>2013-06-25T11:22:12Z</time>
      </trkpt>
      <trkpt lat="44.62617" lon="2.14367">
        <ele>249.778</ele>
        <time>2013-06-25T11:22:37Z</time>
      </trkpt>
      <trkpt lat="44.62615" lon="2.14347">
        <ele>249.748</ele>
        <time>2013-06-25T11:23:00Z</time>
      </trkpt>
      <trkpt lat="44.62616" lon="2.14341">
        <ele>249.764</ele>
        <time>2013-06-25T11:23:20Z</time>
      </trkpt>
      <trkpt lat="44.62609" lon="2.14327">
        <ele>249.445</ele>
        <time>2013-06-25T11:23:41Z</time>
      </trkpt>
      <trkpt lat="44.62604" lon="2.14309">
        <ele>249.717</ele>
        <time>2013-06-25T11:24:04Z</time>
      </trkpt>
      <trkpt lat="44.62603" lon="2.14305">
        <ele>249.266</ele>
        <time>2013-06-25T11:25:09Z</time>
      </trkpt>
      <trkpt lat="44.62601" lon="2.14294">
        <ele>249.072</ele>
        <time>2013-06-25T11:25:38Z</time>
      </trkpt>
      <trkpt lat="44.62595" lon="2.14277">
        <ele>248.744</ele>
        <time>2013-06-25T11:25:52Z</time>
      </trkpt>
      <trkpt lat="44.62578" lon="2.14245">
        <ele>248.797</ele>
        <time>2013-06-25T11:26:20Z</time>
      </trkpt>
      <trkpt lat="44.62558" lon="2.14213">
        <ele>249.451</ele>
        <time>2013-06-25T11:26:50Z</time>
      </trkpt>
      <trkpt lat="44.62544" lon="2.14191">
        <ele>252.009</ele>
        <time>2013-06-25T11:27:12Z</time>
      </trkpt>
      <trkpt lat="44.62536" lon="2.14168">
        <ele>253.832</ele>
        <time>2013-06-25T11:27:33Z</time>
      </trkpt>
      <trkpt lat="44.62533" lon="2.14149">
        <ele>255.702</ele>
        <time>2013-06-25T11:27:52Z</time>
      </trkpt>
      <trkpt lat="44.62531" lon="2.14129">
        <ele>257.267</ele>
        <time>2013-06-25T11:28:08Z</time>
      </trkpt>
      <trkpt lat="44.62527" lon="2.14103">
        <ele>259.384</ele>
        <time>2013-06-25T11:28:28Z</time>
      </trkpt>
      <trkpt lat="44.62523" lon="2.14075">
        <ele>260.544</ele>
        <time>2013-06-25T11:28:47Z</time>
      </trkpt>
      <trkpt lat="44.62517" lon="2.14048">
        <ele>261.973</ele>
        <time>2013-06-25T11:29:09Z</time>
      </trkpt>
      <trkpt lat="44.62517" lon="2.14035">
        <ele>261.974</ele>
        <time>2013-06-25T11:29:17Z</time>
      </trkpt>
      <trkpt lat="44.62516" lon="2.14005">
        <ele>261.468</ele>
        <time>2013-06-25T11:29:40Z</time>
      </trkpt>
      <trkpt lat="44.62512" lon="2.13985">
        <ele>260.115</ele>
        <time>2013-06-25T11:29:57Z</time>
      </trkpt>
      <trkpt lat="44.62509" lon="2.13967">
        <ele>258.194</ele>
        <time>2013-06-25T11:30:12Z</time>
      </trkpt>
      <trkpt lat="44.62506" lon="2.13946">
        <ele>256.873</ele>
        <time>2013-06-25T11:30:28Z</time>
      </trkpt>
      <trkpt lat="44.62499" lon="2.13916">
        <ele>254.803</ele>
        <time>2013-06-25T11:30:48Z</time>
      </trkpt>
      <trkpt lat="44.62496" lon="2.13908">
        <ele>254.083</ele>
        <time>2013-06-25T11:30:54Z</time>
      </trkpt>
      <trkpt lat="44.62489" lon="2.13888">
        <ele>252.286</ele>
        <time>2013-06-25T11:31:11Z</time>
      </trkpt>
      <trkpt lat="44.62482" lon="2.13865">
        <ele>250.888</ele>
        <time>2013-06-25T11:31:28Z</time>
      </trkpt>
      <trkpt lat="44.62477" lon="2.13841">
        <ele>250.501</ele>
        <time>2013-06-25T11:31:45Z</time>
      </trkpt>
      <trkpt lat="44.62476" lon="2.13826">
        <ele>250.381</ele>
        <time>2013-06-25T11:32:04Z</time>
      </trkpt>
      <trkpt lat="44.62468" lon="2.1381">
        <ele>249.874</ele>
        <time>2013-06-25T11:32:21Z</time>
      </trkpt>
      <trkpt lat="44.62459" lon="2.13791">
        <ele>250.058</ele>
        <time>2013-06-25T11:32:38Z</time>
      </trkpt>
      <trkpt lat="44.62451" lon="2.13765">
        <ele>250.579</ele>
        <time>2013-06-25T11:32:58Z</time>
      </trkpt>
      <trkpt lat="44.62446" lon="2.13743">
        <ele>250.76</ele>
        <time>2013-06-25T11:33:14Z</time>
      </trkpt>
      <trkpt lat="44.62442" lon="2.13716">
        <ele>251.381</ele>
        <time>2013-06-25T11:33:32Z</time>
      </trkpt>
      <trkpt lat="44.6244" lon="2.13692">
        <ele>251.934</ele>
        <time>2013-06-25T11:33:51Z</time>
      </trkpt>
      <trkpt lat="44.62437" lon="2.13677">
        <ele>251.71</ele>
        <time>2013-06-25T11:34:16Z</time>
      </trkpt>
      <trkpt lat="44.62434" lon="2.13671">
        <ele>252.161</ele>
        <time>2013-06-25T11:34:21Z</time>
      </trkpt>
      <trkpt lat="44.6242" lon="2.13657">
        <ele>253.303</ele>
        <time>2013-06-25T11:34:39Z</time>
      </trkpt>
      <trkpt lat="44.6241" lon="2.13637">
        <ele>254.9</ele>
        <time>2013-06-25T11:34:58Z</time>
      </trkpt>
      <trkpt lat="44.62404" lon="2.13623">
        <ele>255.108</ele>
        <time>2013-06-25T11:35:10Z</time>
      </trkpt>
      <trkpt lat="44.62388" lon="2.13619">
        <ele>256.528</ele>
        <time>2013-06-25T11:35:29Z</time>
      </trkpt>
      <trkpt lat="44.6237" lon="2.13621">
        <ele>257.594</ele>
        <time>2013-06-25T11:35:53Z</time>
      </trkpt>
      <trkpt lat="44.62368" lon="2.13622">
        <ele>257.505</ele>
        <time>2013-06-25T11:36:14Z</time>
      </trkpt>
      <trkpt lat="44.62363" lon="2.13621">
        <ele>257.981</ele>
        <time>2013-06-25T11:36:30Z</time>
      </trkpt>
      <trkpt lat="44.62354" lon="2.13621">
        <ele>258.974</ele>
        <time>2013-06-25T11:37:01Z</time>
      </trkpt>
      <trkpt lat="44.6235" lon="2.13623">
        <ele>259.753</ele>
        <time>2013-06-25T11:37:28Z</time>
      </trkpt>
      <trkpt lat="44.62336" lon="2.13624">
        <ele>259.55</ele>
        <time>2013-06-25T11:38:46Z</time>
      </trkpt>
      <trkpt lat="44.62307" lon="2.13624">
        <ele>261.397</ele>
        <time>2013-06-25T11:39:14Z</time>
      </trkpt>
      <trkpt lat="44.62283" lon="2.13624">
        <ele>262.225</ele>
        <time>2013-06-25T11:39:38Z</time>
      </trkpt>
      <trkpt lat="44.62258" lon="2.13625">
        <ele>263.021</ele>
        <time>2013-06-25T11:40:03Z</time>
      </trkpt>
      <trkpt lat="44.62241" lon="2.13625">
        <ele>263.515</ele>
        <time>2013-06-25T11:40:21Z</time>
      </trkpt>
      <trkpt lat="44.62223" lon="2.1363">
        <ele>263.204</ele>
        <time>2013-06-25T11:40:42Z</time>
      </trkpt>
      <trkpt lat="44.62212" lon="2.13653">
        <ele>262.434</ele>
        <time>2013-06-25T11:41:04Z</time>
      </trkpt>
      <trkpt lat="44.6221" lon="2.13649">
        <ele>263.111</ele>
        <time>2013-06-25T11:41:23Z</time>
      </trkpt>
      <trkpt lat="44.62208" lon="2.13645">
        <ele>262.343</ele>
        <time>2013-06-25T11:41:38Z</time>
      </trkpt>
      <trkpt lat="44.62207" lon="2.13642">
        <ele>262.4</ele>
        <time>2013-06-25T11:42:00Z</time>
      </trkpt>
      <trkpt lat="44.62209" lon="2.13635">
        <ele>263.497</ele>
        <time>2013-06-25T11:42:21Z</time>
      </trkpt>
      <trkpt lat="44.62209" lon="2.13635">
        <ele>262.443</ele>
        <time>2013-06-25T11:42:38Z</time>
      </trkpt>
      <trkpt lat="44.6221" lon="2.13633">
        <ele>262.249</ele>
        <time>2013-06-25T11:42:54Z</time>
      </trkpt>
      <trkpt lat="44.62209" lon="2.13631">
        <ele>261.39</ele>
        <time>2013-06-25T11:43:24Z</time>
      </trkpt>
      <trkpt lat="44.62209" lon="2.13634">
        <ele>260.671</ele>
        <time>2013-06-25T11:44:51Z</time>
      </trkpt>
      <trkpt lat="44.62211" lon="2.13632">
        <ele>261.809</ele>
        <time>2013-06-25T11:45:33Z</time>
      </trkpt>
      <trkpt lat="44.62208" lon="2.13635">
        <ele>261.979</ele>
        <time>2013-06-25T11:47:58Z</time>
      </trkpt>
      <trkpt lat="44.62208" lon="2.13631">
        <ele>261.021</ele>
        <time>2013-06-25T12:04:01Z</time>
      </trkpt>
      <trkpt lat="44.62209" lon="2.13634">
        <ele>261.05</ele>
        <time>2013-06-25T12:06:41Z</time>
      </trkpt>
      <trkpt lat="44.62209" lon="2.13629">
        <ele>261.077</ele>
        <time>2013-06-25T12:11:10Z</time>
      </trkpt>
      <trkpt lat="44.62207" lon="2.1363">
        <ele>261.682</ele>
        <time>2013-06-25T12:13:16Z</time>
      </trkpt>
      <trkpt lat="44.62208" lon="2.13631">
        <ele>260.826</ele>
        <time>2013-06-25T12:16:16Z</time>
      </trkpt>
      <trkpt lat="44.62208" lon="2.13631">
        <ele>262.028</ele>
        <time>2013-06-25T12:16:45Z</time>
      </trkpt>
      <trkpt lat="44.62209" lon="2.13631">
        <ele>260.609</ele>
        <time>2013-06-25T12:17:00Z</time>
      </trkpt>
      <trkpt lat="44.62208" lon="2.13632">
        <ele>262.787</ele>
        <time>2013-06-25T12:17:05Z</time>
      </trkpt>
      <trkpt lat="44.62209" lon="2.13633">
        <ele>262.82</ele>
        <time>2013-06-25T12:17:37Z</time>
      </trkpt>
      <trkpt lat="44.62208" lon="2.13631">
        <ele>261.89</ele>
        <time>2013-06-25T12:17:51Z</time>
      </trkpt>
      <trkpt lat="44.62208" lon="2.13633">
        <ele>262.848</ele>
        <time>2013-06-25T12:18:04Z</time>
      </trkpt>
      <trkpt lat="44.62212" lon="2.13638">
        <ele>263.078</ele>
        <time>2013-06-25T12:18:20Z</time>
      </trkpt>
      <trkpt lat="44.62212" lon="2.13646">
        <ele>261.544</ele>
        <time>2013-06-25T12:18:36Z</time>
      </trkpt>
      <trkpt lat="44.62211" lon="2.13647">
        <ele>262.273</ele>
        <time>2013-06-25T12:19:17Z</time>
      </trkpt>
      <trkpt lat="44.62204" lon="2.13661">
        <ele>261.834</ele>
        <time>2013-06-25T12:19:44Z</time>
      </trkpt>
      <trkpt lat="44.62192" lon="2.1367">
        <ele>261.399</ele>
        <time>2013-06-25T12:19:58Z</time>
      </trkpt>
      <trkpt lat="44.62164" lon="2.13676">
        <ele>261.431</ele>
        <time>2013-06-25T12:20:27Z</time>
      </trkpt>
      <trkpt lat="44.62142" lon="2.13675">
        <ele>260.638</ele>
        <time>2013-06-25T12:20:50Z</time>
      </trkpt>
      <trkpt lat="44.62118" lon="2.13673">
        <ele>261.831</ele>
        <time>2013-06-25T12:21:15Z</time>
      </trkpt>
      <trkpt lat="44.62099" lon="2.13666">
        <ele>261.353</ele>
        <time>2013-06-25T12:21:36Z</time>
      </trkpt>
      <trkpt lat="44.62092" lon="2.13667">
        <ele>261.678</ele>
        <time>2013-06-25T12:21:43Z</time>
      </trkpt>
      <trkpt lat="44.62068" lon="2.13674">
        <ele>262.631</ele>
        <time>2013-06-25T12:22:08Z</time>
      </trkpt>
      <trkpt lat="44.62045" lon="2.13681">
        <ele>264.056</ele>
        <time>2013-06-25T12:22:32Z</time>
      </trkpt>
      <trkpt lat="44.62016" lon="2.13682">
        <ele>265.568</ele>
        <time>2013-06-25T12:23:00Z</time>
      </trkpt>
      <trkpt lat="44.61992" lon="2.13684">
        <ele>265.875</ele>
        <time>2013-06-25T12:23:24Z</time>
      </trkpt>
      <trkpt lat="44.61969" lon="2.13683">
        <ele>265.457</ele>
        <time>2013-06-25T12:23:47Z</time>
      </trkpt>
      <trkpt lat="44.61943" lon="2.13676">
        <ele>265.781</ele>
        <time>2013-06-25T12:24:12Z</time>
      </trkpt>
      <trkpt lat="44.61916" lon="2.13665">
        <ele>265.953</ele>
        <time>2013-06-25T12:24:40Z</time>
      </trkpt>
      <trkpt lat="44.61895" lon="2.13654">
        <ele>266.327</ele>
        <time>2013-06-25T12:25:03Z</time>
      </trkpt>
      <trkpt lat="44.61876" lon="2.13648">
        <ele>266.429</ele>
        <time>2013-06-25T12:25:25Z</time>
      </trkpt>
      <trkpt lat="44.61869" lon="2.13641">
        <ele>267.037</ele>
        <time>2013-06-25T12:25:41Z</time>
      </trkpt>
      <trkpt lat="44.61866" lon="2.13633">
        <ele>267.143</ele>
        <time>2013-06-25T12:26:38Z</time>
      </trkpt>
      <trkpt lat="44.61847" lon="2.13607">
        <ele>268.294</ele>
        <time>2013-06-25T12:27:04Z</time>
      </trkpt>
      <trkpt lat="44.61822" lon="2.1358">
        <ele>270.771</ele>
        <time>2013-06-25T12:27:35Z</time>
      </trkpt>
      <trkpt lat="44.61803" lon="2.1355">
        <ele>272.037</ele>
        <time>2013-06-25T12:28:03Z</time>
      </trkpt>
      <trkpt lat="44.61782" lon="2.13517">
        <ele>272.047</ele>
        <time>2013-06-25T12:28:34Z</time>
      </trkpt>
      <trkpt lat="44.61772" lon="2.13485">
        <ele>273.233</ele>
        <time>2013-06-25T12:29:00Z</time>
      </trkpt>
      <trkpt lat="44.61777" lon="2.13478">
        <ele>274.304</ele>
        <time>2013-06-25T12:29:18Z</time>
      </trkpt>
      <trkpt lat="44.61778" lon="2.13478">
        <ele>273.357</ele>
        <time>2013-06-25T12:29:43Z</time>
      </trkpt>
      <trkpt lat="44.6178" lon="2.13475">
        <ele>273.224</ele>
        <time>2013-06-25T12:29:56Z</time>
      </trkpt>
      <trkpt lat="44.61803" lon="2.13444">
        <ele>273.975</ele>
        <time>2013-06-25T12:30:25Z</time>
      </trkpt>
      <trkpt lat="44.61818" lon="2.13417">
        <ele>273.561</ele>
        <time>2013-06-25T12:30:49Z</time>
      </trkpt>
      <trkpt lat="44.61841" lon="2.13383">
        <ele>274.771</ele>
        <time>2013-06-25T12:31:19Z</time>
      </trkpt>
      <trkpt lat="44.61861" lon="2.1336">
        <ele>275.404</ele>
        <time>2013-06-25T12:31:42Z</time>
      </trkpt>
      <trkpt lat="44.61877" lon="2.13342">
        <ele>275.358</ele>
        <time>2013-06-25T12:32:02Z</time>
      </trkpt>
      <trkpt lat="44.61891" lon="2.13327">
        <ele>275.628</ele>
        <time>2013-06-25T12:32:19Z</time>
      </trkpt>
      <trkpt lat="44.61912" lon="2.13297">
        <ele>274.933</ele>
        <time>2013-06-25T12:32:45Z</time>
      </trkpt>
      <trkpt lat="44.61927" lon="2.13278">
        <ele>275.281</ele>
        <time>2013-06-25T12:33:02Z</time>
      </trkpt>
      <trkpt lat="44.61942" lon="2.13251">
        <ele>273.523</ele>
        <time>2013-06-25T12:33:25Z</time>
      </trkpt>
      <trkpt lat="44.6196" lon="2.13229">
        <ele>272.439</ele>
        <time>2013-06-25T12:33:47Z</time>
      </trkpt>
      <trkpt lat="44.61985" lon="2.13219">
        <ele>270.467</ele>
        <time>2013-06-25T12:34:13Z</time>
      </trkpt>
      <trkpt lat="44.62013" lon="2.13218">
        <ele>268.324</ele>
        <time>2013-06-25T12:34:40Z</time>
      </trkpt>
      <trkpt lat="44.62041" lon="2.13215">
        <ele>267.074</ele>
        <time>2013-06-25T12:35:06Z</time>
      </trkpt>
      <trkpt lat="44.62047" lon="2.13202">
        <ele>265.516</ele>
        <time>2013-06-25T12:35:25Z</time>
      </trkpt>
      <trkpt lat="44.62038" lon="2.13193">
        <ele>263.138</ele>
        <time>2013-06-25T12:35:41Z</time>
      </trkpt>
      <trkpt lat="44.62025" lon="2.13176">
        <ele>262.453</ele>
        <time>2013-06-25T12:36:00Z</time>
      </trkpt>
      <trkpt lat="44.62011" lon="2.13151">
        <ele>261.598</ele>
        <time>2013-06-25T12:36:21Z</time>
      </trkpt>
      <trkpt lat="44.61994" lon="2.13129">
        <ele>260.558</ele>
        <time>2013-06-25T12:36:44Z</time>
      </trkpt>
      <trkpt lat="44.61979" lon="2.13112">
        <ele>260.604</ele>
        <time>2013-06-25T12:37:04Z</time>
      </trkpt>
      <trkpt lat="44.61984" lon="2.13093">
        <ele>260.313</ele>
        <time>2013-06-25T12:37:19Z</time>
      </trkpt>
      <trkpt lat="44.61986" lon="2.13089">
        <ele>259.943</ele>
        <time>2013-06-25T12:37:22Z</time>
      </trkpt>
      <trkpt lat="44.62" lon="2.13059">
        <ele>261.808</ele>
        <time>2013-06-25T12:37:44Z</time>
      </trkpt>
      <trkpt lat="44.62006" lon="2.13042">
        <ele>264.015</ele>
        <time>2013-06-25T12:38:03Z</time>
      </trkpt>
      <trkpt lat="44.62005" lon="2.13019">
        <ele>265.571</ele>
        <time>2013-06-25T12:38:24Z</time>
      </trkpt>
      <trkpt lat="44.61998" lon="2.12999">
        <ele>266.23</ele>
        <time>2013-06-25T12:38:41Z</time>
      </trkpt>
      <trkpt lat="44.61995" lon="2.12974">
        <ele>267.107</ele>
        <time>2013-06-25T12:39:01Z</time>
      </trkpt>
      <trkpt lat="44.61997" lon="2.12959">
        <ele>267.673</ele>
        <time>2013-06-25T12:39:10Z</time>
      </trkpt>
      <trkpt lat="44.62001" lon="2.12927">
        <ele>267.957</ele>
        <time>2013-06-25T12:39:31Z</time>
      </trkpt>
      <trkpt lat="44.62007" lon="2.129">
        <ele>269.322</ele>
        <time>2013-06-25T12:39:52Z</time>
      </trkpt>
      <trkpt lat="44.62016" lon="2.12867">
        <ele>271.098</ele>
        <time>2013-06-25T12:40:13Z</time>
      </trkpt>
      <trkpt lat="44.62017" lon="2.12867">
        <ele>271.176</ele>
        <time>2013-06-25T12:40:42Z</time>
      </trkpt>
      <trkpt lat="44.62019" lon="2.12863">
        <ele>271.089</ele>
        <time>2013-06-25T12:41:44Z</time>
      </trkpt>
      <trkpt lat="44.6202" lon="2.12847">
        <ele>271.509</ele>
        <time>2013-06-25T12:42:06Z</time>
      </trkpt>
      <trkpt lat="44.62023" lon="2.12814">
        <ele>272.899</ele>
        <time>2013-06-25T12:42:29Z</time>
      </trkpt>
      <trkpt lat="44.62027" lon="2.12778">
        <ele>273.472</ele>
        <time>2013-06-25T12:42:54Z</time>
      </trkpt>
      <trkpt lat="44.62027" lon="2.12747">
        <ele>274.236</ele>
        <time>2013-06-25T12:43:17Z</time>
      </trkpt>
      <trkpt lat="44.62024" lon="2.12718">
        <ele>275.285</ele>
        <time>2013-06-25T12:43:38Z</time>
      </trkpt>
      <trkpt lat="44.62021" lon="2.12692">
        <ele>276.957</ele>
        <time>2013-06-25T12:43:59Z</time>
      </trkpt>
      <trkpt lat="44.62017" lon="2.12671">
        <ele>278.557</ele>
        <time>2013-06-25T12:44:17Z</time>
      </trkpt>
      <trkpt lat="44.62011" lon="2.12657">
        <ele>279.06</ele>
        <time>2013-06-25T12:44:31Z</time>
      </trkpt>
      <trkpt lat="44.62001" lon="2.12638">
        <ele>280.346</ele>
        <time>2013-06-25T12:44:50Z</time>
      </trkpt>
      <trkpt lat="44.61996" lon="2.12614">
        <ele>282.295</ele>
        <time>2013-06-25T12:45:07Z</time>
      </trkpt>
      <trkpt lat="44.6199" lon="2.12584">
        <ele>283.884</ele>
        <time>2013-06-25T12:45:29Z</time>
      </trkpt>
      <trkpt lat="44.6199" lon="2.12572">
        <ele>284.254</ele>
        <time>2013-06-25T12:45:42Z</time>
      </trkpt>
      <trkpt lat="44.61981" lon="2.12556">
        <ele>284.779</ele>
        <time>2013-06-25T12:45:57Z</time>
      </trkpt>
      <trkpt lat="44.61977" lon="2.12534">
        <ele>285.306</ele>
        <time>2013-06-25T12:46:12Z</time>
      </trkpt>
      <trkpt lat="44.61968" lon="2.1252">
        <ele>286.007</ele>
        <time>2013-06-25T12:46:25Z</time>
      </trkpt>
      <trkpt lat="44.61967" lon="2.12509">
        <ele>287.012</ele>
        <time>2013-06-25T12:46:36Z</time>
      </trkpt>
      <trkpt lat="44.61963" lon="2.12496">
        <ele>287.967</ele>
        <time>2013-06-25T12:46:48Z</time>
      </trkpt>
      <trkpt lat="44.61955" lon="2.12484">
        <ele>287.144</ele>
        <time>2013-06-25T12:47:00Z</time>
      </trkpt>
      <trkpt lat="44.61942" lon="2.12468">
        <ele>287.73</ele>
        <time>2013-06-25T12:47:17Z</time>
      </trkpt>
      <trkpt lat="44.61931" lon="2.12458">
        <ele>288.36</ele>
        <time>2013-06-25T12:47:31Z</time>
      </trkpt>
      <trkpt lat="44.61919" lon="2.12453">
        <ele>288.85</ele>
        <time>2013-06-25T12:47:43Z</time>
      </trkpt>
      <trkpt lat="44.61899" lon="2.12454">
        <ele>289.013</ele>
        <time>2013-06-25T12:48:02Z</time>
      </trkpt>
      <trkpt lat="44.61869" lon="2.12459">
        <ele>289.969</ele>
        <time>2013-06-25T12:48:30Z</time>
      </trkpt>
      <trkpt lat="44.61859" lon="2.12457">
        <ele>290.369</ele>
        <time>2013-06-25T12:48:51Z</time>
      </trkpt>
      <trkpt lat="44.61854" lon="2.12457">
        <ele>289.851</ele>
        <time>2013-06-25T12:49:10Z</time>
      </trkpt>
      <trkpt lat="44.61855" lon="2.12454">
        <ele>289.551</ele>
        <time>2013-06-25T12:50:37Z</time>
      </trkpt>
      <trkpt lat="44.6184" lon="2.1245">
        <ele>289.257</ele>
        <time>2013-06-25T12:51:09Z</time>
      </trkpt>
      <trkpt lat="44.61814" lon="2.12442">
        <ele>291.452</ele>
        <time>2013-06-25T12:51:35Z</time>
      </trkpt>
      <trkpt lat="44.61807" lon="2.12436">
        <ele>292.222</ele>
        <time>2013-06-25T12:51:42Z</time>
      </trkpt>
      <trkpt lat="44.61783" lon="2.12408">
        <ele>290.075</ele>
        <time>2013-06-25T12:52:11Z</time>
      </trkpt>
      <trkpt lat="44.61759" lon="2.12378">
        <ele>290.502</ele>
        <time>2013-06-25T12:52:39Z</time>
      </trkpt>
      <trkpt lat="44.61741" lon="2.12352">
        <ele>289.553</ele>
        <time>2013-06-25T12:53:04Z</time>
      </trkpt>
      <trkpt lat="44.61723" lon="2.12351">
        <ele>289.094</ele>
        <time>2013-06-25T12:53:23Z</time>
      </trkpt>
      <trkpt lat="44.61711" lon="2.12345">
        <ele>289.191</ele>
        <time>2013-06-25T12:53:35Z</time>
      </trkpt>
      <trkpt lat="44.61683" lon="2.12322">
        <ele>289.748</ele>
        <time>2013-06-25T12:54:03Z</time>
      </trkpt>
      <trkpt lat="44.61662" lon="2.12308">
        <ele>289.572</ele>
        <time>2013-06-25T12:54:26Z</time>
      </trkpt>
      <trkpt lat="44.61653" lon="2.12303">
        <ele>288.223</ele>
        <time>2013-06-25T12:54:42Z</time>
      </trkpt>
      <trkpt lat="44.61648" lon="2.12298">
        <ele>286.906</ele>
        <time>2013-06-25T12:55:02Z</time>
      </trkpt>
      <trkpt lat="44.61639" lon="2.12288">
        <ele>286.074</ele>
        <time>2013-06-25T12:55:27Z</time>
      </trkpt>
      <trkpt lat="44.61632" lon="2.12279">
        <ele>284.701</ele>
        <time>2013-06-25T12:55:39Z</time>
      </trkpt>
      <trkpt lat="44.61625" lon="2.12267">
        <ele>283.439</ele>
        <time>2013-06-25T12:55:54Z</time>
      </trkpt>
      <trkpt lat="44.61618" lon="2.12256">
        <ele>282.067</ele>
        <time>2013-06-25T12:56:08Z</time>
      </trkpt>
      <trkpt lat="44.61604" lon="2.12241">
        <ele>280.973</ele>
        <time>2013-06-25T12:56:25Z</time>
      </trkpt>
      <trkpt lat="44.61593" lon="2.12226">
        <ele>279.839</ele>
        <time>2013-06-25T12:56:41Z</time>
      </trkpt>
      <trkpt lat="44.61586" lon="2.12208">
        <ele>279.727</ele>
        <time>2013-06-25T12:56:56Z</time>
      </trkpt>
      <trkpt lat="44.61569" lon="2.12182">
        <ele>279.206</ele>
        <time>2013-06-25T12:57:19Z</time>
      </trkpt>
      <trkpt lat="44.61548" lon="2.12151">
        <ele>278.491</ele>
        <time>2013-06-25T12:57:48Z</time>
      </trkpt>
      <trkpt lat="44.61539" lon="2.12129">
        <ele>277.703</ele>
        <time>2013-06-25T12:58:06Z</time>
      </trkpt>
      <trkpt lat="44.61534" lon="2.12108">
        <ele>275.812</ele>
        <time>2013-06-25T12:58:22Z</time>
      </trkpt>
      <trkpt lat="44.61532" lon="2.12093">
        <ele>275.114</ele>
        <time>2013-06-25T12:58:35Z</time>
      </trkpt>
      <trkpt lat="44.61526" lon="2.12075">
        <ele>275.761</ele>
        <time>2013-06-25T12:58:51Z</time>
      </trkpt>
      <trkpt lat="44.61523" lon="2.12062">
        <ele>275.999</ele>
        <time>2013-06-25T12:59:01Z</time>
      </trkpt>
      <trkpt lat="44.61519" lon="2.12038">
        <ele>277.151</ele>
        <time>2013-06-25T12:59:19Z</time>
      </trkpt>
      <trkpt lat="44.61515" lon="2.12015">
        <ele>277.98</ele>
        <time>2013-06-25T12:59:36Z</time>
      </trkpt>
      <trkpt lat="44.61516" lon="2.11991">
        <ele>280.054</ele>
        <time>2013-06-25T12:59:53Z</time>
      </trkpt>
      <trkpt lat="44.61513" lon="2.11976">
        <ele>281.528</ele>
        <time>2013-06-25T13:00:06Z</time>
      </trkpt>
      <trkpt lat="44.61512" lon="2.11963">
        <ele>283.002</ele>
        <time>2013-06-25T13:00:20Z</time>
      </trkpt>
      <trkpt lat="44.61512" lon="2.11948">
        <ele>284.875</ele>
        <time>2013-06-25T13:00:35Z</time>
      </trkpt>
      <trkpt lat="44.61509" lon="2.11934">
        <ele>285.161</ele>
        <time>2013-06-25T13:00:49Z</time>
      </trkpt>
      <trkpt lat="44.61505" lon="2.11922">
        <ele>286.949</ele>
        <time>2013-06-25T13:01:03Z</time>
      </trkpt>
      <trkpt lat="44.61503" lon="2.11912">
        <ele>287.539</ele>
        <time>2013-06-25T13:01:17Z</time>
      </trkpt>
      <trkpt lat="44.61505" lon="2.11898">
        <ele>289.042</ele>
        <time>2013-06-25T13:01:33Z</time>
      </trkpt>
      <trkpt lat="44.61502" lon="2.11889">
        <ele>289.616</ele>
        <time>2013-06-25T13:01:54Z</time>
      </trkpt>
      <trkpt lat="44.61497" lon="2.11888">
        <ele>289.098</ele>
        <time>2013-06-25T13:02:35Z</time>
      </trkpt>
      <trkpt lat="44.61497" lon="2.11887">
        <ele>289.004</ele>
        <time>2013-06-25T13:03:11Z</time>
      </trkpt>
      <trkpt lat="44.61504" lon="2.11887">
        <ele>289.184</ele>
        <time>2013-06-25T13:03:44Z</time>
      </trkpt>
      <trkpt lat="44.61499" lon="2.11889">
        <ele>289.657</ele>
        <time>2013-06-25T13:04:08Z</time>
      </trkpt>
      <trkpt lat="44.61497" lon="2.11888">
        <ele>289.939</ele>
        <time>2013-06-25T13:05:02Z</time>
      </trkpt>
      <trkpt lat="44.61493" lon="2.11885">
        <ele>289.294</ele>
        <time>2013-06-25T13:05:33Z</time>
      </trkpt>
      <trkpt lat="44.61497" lon="2.11884">
        <ele>288.733</ele>
        <time>2013-06-25T13:06:17Z</time>
      </trkpt>
      <trkpt lat="44.61496" lon="2.1189">
        <ele>289.223</ele>
        <time>2013-06-25T13:06:35Z</time>
      </trkpt>
      <trkpt lat="44.61488" lon="2.11895">
        <ele>289.553</ele>
        <time>2013-06-25T13:06:48Z</time>
      </trkpt>
      <trkpt lat="44.61478" lon="2.11896">
        <ele>288.825</ele>
        <time>2013-06-25T13:07:01Z</time>
      </trkpt>
      <trkpt lat="44.61468" lon="2.1189">
        <ele>288.209</ele>
        <time>2013-06-25T13:07:17Z</time>
      </trkpt>
      <trkpt lat="44.61457" lon="2.11886">
        <ele>287.12</ele>
        <time>2013-06-25T13:07:28Z</time>
      </trkpt>
      <trkpt lat="44.61446" lon="2.11881">
        <ele>286.425</ele>
        <time>2013-06-25T13:08:00Z</time>
      </trkpt>
      <trkpt lat="44.61433" lon="2.11877">
        <ele>285.159</ele>
        <time>2013-06-25T13:08:16Z</time>
      </trkpt>
      <trkpt lat="44.61429" lon="2.11875">
        <ele>284.281</ele>
        <time>2013-06-25T13:08:21Z</time>
      </trkpt>
      <trkpt lat="44.61416" lon="2.11867">
        <ele>284.596</ele>
        <time>2013-06-25T13:08:34Z</time>
      </trkpt>
      <trkpt lat="44.61413" lon="2.11863">
        <ele>283.829</ele>
        <time>2013-06-25T13:08:47Z</time>
      </trkpt>
      <trkpt lat="44.61406" lon="2.11858">
        <ele>281.652</ele>
        <time>2013-06-25T13:09:17Z</time>
      </trkpt>
      <trkpt lat="44.61394" lon="2.11851">
        <ele>282.003</ele>
        <time>2013-06-25T13:09:34Z</time>
      </trkpt>
      <trkpt lat="44.61383" lon="2.11846">
        <ele>281.612</ele>
        <time>2013-06-25T13:09:45Z</time>
      </trkpt>
      <trkpt lat="44.6137" lon="2.11842">
        <ele>279.97</ele>
        <time>2013-06-25T13:10:01Z</time>
      </trkpt>
      <trkpt lat="44.61355" lon="2.11836">
        <ele>280.506</ele>
        <time>2013-06-25T13:10:18Z</time>
      </trkpt>
      <trkpt lat="44.61345" lon="2.1185">
        <ele>279.773</ele>
        <time>2013-06-25T13:10:37Z</time>
      </trkpt>
      <trkpt lat="44.61334" lon="2.11864">
        <ele>278.585</ele>
        <time>2013-06-25T13:10:53Z</time>
      </trkpt>
      <trkpt lat="44.61312" lon="2.11894">
        <ele>277.55</ele>
        <time>2013-06-25T13:11:25Z</time>
      </trkpt>
      <trkpt lat="44.61291" lon="2.11924">
        <ele>276.455</ele>
        <time>2013-06-25T13:11:55Z</time>
      </trkpt>
      <trkpt lat="44.61272" lon="2.1195">
        <ele>274.727</ele>
        <time>2013-06-25T13:12:22Z</time>
      </trkpt>
      <trkpt lat="44.61251" lon="2.11973">
        <ele>273.53</ele>
        <time>2013-06-25T13:12:49Z</time>
      </trkpt>
      <trkpt lat="44.61243" lon="2.11971">
        <ele>273.386</ele>
        <time>2013-06-25T13:12:58Z</time>
      </trkpt>
      <trkpt lat="44.6122" lon="2.1196">
        <ele>274.567</ele>
        <time>2013-06-25T13:13:21Z</time>
      </trkpt>
      <trkpt lat="44.6121" lon="2.11965">
        <ele>274.879</ele>
        <time>2013-06-25T13:13:35Z</time>
      </trkpt>
      <trkpt lat="44.6119" lon="2.1198">
        <ele>275.736</ele>
        <time>2013-06-25T13:13:58Z</time>
      </trkpt>
      <trkpt lat="44.61178" lon="2.11983">
        <ele>277.686</ele>
        <time>2013-06-25T13:14:17Z</time>
      </trkpt>
      <trkpt lat="44.61162" lon="2.11962">
        <ele>278.196</ele>
        <time>2013-06-25T13:14:37Z</time>
      </trkpt>
      <trkpt lat="44.6115" lon="2.11937">
        <ele>278.512</ele>
        <time>2013-06-25T13:14:59Z</time>
      </trkpt>
      <trkpt lat="44.61142" lon="2.11912">
        <ele>279.036</ele>
        <time>2013-06-25T13:15:21Z</time>
      </trkpt>
      <trkpt lat="44.61139" lon="2.11897">
        <ele>280.271</ele>
        <time>2013-06-25T13:15:36Z</time>
      </trkpt>
      <trkpt lat="44.61132" lon="2.11879">
        <ele>280.712</ele>
        <time>2013-06-25T13:15:53Z</time>
      </trkpt>
      <trkpt lat="44.61132" lon="2.11847">
        <ele>281.081</ele>
        <time>2013-06-25T13:16:16Z</time>
      </trkpt>
      <trkpt lat="44.61138" lon="2.1183">
        <ele>281.504</ele>
        <time>2013-06-25T13:16:34Z</time>
      </trkpt>
      <trkpt lat="44.61145" lon="2.11816">
        <ele>281.997</ele>
        <time>2013-06-25T13:16:53Z</time>
      </trkpt>
      <trkpt lat="44.6115" lon="2.1182">
        <ele>282.035</ele>
        <time>2013-06-25T13:17:07Z</time>
      </trkpt>
      <trkpt lat="44.61156" lon="2.11821">
        <ele>282.091</ele>
        <time>2013-06-25T13:17:22Z</time>
      </trkpt>
      <trkpt lat="44.61161" lon="2.11823">
        <ele>281.815</ele>
        <time>2013-06-25T13:17:26Z</time>
      </trkpt>
      <trkpt lat="44.61164" lon="2.11827">
        <ele>282.884</ele>
        <time>2013-06-25T13:17:39Z</time>
      </trkpt>
      <trkpt lat="44.61155" lon="2.11832">
        <ele>282.029</ele>
        <time>2013-06-25T13:18:05Z</time>
      </trkpt>
      <trkpt lat="44.61151" lon="2.11835">
        <ele>282.244</ele>
        <time>2013-06-25T13:18:17Z</time>
      </trkpt>
      <trkpt lat="44.61147" lon="2.11826">
        <ele>282.686</ele>
        <time>2013-06-25T13:18:33Z</time>
      </trkpt>
      <trkpt lat="44.61142" lon="2.11832">
        <ele>282.399</ele>
        <time>2013-06-25T13:18:46Z</time>
      </trkpt>
      <trkpt lat="44.61133" lon="2.11832">
        <ele>282.302</ele>
        <time>2013-06-25T13:19:02Z</time>
      </trkpt>
      <trkpt lat="44.61126" lon="2.11819">
        <ele>282.402</ele>
        <time>2013-06-25T13:19:32Z</time>
      </trkpt>
      <trkpt lat="44.61133" lon="2.11831">
        <ele>282.01</ele>
        <time>2013-06-25T13:19:52Z</time>
      </trkpt>
      <trkpt lat="44.61141" lon="2.1185">
        <ele>281.436</ele>
        <time>2013-06-25T13:20:10Z</time>
      </trkpt>
      <trkpt lat="44.61149" lon="2.11866">
        <ele>280.881</ele>
        <time>2013-06-25T13:20:31Z</time>
      </trkpt>
      <trkpt lat="44.6116" lon="2.11861">
        <ele>281.572</ele>
        <time>2013-06-25T13:20:52Z</time>
      </trkpt>
      <trkpt lat="44.61172" lon="2.11857">
        <ele>281.57</ele>
        <time>2013-06-25T13:21:30Z</time>
      </trkpt>
      <trkpt lat="44.61177" lon="2.11853">
        <ele>281.975</ele>
        <time>2013-06-25T13:21:53Z</time>
      </trkpt>
      <trkpt lat="44.6118" lon="2.1185">
        <ele>281.728</ele>
        <time>2013-06-25T13:22:18Z</time>
      </trkpt>
      <trkpt lat="44.61181" lon="2.11851">
        <ele>281.818</ele>
        <time>2013-06-25T13:22:58Z</time>
      </trkpt>
      <trkpt lat="44.61181" lon="2.11851">
        <ele>279.954</ele>
        <time>2013-06-25T13:23:15Z</time>
      </trkpt>
      <trkpt lat="44.61181" lon="2.11854">
        <ele>279.503</ele>
        <time>2013-06-25T13:23:39Z</time>
      </trkpt>
      <trkpt lat="44.61181" lon="2.11857">
        <ele>279.895</ele>
        <time>2013-06-25T13:24:15Z</time>
      </trkpt>
      <trkpt lat="44.61182" lon="2.11862">
        <ele>279.87</ele>
        <time>2013-06-25T13:24:56Z</time>
      </trkpt>
      <trkpt lat="44.6118" lon="2.11859">
        <ele>281.459</ele>
        <time>2013-06-25T13:25:26Z</time>
      </trkpt>
      <trkpt lat="44.61182" lon="2.11855">
        <ele>281.637</ele>
        <time>2013-06-25T13:26:03Z</time>
      </trkpt>
      <trkpt lat="44.61178" lon="2.11852">
        <ele>280.894</ele>
        <time>2013-06-25T13:26:42Z</time>
      </trkpt>
      <trkpt lat="44.61171" lon="2.11846">
        <ele>281.328</ele>
        <time>2013-06-25T13:26:58Z</time>
      </trkpt>
      <trkpt lat="44.61174" lon="2.1184">
        <ele>281.663</ele>
        <time>2013-06-25T13:27:22Z</time>
      </trkpt>
      <trkpt lat="44.61174" lon="2.11836">
        <ele>282.442</ele>
        <time>2013-06-25T13:27:58Z</time>
      </trkpt>
      <trkpt lat="44.61156" lon="2.11823">
        <ele>283.51</ele>
        <time>2013-06-25T13:28:17Z</time>
      </trkpt>
      <trkpt lat="44.61149" lon="2.1182">
        <ele>283.677</ele>
        <time>2013-06-25T13:28:35Z</time>
      </trkpt>
      <trkpt lat="44.61145" lon="2.11815">
        <ele>283.666</ele>
        <time>2013-06-25T13:29:00Z</time>
      </trkpt>
      <trkpt lat="44.61135" lon="2.11813">
        <ele>283.595</ele>
        <time>2013-06-25T13:29:08Z</time>
      </trkpt>
      <trkpt lat="44.6112" lon="2.11783">
        <ele>284.798</ele>
        <time>2013-06-25T13:29:35Z</time>
      </trkpt>
      <trkpt lat="44.6112" lon="2.11768">
        <ele>286.376</ele>
        <time>2013-06-25T13:29:52Z</time>
      </trkpt>
      <trkpt lat="44.61109" lon="2.11769">
        <ele>285.518</ele>
        <time>2013-06-25T13:30:07Z</time>
      </trkpt>
      <trkpt lat="44.61101" lon="2.11777">
        <ele>284.511</ele>
        <time>2013-06-25T13:30:21Z</time>
      </trkpt>
      <trkpt lat="44.611" lon="2.11776">
        <ele>284.034</ele>
        <time>2013-06-25T13:30:56Z</time>
      </trkpt>
      <trkpt lat="44.61092" lon="2.11789">
        <ele>282.892</ele>
        <time>2013-06-25T13:31:40Z</time>
      </trkpt>
      <trkpt lat="44.61079" lon="2.11802">
        <ele>283.769</ele>
        <time>2013-06-25T13:31:59Z</time>
      </trkpt>
      <trkpt lat="44.61069" lon="2.11808">
        <ele>283.625</ele>
        <time>2013-06-25T13:32:09Z</time>
      </trkpt>
      <trkpt lat="44.61053" lon="2.11818">
        <ele>284.848</ele>
        <time>2013-06-25T13:32:26Z</time>
      </trkpt>
      <trkpt lat="44.61037" lon="2.11823">
        <ele>287.014</ele>
        <time>2013-06-25T13:32:43Z</time>
      </trkpt>
      <trkpt lat="44.61019" lon="2.11828">
        <ele>289.025</ele>
        <time>2013-06-25T13:33:05Z</time>
      </trkpt>
      <trkpt lat="44.61008" lon="2.11832">
        <ele>290.425</ele>
        <time>2013-06-25T13:33:23Z</time>
      </trkpt>
      <trkpt lat="44.60998" lon="2.11835">
        <ele>292.001</ele>
        <time>2013-06-25T13:33:41Z</time>
      </trkpt>
      <trkpt lat="44.60984" lon="2.11839">
        <ele>294.378</ele>
        <time>2013-06-25T13:34:01Z</time>
      </trkpt>
      <trkpt lat="44.6098" lon="2.11837">
        <ele>295.047</ele>
        <time>2013-06-25T13:34:20Z</time>
      </trkpt>
      <trkpt lat="44.60974" lon="2.1182">
        <ele>294.818</ele>
        <time>2013-06-25T13:34:49Z</time>
      </trkpt>
      <trkpt lat="44.60967" lon="2.11808">
        <ele>295.087</ele>
        <time>2013-06-25T13:35:02Z</time>
      </trkpt>
      <trkpt lat="44.60959" lon="2.11791">
        <ele>295.35</ele>
        <time>2013-06-25T13:35:16Z</time>
      </trkpt>
      <trkpt lat="44.60954" lon="2.11768">
        <ele>295.168</ele>
        <time>2013-06-25T13:35:33Z</time>
      </trkpt>
      <trkpt lat="44.60951" lon="2.1174">
        <ele>294.547</ele>
        <time>2013-06-25T13:35:51Z</time>
      </trkpt>
      <trkpt lat="44.60948" lon="2.11723">
        <ele>293.753</ele>
        <time>2013-06-25T13:36:02Z</time>
      </trkpt>
      <trkpt lat="44.60951" lon="2.11696">
        <ele>293.475</ele>
        <time>2013-06-25T13:36:19Z</time>
      </trkpt>
      <trkpt lat="44.60953" lon="2.11683">
        <ele>294.301</ele>
        <time>2013-06-25T13:36:31Z</time>
      </trkpt>
      <trkpt lat="44.6097" lon="2.1165">
        <ele>292.368</ele>
        <time>2013-06-25T13:36:55Z</time>
      </trkpt>
      <trkpt lat="44.60986" lon="2.11613">
        <ele>292.733</ele>
        <time>2013-06-25T13:37:23Z</time>
      </trkpt>
      <trkpt lat="44.61008" lon="2.11569">
        <ele>292.911</ele>
        <time>2013-06-25T13:37:59Z</time>
      </trkpt>
      <trkpt lat="44.61011" lon="2.11566">
        <ele>293.684</ele>
        <time>2013-06-25T13:38:18Z</time>
      </trkpt>
      <trkpt lat="44.61018" lon="2.11559">
        <ele>293.566</ele>
        <time>2013-06-25T13:38:35Z</time>
      </trkpt>
      <trkpt lat="44.61033" lon="2.11528">
        <ele>293.962</ele>
        <time>2013-06-25T13:39:02Z</time>
      </trkpt>
      <trkpt lat="44.61031" lon="2.11523">
        <ele>294.179</ele>
        <time>2013-06-25T13:39:06Z</time>
      </trkpt>
      <trkpt lat="44.61019" lon="2.11493">
        <ele>294.284</ele>
        <time>2013-06-25T13:39:31Z</time>
      </trkpt>
      <trkpt lat="44.61022" lon="2.11445">
        <ele>294.235</ele>
        <time>2013-06-25T13:40:00Z</time>
      </trkpt>
      <trkpt lat="44.61024" lon="2.11437">
        <ele>294.157</ele>
        <time>2013-06-25T13:40:06Z</time>
      </trkpt>
      <trkpt lat="44.61045" lon="2.11425">
        <ele>295.981</ele>
        <time>2013-06-25T13:40:29Z</time>
      </trkpt>
      <trkpt lat="44.61071" lon="2.11414">
        <ele>297.657</ele>
        <time>2013-06-25T13:40:58Z</time>
      </trkpt>
      <trkpt lat="44.61092" lon="2.11406">
        <ele>299.204</ele>
        <time>2013-06-25T13:41:22Z</time>
      </trkpt>
      <trkpt lat="44.61112" lon="2.11398">
        <ele>302.205</ele>
        <time>2013-06-25T13:41:46Z</time>
      </trkpt>
      <trkpt lat="44.61127" lon="2.1139">
        <ele>303.662</ele>
        <time>2013-06-25T13:42:07Z</time>
      </trkpt>
      <trkpt lat="44.6114" lon="2.11373">
        <ele>305.679</ele>
        <time>2013-06-25T13:42:27Z</time>
      </trkpt>
      <trkpt lat="44.6115" lon="2.11359">
        <ele>307.286</ele>
        <time>2013-06-25T13:42:45Z</time>
      </trkpt>
      <trkpt lat="44.61159" lon="2.11346">
        <ele>308.463</ele>
        <time>2013-06-25T13:43:00Z</time>
      </trkpt>
      <trkpt lat="44.61176" lon="2.11325">
        <ele>309.896</ele>
        <time>2013-06-25T13:43:24Z</time>
      </trkpt>
      <trkpt lat="44.61188" lon="2.11309">
        <ele>311.712</ele>
        <time>2013-06-25T13:43:43Z</time>
      </trkpt>
      <trkpt lat="44.61192" lon="2.11302">
        <ele>311.798</ele>
        <time>2013-06-25T13:43:49Z</time>
      </trkpt>
      <trkpt lat="44.61201" lon="2.11278">
        <ele>313.969</ele>
        <time>2013-06-25T13:44:10Z</time>
      </trkpt>
      <trkpt lat="44.61211" lon="2.11251">
        <ele>314.338</ele>
        <time>2013-06-25T13:44:32Z</time>
      </trkpt>
      <trkpt lat="44.61228" lon="2.11228">
        <ele>315.364</ele>
        <time>2013-06-25T13:44:58Z</time>
      </trkpt>
      <trkpt lat="44.61229" lon="2.11226">
        <ele>315.754</ele>
        <time>2013-06-25T13:45:12Z</time>
      </trkpt>
      <trkpt lat="44.61245" lon="2.11226">
        <ele>316.62</ele>
        <time>2013-06-25T13:45:32Z</time>
      </trkpt>
      <trkpt lat="44.61246" lon="2.11225">
        <ele>315.915</ele>
        <time>2013-06-25T13:47:02Z</time>
      </trkpt>
      <trkpt lat="44.61249" lon="2.11227">
        <ele>316.574</ele>
        <time>2013-06-25T13:47:51Z</time>
      </trkpt>
      <trkpt lat="44.6125" lon="2.11227">
        <ele>316.859</ele>
        <time>2013-06-25T13:47:53Z</time>
      </trkpt>
      <trkpt lat="44.61275" lon="2.11216">
        <ele>317.863</ele>
        <time>2013-06-25T13:48:20Z</time>
      </trkpt>
      <trkpt lat="44.61306" lon="2.11198">
        <ele>318.994</ele>
        <time>2013-06-25T13:48:52Z</time>
      </trkpt>
      <trkpt lat="44.61328" lon="2.11182">
        <ele>320.744</ele>
        <time>2013-06-25T13:49:16Z</time>
      </trkpt>
      <trkpt lat="44.61353" lon="2.11167">
        <ele>323.842</ele>
        <time>2013-06-25T13:49:43Z</time>
      </trkpt>
      <trkpt lat="44.61376" lon="2.11152">
        <ele>325.54</ele>
        <time>2013-06-25T13:50:10Z</time>
      </trkpt>
      <trkpt lat="44.61391" lon="2.11143">
        <ele>327.208</ele>
        <time>2013-06-25T13:50:27Z</time>
      </trkpt>
      <trkpt lat="44.61413" lon="2.1113">
        <ele>328.964</ele>
        <time>2013-06-25T13:50:52Z</time>
      </trkpt>
      <trkpt lat="44.61433" lon="2.11116">
        <ele>330.766</ele>
        <time>2013-06-25T13:51:17Z</time>
      </trkpt>
      <trkpt lat="44.61453" lon="2.11102">
        <ele>332.247</ele>
        <time>2013-06-25T13:51:41Z</time>
      </trkpt>
      <trkpt lat="44.6147" lon="2.1109">
        <ele>335.738</ele>
        <time>2013-06-25T13:52:04Z</time>
      </trkpt>
      <trkpt lat="44.61491" lon="2.11074">
        <ele>338.193</ele>
        <time>2013-06-25T13:52:32Z</time>
      </trkpt>
      <trkpt lat="44.61508" lon="2.1106">
        <ele>340.194</ele>
        <time>2013-06-25T13:52:55Z</time>
      </trkpt>
      <trkpt lat="44.61529" lon="2.11044">
        <ele>342.594</ele>
        <time>2013-06-25T13:53:19Z</time>
      </trkpt>
      <trkpt lat="44.61543" lon="2.11034">
        <ele>343.131</ele>
        <time>2013-06-25T13:53:38Z</time>
      </trkpt>
      <trkpt lat="44.61573" lon="2.11013">
        <ele>344.489</ele>
        <time>2013-06-25T13:54:11Z</time>
      </trkpt>
      <trkpt lat="44.61594" lon="2.10999">
        <ele>344.841</ele>
        <time>2013-06-25T13:54:34Z</time>
      </trkpt>
      <trkpt lat="44.61622" lon="2.10983">
        <ele>345.473</ele>
        <time>2013-06-25T13:55:03Z</time>
      </trkpt>
      <trkpt lat="44.61647" lon="2.10969">
        <ele>345.913</ele>
        <time>2013-06-25T13:55:31Z</time>
      </trkpt>
      <trkpt lat="44.61651" lon="2.10962">
        <ele>346.181</ele>
        <time>2013-06-25T13:55:38Z</time>
      </trkpt>
      <trkpt lat="44.61671" lon="2.1094">
        <ele>346.448</ele>
        <time>2013-06-25T13:56:04Z</time>
      </trkpt>
      <trkpt lat="44.61672" lon="2.10942">
        <ele>345.819</ele>
        <time>2013-06-25T13:56:35Z</time>
      </trkpt>
      <trkpt lat="44.61674" lon="2.10933">
        <ele>345.742</ele>
        <time>2013-06-25T13:58:47Z</time>
      </trkpt>
      <trkpt lat="44.61681" lon="2.10913">
        <ele>346.058</ele>
        <time>2013-06-25T13:59:05Z</time>
      </trkpt>
      <trkpt lat="44.61697" lon="2.10888">
        <ele>346.067</ele>
        <time>2013-06-25T13:59:29Z</time>
      </trkpt>
      <trkpt lat="44.61712" lon="2.10863">
        <ele>346.889</ele>
        <time>2013-06-25T13:59:49Z</time>
      </trkpt>
      <trkpt lat="44.61717" lon="2.10855">
        <ele>346.581</ele>
        <time>2013-06-25T13:59:56Z</time>
      </trkpt>
      <trkpt lat="44.61734" lon="2.10842">
        <ele>345.231</ele>
        <time>2013-06-25T14:00:17Z</time>
      </trkpt>
      <trkpt lat="44.61742" lon="2.1084">
        <ele>344.243</ele>
        <time>2013-06-25T14:00:26Z</time>
      </trkpt>
      <trkpt lat="44.61757" lon="2.10838">
        <ele>343.66</ele>
        <time>2013-06-25T14:00:43Z</time>
      </trkpt>
      <trkpt lat="44.61772" lon="2.1084">
        <ele>343.378</ele>
        <time>2013-06-25T14:00:57Z</time>
      </trkpt>
      <trkpt lat="44.61788" lon="2.10839">
        <ele>344.076</ele>
        <time>2013-06-25T14:01:14Z</time>
      </trkpt>
      <trkpt lat="44.61796" lon="2.10838">
        <ele>344.401</ele>
        <time>2013-06-25T14:01:29Z</time>
      </trkpt>
      <trkpt lat="44.61802" lon="2.10838">
        <ele>344.346</ele>
        <time>2013-06-25T14:01:45Z</time>
      </trkpt>
      <trkpt lat="44.61811" lon="2.10838">
        <ele>343.594</ele>
        <time>2013-06-25T14:02:02Z</time>
      </trkpt>
      <trkpt lat="44.61818" lon="2.10838">
        <ele>343.187</ele>
        <time>2013-06-25T14:02:20Z</time>
      </trkpt>
      <trkpt lat="44.61831" lon="2.10838">
        <ele>342.309</ele>
        <time>2013-06-25T14:02:51Z</time>
      </trkpt>
      <trkpt lat="44.6185" lon="2.10833">
        <ele>342.328</ele>
        <time>2013-06-25T14:03:09Z</time>
      </trkpt>
      <trkpt lat="44.61872" lon="2.10824">
        <ele>343.41</ele>
        <time>2013-06-25T14:03:32Z</time>
      </trkpt>
      <trkpt lat="44.61899" lon="2.10812">
        <ele>344.243</ele>
        <time>2013-06-25T14:03:59Z</time>
      </trkpt>
      <trkpt lat="44.61927" lon="2.10796">
        <ele>345.329</ele>
        <time>2013-06-25T14:04:29Z</time>
      </trkpt>
      <trkpt lat="44.61949" lon="2.10781">
        <ele>345.945</ele>
        <time>2013-06-25T14:04:53Z</time>
      </trkpt>
      <trkpt lat="44.61973" lon="2.10767">
        <ele>347.182</ele>
        <time>2013-06-25T14:05:19Z</time>
      </trkpt>
      <trkpt lat="44.61994" lon="2.10751">
        <ele>348.644</ele>
        <time>2013-06-25T14:05:47Z</time>
      </trkpt>
      <trkpt lat="44.61991" lon="2.10752">
        <ele>349.103</ele>
        <time>2013-06-25T14:06:03Z</time>
      </trkpt>
      <trkpt lat="44.61992" lon="2.10749">
        <ele>349.004</ele>
        <time>2013-06-25T14:08:12Z</time>
      </trkpt>
      <trkpt lat="44.61992" lon="2.10749">
        <ele>348.405</ele>
        <time>2013-06-25T14:10:22Z</time>
      </trkpt>
      <trkpt lat="44.61989" lon="2.10742">
        <ele>348.889</ele>
        <time>2013-06-25T14:13:55Z</time>
      </trkpt>
      <trkpt lat="44.6198" lon="2.10716">
        <ele>350.491</ele>
        <time>2013-06-25T14:14:19Z</time>
      </trkpt>
      <trkpt lat="44.61973" lon="2.10697">
        <ele>352.733</ele>
        <time>2013-06-25T14:14:35Z</time>
      </trkpt>
      <trkpt lat="44.61962" lon="2.10665">
        <ele>353.72</ele>
        <time>2013-06-25T14:15:02Z</time>
      </trkpt>
      <trkpt lat="44.61954" lon="2.10642">
        <ele>355.241</ele>
        <time>2013-06-25T14:15:23Z</time>
      </trkpt>
      <trkpt lat="44.61942" lon="2.10611">
        <ele>354.503</ele>
        <time>2013-06-25T14:15:49Z</time>
      </trkpt>
      <trkpt lat="44.61934" lon="2.10598">
        <ele>353.801</ele>
        <time>2013-06-25T14:16:01Z</time>
      </trkpt>
      <trkpt lat="44.61928" lon="2.10588">
        <ele>351.479</ele>
        <time>2013-06-25T14:16:11Z</time>
      </trkpt>
      <trkpt lat="44.61912" lon="2.1056">
        <ele>350.462</ele>
        <time>2013-06-25T14:16:36Z</time>
      </trkpt>
      <trkpt lat="44.61898" lon="2.10532">
        <ele>348.051</ele>
        <time>2013-06-25T14:17:01Z</time>
      </trkpt>
      <trkpt lat="44.61896" lon="2.10529">
        <ele>347.728</ele>
        <time>2013-06-25T14:17:04Z</time>
      </trkpt>
      <trkpt lat="44.61877" lon="2.10505">
        <ele>347.098</ele>
        <time>2013-06-25T14:17:29Z</time>
      </trkpt>
      <trkpt lat="44.61857" lon="2.10478">
        <ele>346.417</ele>
        <time>2013-06-25T14:17:56Z</time>
      </trkpt>
      <trkpt lat="44.61841" lon="2.10454">
        <ele>346.212</ele>
        <time>2013-06-25T14:18:19Z</time>
      </trkpt>
      <trkpt lat="44.61833" lon="2.10438">
        <ele>345.28</ele>
        <time>2013-06-25T14:18:33Z</time>
      </trkpt>
      <trkpt lat="44.61834" lon="2.10432">
        <ele>345.207</ele>
        <time>2013-06-25T14:18:37Z</time>
      </trkpt>
      <trkpt lat="44.61836" lon="2.10425">
        <ele>346.112</ele>
        <time>2013-06-25T14:18:43Z</time>
      </trkpt>
      <trkpt lat="44.61826" lon="2.10381">
        <ele>345.002</ele>
        <time>2013-06-25T14:19:13Z</time>
      </trkpt>
      <trkpt lat="44.61814" lon="2.10332">
        <ele>345.59</ele>
        <time>2013-06-25T14:19:48Z</time>
      </trkpt>
      <trkpt lat="44.61805" lon="2.10298">
        <ele>345.992</ele>
        <time>2013-06-25T14:20:13Z</time>
      </trkpt>
      <trkpt lat="44.61795" lon="2.10261">
        <ele>346.415</ele>
        <time>2013-06-25T14:20:41Z</time>
      </trkpt>
      <trkpt lat="44.61785" lon="2.10224">
        <ele>346.87</ele>
        <time>2013-06-25T14:21:08Z</time>
      </trkpt>
      <trkpt lat="44.61777" lon="2.1019">
        <ele>346.573</ele>
        <time>2013-06-25T14:21:32Z</time>
      </trkpt>
      <trkpt lat="44.61775" lon="2.10181">
        <ele>346.728</ele>
        <time>2013-06-25T14:21:41Z</time>
      </trkpt>
      <trkpt lat="44.61763" lon="2.10164">
        <ele>347.023</ele>
        <time>2013-06-25T14:22:00Z</time>
      </trkpt>
      <trkpt lat="44.61753" lon="2.10129">
        <ele>347.568</ele>
        <time>2013-06-25T14:22:26Z</time>
      </trkpt>
      <trkpt lat="44.61742" lon="2.10097">
        <ele>348.444</ele>
        <time>2013-06-25T14:22:51Z</time>
      </trkpt>
      <trkpt lat="44.61735" lon="2.10079">
        <ele>349.151</ele>
        <time>2013-06-25T14:23:13Z</time>
      </trkpt>
      <trkpt lat="44.61728" lon="2.10062">
        <ele>349.64</ele>
        <time>2013-06-25T14:23:29Z</time>
      </trkpt>
      <trkpt lat="44.61712" lon="2.10025">
        <ele>350.079</ele>
        <time>2013-06-25T14:23:59Z</time>
      </trkpt>
      <trkpt lat="44.61696" lon="2.0999">
        <ele>350.043</ele>
        <time>2013-06-25T14:24:28Z</time>
      </trkpt>
      <trkpt lat="44.6168" lon="2.09953">
        <ele>351.672</ele>
        <time>2013-06-25T14:24:58Z</time>
      </trkpt>
      <trkpt lat="44.61678" lon="2.09948">
        <ele>353.144</ele>
        <time>2013-06-25T14:25:02Z</time>
      </trkpt>
      <trkpt lat="44.61664" lon="2.0992">
        <ele>352.314</ele>
        <time>2013-06-25T14:25:27Z</time>
      </trkpt>
      <trkpt lat="44.61651" lon="2.09901">
        <ele>352.456</ele>
        <time>2013-06-25T14:25:49Z</time>
      </trkpt>
      <trkpt lat="44.61649" lon="2.09896">
        <ele>353.347</ele>
        <time>2013-06-25T14:26:37Z</time>
      </trkpt>
      <trkpt lat="44.61645" lon="2.09879">
        <ele>353.724</ele>
        <time>2013-06-25T14:27:30Z</time>
      </trkpt>
      <trkpt lat="44.61628" lon="2.09856">
        <ele>353.897</ele>
        <time>2013-06-25T14:27:53Z</time>
      </trkpt>
      <trkpt lat="44.6161" lon="2.0983">
        <ele>353.939</ele>
        <time>2013-06-25T14:28:20Z</time>
      </trkpt>
      <trkpt lat="44.61591" lon="2.09805">
        <ele>354.751</ele>
        <time>2013-06-25T14:28:47Z</time>
      </trkpt>
      <trkpt lat="44.61574" lon="2.09782">
        <ele>355.499</ele>
        <time>2013-06-25T14:29:11Z</time>
      </trkpt>
      <trkpt lat="44.61558" lon="2.09758">
        <ele>356.29</ele>
        <time>2013-06-25T14:29:35Z</time>
      </trkpt>
      <trkpt lat="44.61537" lon="2.0973">
        <ele>356.936</ele>
        <time>2013-06-25T14:30:04Z</time>
      </trkpt>
      <trkpt lat="44.6152" lon="2.09706">
        <ele>357.861</ele>
        <time>2013-06-25T14:30:29Z</time>
      </trkpt>
      <trkpt lat="44.61503" lon="2.09685">
        <ele>358.451</ele>
        <time>2013-06-25T14:30:53Z</time>
      </trkpt>
      <trkpt lat="44.61488" lon="2.09663">
        <ele>360.161</ele>
        <time>2013-06-25T14:31:16Z</time>
      </trkpt>
      <trkpt lat="44.61481" lon="2.0965">
        <ele>361.244</ele>
        <time>2013-06-25T14:31:32Z</time>
      </trkpt>
      <trkpt lat="44.6147" lon="2.09616">
        <ele>362.463</ele>
        <time>2013-06-25T14:31:59Z</time>
      </trkpt>
      <trkpt lat="44.61468" lon="2.09607">
        <ele>362.501</ele>
        <time>2013-06-25T14:32:21Z</time>
      </trkpt>
      <trkpt lat="44.61467" lon="2.09571">
        <ele>364.448</ele>
        <time>2013-06-25T14:32:47Z</time>
      </trkpt>
      <trkpt lat="44.61469" lon="2.09535">
        <ele>365.549</ele>
        <time>2013-06-25T14:33:13Z</time>
      </trkpt>
      <trkpt lat="44.61473" lon="2.09502">
        <ele>367.678</ele>
        <time>2013-06-25T14:33:37Z</time>
      </trkpt>
      <trkpt lat="44.61474" lon="2.09471">
        <ele>368.645</ele>
        <time>2013-06-25T14:34:00Z</time>
      </trkpt>
      <trkpt lat="44.61475" lon="2.09439">
        <ele>369.494</ele>
        <time>2013-06-25T14:34:24Z</time>
      </trkpt>
      <trkpt lat="44.61478" lon="2.09404">
        <ele>369.819</ele>
        <time>2013-06-25T14:34:49Z</time>
      </trkpt>
      <trkpt lat="44.61481" lon="2.09369">
        <ele>370.068</ele>
        <time>2013-06-25T14:35:13Z</time>
      </trkpt>
      <trkpt lat="44.61484" lon="2.09339">
        <ele>370.986</ele>
        <time>2013-06-25T14:35:35Z</time>
      </trkpt>
      <trkpt lat="44.61486" lon="2.09302">
        <ele>373.119</ele>
        <time>2013-06-25T14:36:01Z</time>
      </trkpt>
      <trkpt lat="44.61491" lon="2.09263">
        <ele>374.269</ele>
        <time>2013-06-25T14:36:28Z</time>
      </trkpt>
      <trkpt lat="44.61494" lon="2.09233">
        <ele>375.506</ele>
        <time>2013-06-25T14:36:50Z</time>
      </trkpt>
      <trkpt lat="44.61497" lon="2.09202">
        <ele>376.59</ele>
        <time>2013-06-25T14:37:12Z</time>
      </trkpt>
      <trkpt lat="44.61499" lon="2.09172">
        <ele>377.318</ele>
        <time>2013-06-25T14:37:34Z</time>
      </trkpt>
      <trkpt lat="44.61501" lon="2.09143">
        <ele>377.629</ele>
        <time>2013-06-25T14:37:57Z</time>
      </trkpt>
      <trkpt lat="44.61506" lon="2.09113">
        <ele>378.024</ele>
        <time>2013-06-25T14:38:19Z</time>
      </trkpt>
      <trkpt lat="44.61508" lon="2.09107">
        <ele>378.027</ele>
        <time>2013-06-25T14:38:36Z</time>
      </trkpt>
      <trkpt lat="44.61516" lon="2.09112">
        <ele>378.384</ele>
        <time>2013-06-25T14:39:16Z</time>
      </trkpt>
      <trkpt lat="44.61518" lon="2.09114">
        <ele>379.08</ele>
        <time>2013-06-25T14:40:08Z</time>
      </trkpt>
      <trkpt lat="44.61514" lon="2.09104">
        <ele>379.521</ele>
        <time>2013-06-25T14:40:51Z</time>
      </trkpt>
      <trkpt lat="44.61513" lon="2.09074">
        <ele>380.623</ele>
        <time>2013-06-25T14:41:13Z</time>
      </trkpt>
      <trkpt lat="44.61512" lon="2.0905">
        <ele>381.303</ele>
        <time>2013-06-25T14:41:30Z</time>
      </trkpt>
      <trkpt lat="44.61514" lon="2.09023">
        <ele>382.708</ele>
        <time>2013-06-25T14:41:49Z</time>
      </trkpt>
      <trkpt lat="44.61506" lon="2.08994">
        <ele>383.939</ele>
        <time>2013-06-25T14:42:13Z</time>
      </trkpt>
      <trkpt lat="44.61489" lon="2.08968">
        <ele>385.843</ele>
        <time>2013-06-25T14:42:40Z</time>
      </trkpt>
      <trkpt lat="44.61475" lon="2.08945">
        <ele>387.853</ele>
        <time>2013-06-25T14:43:06Z</time>
      </trkpt>
      <trkpt lat="44.6147" lon="2.08933">
        <ele>388.88</ele>
        <time>2013-06-25T14:43:21Z</time>
      </trkpt>
      <trkpt lat="44.61455" lon="2.08912">
        <ele>389.919</ele>
        <time>2013-06-25T14:43:41Z</time>
      </trkpt>
      <trkpt lat="44.61444" lon="2.08898">
        <ele>390.342</ele>
        <time>2013-06-25T14:44:03Z</time>
      </trkpt>
      <trkpt lat="44.61445" lon="2.08899">
        <ele>389.447</ele>
        <time>2013-06-25T14:45:27Z</time>
      </trkpt>
      <trkpt lat="44.61442" lon="2.08904">
        <ele>389.31</ele>
        <time>2013-06-25T14:46:55Z</time>
      </trkpt>
      <trkpt lat="44.61444" lon="2.08901">
        <ele>389.598</ele>
        <time>2013-06-25T14:47:52Z</time>
      </trkpt>
      <trkpt lat="44.61446" lon="2.08901">
        <ele>389.857</ele>
        <time>2013-06-25T14:48:50Z</time>
      </trkpt>
      <trkpt lat="44.61447" lon="2.08899">
        <ele>390.033</ele>
        <time>2013-06-25T14:49:19Z</time>
      </trkpt>
      <trkpt lat="44.61452" lon="2.08896">
        <ele>389.766</ele>
        <time>2013-06-25T14:50:36Z</time>
      </trkpt>
      <trkpt lat="44.61446" lon="2.08903">
        <ele>390.056</ele>
        <time>2013-06-25T14:51:33Z</time>
      </trkpt>
      <trkpt lat="44.61446" lon="2.08901">
        <ele>390.001</ele>
        <time>2013-06-25T14:51:57Z</time>
      </trkpt>
      <trkpt lat="44.61446" lon="2.089">
        <ele>389.835</ele>
        <time>2013-06-25T14:52:26Z</time>
      </trkpt>
      <trkpt lat="44.61437" lon="2.0889">
        <ele>389.046</ele>
        <time>2013-06-25T14:52:46Z</time>
      </trkpt>
      <trkpt lat="44.61428" lon="2.08865">
        <ele>388.414</ele>
        <time>2013-06-25T14:53:07Z</time>
      </trkpt>
      <trkpt lat="44.61419" lon="2.08838">
        <ele>387.424</ele>
        <time>2013-06-25T14:53:30Z</time>
      </trkpt>
      <trkpt lat="44.61412" lon="2.08814">
        <ele>386.682</ele>
        <time>2013-06-25T14:53:50Z</time>
      </trkpt>
      <trkpt lat="44.61409" lon="2.08787">
        <ele>385.805</ele>
        <time>2013-06-25T14:54:09Z</time>
      </trkpt>
      <trkpt lat="44.61406" lon="2.08764">
        <ele>385.265</ele>
        <time>2013-06-25T14:54:25Z</time>
      </trkpt>
      <trkpt lat="44.61402" lon="2.08744">
        <ele>385.169</ele>
        <time>2013-06-25T14:54:41Z</time>
      </trkpt>
      <trkpt lat="44.61392" lon="2.08716">
        <ele>385.238</ele>
        <time>2013-06-25T14:55:03Z</time>
      </trkpt>
      <trkpt lat="44.61384" lon="2.08705">
        <ele>385.778</ele>
        <time>2013-06-25T14:55:19Z</time>
      </trkpt>
      <trkpt lat="44.61357" lon="2.08718">
        <ele>385.32</ele>
        <time>2013-06-25T14:55:47Z</time>
      </trkpt>
      <trkpt lat="44.6133" lon="2.08728">
        <ele>384.687</ele>
        <time>2013-06-25T14:56:13Z</time>
      </trkpt>
      <trkpt lat="44.61324" lon="2.08733">
        <ele>385.081</ele>
        <time>2013-06-25T14:56:30Z</time>
      </trkpt>
      <trkpt lat="44.61319" lon="2.08733">
        <ele>384.263</ele>
        <time>2013-06-25T14:58:04Z</time>
      </trkpt>
      <trkpt lat="44.61312" lon="2.08727">
        <ele>386.039</ele>
        <time>2013-06-25T14:58:26Z</time>
      </trkpt>
      <trkpt lat="44.61301" lon="2.08709">
        <ele>389.097</ele>
        <time>2013-06-25T14:58:47Z</time>
      </trkpt>
      <trkpt lat="44.61287" lon="2.087">
        <ele>387.871</ele>
        <time>2013-06-25T14:59:08Z</time>
      </trkpt>
      <trkpt lat="44.61284" lon="2.08695">
        <ele>387.79</ele>
        <time>2013-06-25T14:59:27Z</time>
      </trkpt>
      <trkpt lat="44.61283" lon="2.08695">
        <ele>387.624</ele>
        <time>2013-06-25T14:59:50Z</time>
      </trkpt>
      <trkpt lat="44.61282" lon="2.08694">
        <ele>388.33</ele>
        <time>2013-06-25T15:00:44Z</time>
      </trkpt>
      <trkpt lat="44.61283" lon="2.08695">
        <ele>388.154</ele>
        <time>2013-06-25T15:01:50Z</time>
      </trkpt>
      <trkpt lat="44.61286" lon="2.08694">
        <ele>387.561</ele>
        <time>2013-06-25T15:02:51Z</time>
      </trkpt>
      <trkpt lat="44.61281" lon="2.087">
        <ele>387.69</ele>
        <time>2013-06-25T15:03:19Z</time>
      </trkpt>
      <trkpt lat="44.61266" lon="2.08702">
        <ele>386.486</ele>
        <time>2013-06-25T15:03:37Z</time>
      </trkpt>
      <trkpt lat="44.61253" lon="2.087">
        <ele>385.843</ele>
        <time>2013-06-25T15:03:50Z</time>
      </trkpt>
      <trkpt lat="44.61229" lon="2.08695">
        <ele>385.564</ele>
        <time>2013-06-25T15:04:07Z</time>
      </trkpt>
      <trkpt lat="44.61196" lon="2.08685">
        <ele>382.135</ele>
        <time>2013-06-25T15:04:33Z</time>
      </trkpt>
      <trkpt lat="44.61173" lon="2.08677">
        <ele>379.095</ele>
        <time>2013-06-25T15:04:54Z</time>
      </trkpt>
      <trkpt lat="44.61167" lon="2.08674">
        <ele>379.073</ele>
        <time>2013-06-25T15:05:01Z</time>
      </trkpt>
      <trkpt lat="44.61166" lon="2.08667">
        <ele>378.644</ele>
        <time>2013-06-25T15:05:05Z</time>
      </trkpt>
      <trkpt lat="44.61178" lon="2.08644">
        <ele>379.005</ele>
        <time>2013-06-25T15:05:23Z</time>
      </trkpt>
      <trkpt lat="44.61192" lon="2.0862">
        <ele>378.562</ele>
        <time>2013-06-25T15:05:42Z</time>
      </trkpt>
      <trkpt lat="44.61205" lon="2.08596">
        <ele>379.081</ele>
        <time>2013-06-25T15:06:02Z</time>
      </trkpt>
      <trkpt lat="44.61215" lon="2.08568">
        <ele>379.465</ele>
        <time>2013-06-25T15:06:22Z</time>
      </trkpt>
      <trkpt lat="44.61214" lon="2.08548">
        <ele>380.478</ele>
        <time>2013-06-25T15:06:37Z</time>
      </trkpt>
      <trkpt lat="44.61204" lon="2.08531">
        <ele>382.444</ele>
        <time>2013-06-25T15:06:55Z</time>
      </trkpt>
      <trkpt lat="44.61194" lon="2.08514">
        <ele>384.646</ele>
        <time>2013-06-25T15:07:12Z</time>
      </trkpt>
      <trkpt lat="44.61193" lon="2.08488">
        <ele>385.364</ele>
        <time>2013-06-25T15:07:29Z</time>
      </trkpt>
      <trkpt lat="44.61189" lon="2.0845">
        <ele>385.801</ele>
        <time>2013-06-25T15:07:54Z</time>
      </trkpt>
      <trkpt lat="44.61193" lon="2.08418">
        <ele>385.982</ele>
        <time>2013-06-25T15:08:16Z</time>
      </trkpt>
      <trkpt lat="44.61195" lon="2.08391">
        <ele>386.02</ele>
        <time>2013-06-25T15:08:34Z</time>
      </trkpt>
      <trkpt lat="44.61198" lon="2.08353">
        <ele>384.589</ele>
        <time>2013-06-25T15:08:58Z</time>
      </trkpt>
      <trkpt lat="44.61202" lon="2.08318">
        <ele>383.228</ele>
        <time>2013-06-25T15:09:19Z</time>
      </trkpt>
      <trkpt lat="44.6121" lon="2.08282">
        <ele>382.125</ele>
        <time>2013-06-25T15:09:42Z</time>
      </trkpt>
      <trkpt lat="44.6122" lon="2.08241">
        <ele>381.179</ele>
        <time>2013-06-25T15:10:10Z</time>
      </trkpt>
      <trkpt lat="44.61228" lon="2.0821">
        <ele>381.054</ele>
        <time>2013-06-25T15:10:33Z</time>
      </trkpt>
      <trkpt lat="44.61228" lon="2.08213">
        <ele>381.138</ele>
        <time>2013-06-25T15:10:52Z</time>
      </trkpt>
      <trkpt lat="44.61231" lon="2.08208">
        <ele>381.578</ele>
        <time>2013-06-25T15:12:03Z</time>
      </trkpt>
      <trkpt lat="44.61228" lon="2.0819">
        <ele>379.766</ele>
        <time>2013-06-25T15:12:17Z</time>
      </trkpt>
      <trkpt lat="44.61222" lon="2.08178">
        <ele>379.259</ele>
        <time>2013-06-25T15:12:27Z</time>
      </trkpt>
      <trkpt lat="44.61215" lon="2.08155">
        <ele>378.993</ele>
        <time>2013-06-25T15:12:42Z</time>
      </trkpt>
      <trkpt lat="44.61204" lon="2.08129">
        <ele>378.491</ele>
        <time>2013-06-25T15:13:01Z</time>
      </trkpt>
      <trkpt lat="44.61188" lon="2.08105">
        <ele>378.499</ele>
        <time>2013-06-25T15:13:20Z</time>
      </trkpt>
      <trkpt lat="44.61169" lon="2.08072">
        <ele>377.704</ele>
        <time>2013-06-25T15:13:47Z</time>
      </trkpt>
      <trkpt lat="44.61158" lon="2.0805">
        <ele>378.231</ele>
        <time>2013-06-25T15:14:06Z</time>
      </trkpt>
      <trkpt lat="44.61147" lon="2.08032">
        <ele>378.717</ele>
        <time>2013-06-25T15:14:22Z</time>
      </trkpt>
      <trkpt lat="44.61141" lon="2.08021">
        <ele>380.4</ele>
        <time>2013-06-25T15:14:38Z</time>
      </trkpt>
      <trkpt lat="44.61139" lon="2.0802">
        <ele>380.797</ele>
        <time>2013-06-25T15:14:54Z</time>
      </trkpt>
      <trkpt lat="44.61135" lon="2.08002">
        <ele>381.077</ele>
        <time>2013-06-25T15:15:09Z</time>
      </trkpt>
      <trkpt lat="44.61132" lon="2.07969">
        <ele>384.06</ele>
        <time>2013-06-25T15:15:33Z</time>
      </trkpt>
      <trkpt lat="44.61132" lon="2.0796">
        <ele>384.389</ele>
        <time>2013-06-25T15:15:55Z</time>
      </trkpt>
      <trkpt lat="44.61132" lon="2.07959">
        <ele>384.297</ele>
        <time>2013-06-25T15:16:21Z</time>
      </trkpt>
      <trkpt lat="44.61134" lon="2.07951">
        <ele>384.62</ele>
        <time>2013-06-25T15:16:32Z</time>
      </trkpt>
      <trkpt lat="44.6116" lon="2.07943">
        <ele>384.797</ele>
        <time>2013-06-25T15:16:58Z</time>
      </trkpt>
      <trkpt lat="44.61187" lon="2.07932">
        <ele>385.579</ele>
        <time>2013-06-25T15:17:24Z</time>
      </trkpt>
      <trkpt lat="44.61211" lon="2.07923">
        <ele>386.658</ele>
        <time>2013-06-25T15:17:47Z</time>
      </trkpt>
      <trkpt lat="44.61221" lon="2.0792">
        <ele>386.679</ele>
        <time>2013-06-25T15:18:03Z</time>
      </trkpt>
      <trkpt lat="44.61238" lon="2.07908">
        <ele>388.089</ele>
        <time>2013-06-25T15:18:23Z</time>
      </trkpt>
      <trkpt lat="44.61236" lon="2.07901">
        <ele>387.751</ele>
        <time>2013-06-25T15:18:38Z</time>
      </trkpt>
      <trkpt lat="44.61232" lon="2.07895">
        <ele>388.251</ele>
        <time>2013-06-25T15:19:12Z</time>
      </trkpt>
      <trkpt lat="44.6121" lon="2.07872">
        <ele>387.808</ele>
        <time>2013-06-25T15:19:38Z</time>
      </trkpt>
      <trkpt lat="44.61198" lon="2.07857">
        <ele>387.29</ele>
        <time>2013-06-25T15:19:55Z</time>
      </trkpt>
      <trkpt lat="44.61176" lon="2.07834">
        <ele>386.737</ele>
        <time>2013-06-25T15:20:18Z</time>
      </trkpt>
      <trkpt lat="44.6115" lon="2.07801">
        <ele>385.31</ele>
        <time>2013-06-25T15:20:48Z</time>
      </trkpt>
      <trkpt lat="44.61133" lon="2.07775">
        <ele>384.477</ele>
        <time>2013-06-25T15:21:11Z</time>
      </trkpt>
      <trkpt lat="44.61128" lon="2.07767">
        <ele>384.624</ele>
        <time>2013-06-25T15:21:18Z</time>
      </trkpt>
      <trkpt lat="44.61108" lon="2.0774">
        <ele>383.458</ele>
        <time>2013-06-25T15:21:43Z</time>
      </trkpt>
      <trkpt lat="44.6109" lon="2.0771">
        <ele>382.78</ele>
        <time>2013-06-25T15:22:08Z</time>
      </trkpt>
      <trkpt lat="44.61064" lon="2.07675">
        <ele>381.917</ele>
        <time>2013-06-25T15:22:41Z</time>
      </trkpt>
      <trkpt lat="44.61044" lon="2.07646">
        <ele>380.838</ele>
        <time>2013-06-25T15:23:07Z</time>
      </trkpt>
      <trkpt lat="44.61036" lon="2.07625">
        <ele>380.203</ele>
        <time>2013-06-25T15:23:25Z</time>
      </trkpt>
      <trkpt lat="44.61036" lon="2.07613">
        <ele>379.732</ele>
        <time>2013-06-25T15:23:33Z</time>
      </trkpt>
      <trkpt lat="44.61037" lon="2.07578">
        <ele>378.993</ele>
        <time>2013-06-25T15:23:53Z</time>
      </trkpt>
      <trkpt lat="44.61038" lon="2.07545">
        <ele>377.34</ele>
        <time>2013-06-25T15:24:13Z</time>
      </trkpt>
      <trkpt lat="44.61036" lon="2.07516">
        <ele>375.413</ele>
        <time>2013-06-25T15:24:32Z</time>
      </trkpt>
      <trkpt lat="44.61031" lon="2.0748">
        <ele>373.905</ele>
        <time>2013-06-25T15:24:56Z</time>
      </trkpt>
      <trkpt lat="44.6103" lon="2.07475">
        <ele>373.358</ele>
        <time>2013-06-25T15:25:03Z</time>
      </trkpt>
      <trkpt lat="44.6103" lon="2.07457">
        <ele>372.528</ele>
        <time>2013-06-25T15:25:21Z</time>
      </trkpt>
      <trkpt lat="44.6103" lon="2.07455">
        <ele>372.601</ele>
        <time>2013-06-25T15:26:03Z</time>
      </trkpt>
      <trkpt lat="44.61027" lon="2.07431">
        <ele>371.51</ele>
        <time>2013-06-25T15:26:20Z</time>
      </trkpt>
      <trkpt lat="44.61022" lon="2.07393">
        <ele>370.398</ele>
        <time>2013-06-25T15:26:45Z</time>
      </trkpt>
      <trkpt lat="44.61018" lon="2.0735">
        <ele>369.766</ele>
        <time>2013-06-25T15:27:13Z</time>
      </trkpt>
      <trkpt lat="44.61015" lon="2.07312">
        <ele>368.845</ele>
        <time>2013-06-25T15:27:38Z</time>
      </trkpt>
      <trkpt lat="44.6101" lon="2.07276">
        <ele>368.84</ele>
        <time>2013-06-25T15:28:03Z</time>
      </trkpt>
      <trkpt lat="44.61011" lon="2.07234">
        <ele>369.171</ele>
        <time>2013-06-25T15:28:31Z</time>
      </trkpt>
      <trkpt lat="44.61027" lon="2.07197">
        <ele>368.682</ele>
        <time>2013-06-25T15:28:59Z</time>
      </trkpt>
      <trkpt lat="44.6104" lon="2.07163">
        <ele>368.218</ele>
        <time>2013-06-25T15:29:23Z</time>
      </trkpt>
      <trkpt lat="44.61046" lon="2.07143">
        <ele>368.253</ele>
        <time>2013-06-25T15:29:44Z</time>
      </trkpt>
      <trkpt lat="44.61051" lon="2.07125">
        <ele>367.793</ele>
        <time>2013-06-25T15:30:00Z</time>
      </trkpt>
      <trkpt lat="44.61053" lon="2.0712">
        <ele>367.655</ele>
        <time>2013-06-25T15:30:19Z</time>
      </trkpt>
      <trkpt lat="44.61057" lon="2.07103">
        <ele>367.116</ele>
        <time>2013-06-25T15:30:40Z</time>
      </trkpt>
      <trkpt lat="44.61061" lon="2.07078">
        <ele>366.713</ele>
        <time>2013-06-25T15:31:02Z</time>
      </trkpt>
      <trkpt lat="44.61063" lon="2.07061">
        <ele>365.92</ele>
        <time>2013-06-25T15:31:22Z</time>
      </trkpt>
      <trkpt lat="44.61064" lon="2.07052">
        <ele>365.108</ele>
        <time>2013-06-25T15:31:42Z</time>
      </trkpt>
      <trkpt lat="44.61064" lon="2.07048">
        <ele>364.777</ele>
        <time>2013-06-25T15:32:07Z</time>
      </trkpt>
      <trkpt lat="44.61064" lon="2.07044">
        <ele>364.407</ele>
        <time>2013-06-25T15:33:15Z</time>
      </trkpt>
      <trkpt lat="44.61063" lon="2.07042">
        <ele>363.864</ele>
        <time>2013-06-25T15:33:39Z</time>
      </trkpt>
      <trkpt lat="44.61065" lon="2.07026">
        <ele>363.313</ele>
        <time>2013-06-25T15:34:21Z</time>
      </trkpt>
      <trkpt lat="44.61067" lon="2.06995">
        <ele>360.277</ele>
        <time>2013-06-25T15:34:46Z</time>
      </trkpt>
      <trkpt lat="44.61068" lon="2.06968">
        <ele>358.36</ele>
        <time>2013-06-25T15:35:08Z</time>
      </trkpt>
      <trkpt lat="44.6107" lon="2.06943">
        <ele>356.672</ele>
        <time>2013-06-25T15:35:27Z</time>
      </trkpt>
      <trkpt lat="44.61071" lon="2.06914">
        <ele>354.652</ele>
        <time>2013-06-25T15:35:49Z</time>
      </trkpt>
      <trkpt lat="44.61073" lon="2.06892">
        <ele>352.91</ele>
        <time>2013-06-25T15:36:08Z</time>
      </trkpt>
      <trkpt lat="44.61076" lon="2.06874">
        <ele>349.821</ele>
        <time>2013-06-25T15:36:26Z</time>
      </trkpt>
      <trkpt lat="44.61078" lon="2.06854">
        <ele>349.082</ele>
        <time>2013-06-25T15:36:45Z</time>
      </trkpt>
      <trkpt lat="44.61079" lon="2.06835">
        <ele>347.528</ele>
        <time>2013-06-25T15:37:03Z</time>
      </trkpt>
      <trkpt lat="44.61081" lon="2.06814">
        <ele>346.126</ele>
        <time>2013-06-25T15:37:22Z</time>
      </trkpt>
      <trkpt lat="44.61086" lon="2.06786">
        <ele>345.952</ele>
        <time>2013-06-25T15:37:43Z</time>
      </trkpt>
      <trkpt lat="44.61089" lon="2.06747">
        <ele>343.442</ele>
        <time>2013-06-25T15:38:10Z</time>
      </trkpt>
      <trkpt lat="44.6109" lon="2.06706">
        <ele>341.852</ele>
        <time>2013-06-25T15:38:38Z</time>
      </trkpt>
      <trkpt lat="44.61093" lon="2.06669">
        <ele>340.935</ele>
        <time>2013-06-25T15:39:04Z</time>
      </trkpt>
      <trkpt lat="44.61095" lon="2.06626">
        <ele>339.579</ele>
        <time>2013-06-25T15:39:33Z</time>
      </trkpt>
      <trkpt lat="44.61095" lon="2.06585">
        <ele>337.152</ele>
        <time>2013-06-25T15:40:01Z</time>
      </trkpt>
      <trkpt lat="44.61095" lon="2.06557">
        <ele>336.661</ele>
        <time>2013-06-25T15:40:21Z</time>
      </trkpt>
      <trkpt lat="44.61095" lon="2.06521">
        <ele>336.668</ele>
        <time>2013-06-25T15:40:45Z</time>
      </trkpt>
      <trkpt lat="44.61096" lon="2.06491">
        <ele>335.245</ele>
        <time>2013-06-25T15:41:07Z</time>
      </trkpt>
      <trkpt lat="44.61093" lon="2.06467">
        <ele>334.518</ele>
        <time>2013-06-25T15:41:29Z</time>
      </trkpt>
      <trkpt lat="44.61095" lon="2.06466">
        <ele>334.796</ele>
        <time>2013-06-25T15:41:51Z</time>
      </trkpt>
      <trkpt lat="44.611" lon="2.06461">
        <ele>334.288</ele>
        <time>2013-06-25T15:42:49Z</time>
      </trkpt>
      <trkpt lat="44.61091" lon="2.06451">
        <ele>333.433</ele>
        <time>2013-06-25T15:44:19Z</time>
      </trkpt>
      <trkpt lat="44.6109" lon="2.06448">
        <ele>333.496</ele>
        <time>2013-06-25T15:44:21Z</time>
      </trkpt>
      <trkpt lat="44.61088" lon="2.06429">
        <ele>331.567</ele>
        <time>2013-06-25T15:44:36Z</time>
      </trkpt>
      <trkpt lat="44.61082" lon="2.06398">
        <ele>330.035</ele>
        <time>2013-06-25T15:44:58Z</time>
      </trkpt>
      <trkpt lat="44.61074" lon="2.06361">
        <ele>328.423</ele>
        <time>2013-06-25T15:45:24Z</time>
      </trkpt>
      <trkpt lat="44.61073" lon="2.06359">
        <ele>327.617</ele>
        <time>2013-06-25T15:45:26Z</time>
      </trkpt>
      <trkpt lat="44.61065" lon="2.06329">
        <ele>325.143</ele>
        <time>2013-06-25T15:45:49Z</time>
      </trkpt>
      <trkpt lat="44.61062" lon="2.06297">
        <ele>323.283</ele>
        <time>2013-06-25T15:46:12Z</time>
      </trkpt>
      <trkpt lat="44.61059" lon="2.06268">
        <ele>321.562</ele>
        <time>2013-06-25T15:46:33Z</time>
      </trkpt>
      <trkpt lat="44.6106" lon="2.06264">
        <ele>321.189</ele>
        <time>2013-06-25T15:46:36Z</time>
      </trkpt>
      <trkpt lat="44.61058" lon="2.06241">
        <ele>320.369</ele>
        <time>2013-06-25T15:46:51Z</time>
      </trkpt>
      <trkpt lat="44.61056" lon="2.06211">
        <ele>318.128</ele>
        <time>2013-06-25T15:47:11Z</time>
      </trkpt>
      <trkpt lat="44.61047" lon="2.06185">
        <ele>316.595</ele>
        <time>2013-06-25T15:47:31Z</time>
      </trkpt>
      <trkpt lat="44.6104" lon="2.06152">
        <ele>315.354</ele>
        <time>2013-06-25T15:47:54Z</time>
      </trkpt>
      <trkpt lat="44.61038" lon="2.06113">
        <ele>313.739</ele>
        <time>2013-06-25T15:48:20Z</time>
      </trkpt>
      <trkpt lat="44.61043" lon="2.06074">
        <ele>311.926</ele>
        <time>2013-06-25T15:48:45Z</time>
      </trkpt>
      <trkpt lat="44.61052" lon="2.06029">
        <ele>309.156</ele>
        <time>2013-06-25T15:49:15Z</time>
      </trkpt>
      <trkpt lat="44.61057" lon="2.05994">
        <ele>307.935</ele>
        <time>2013-06-25T15:49:39Z</time>
      </trkpt>
      <trkpt lat="44.61061" lon="2.05955">
        <ele>306.252</ele>
        <time>2013-06-25T15:50:05Z</time>
      </trkpt>
      <trkpt lat="44.61065" lon="2.05923">
        <ele>304.768</ele>
        <time>2013-06-25T15:50:26Z</time>
      </trkpt>
      <trkpt lat="44.61069" lon="2.05893">
        <ele>304.207</ele>
        <time>2013-06-25T15:50:48Z</time>
      </trkpt>
      <trkpt lat="44.61072" lon="2.05861">
        <ele>303.589</ele>
        <time>2013-06-25T15:51:13Z</time>
      </trkpt>
      <trkpt lat="44.61072" lon="2.05858">
        <ele>302.266</ele>
        <time>2013-06-25T15:51:16Z</time>
      </trkpt>
      <trkpt lat="44.61071" lon="2.05834">
        <ele>301.921</ele>
        <time>2013-06-25T15:51:35Z</time>
      </trkpt>
      <trkpt lat="44.61072" lon="2.05824">
        <ele>301.023</ele>
        <time>2013-06-25T15:51:54Z</time>
      </trkpt>
      <trkpt lat="44.6107" lon="2.05812">
        <ele>300.068</ele>
        <time>2013-06-25T15:55:05Z</time>
      </trkpt>
      <trkpt lat="44.61065" lon="2.05795">
        <ele>297.747</ele>
        <time>2013-06-25T15:55:26Z</time>
      </trkpt>
      <trkpt lat="44.61059" lon="2.05768">
        <ele>294.514</ele>
        <time>2013-06-25T15:55:49Z</time>
      </trkpt>
      <trkpt lat="44.61049" lon="2.05741">
        <ele>291.466</ele>
        <time>2013-06-25T15:56:13Z</time>
      </trkpt>
      <trkpt lat="44.61049" lon="2.05739">
        <ele>290.814</ele>
        <time>2013-06-25T15:56:15Z</time>
      </trkpt>
      <trkpt lat="44.61042" lon="2.05714">
        <ele>287.958</ele>
        <time>2013-06-25T15:56:37Z</time>
      </trkpt>
      <trkpt lat="44.61038" lon="2.05698">
        <ele>284.814</ele>
        <time>2013-06-25T15:56:51Z</time>
      </trkpt>
      <trkpt lat="44.61037" lon="2.05661">
        <ele>282.763</ele>
        <time>2013-06-25T15:57:16Z</time>
      </trkpt>
      <trkpt lat="44.6104" lon="2.05648">
        <ele>282.326</ele>
        <time>2013-06-25T15:57:40Z</time>
      </trkpt>
      <trkpt lat="44.61039" lon="2.05641">
        <ele>281.412</ele>
        <time>2013-06-25T15:58:05Z</time>
      </trkpt>
      <trkpt lat="44.61041" lon="2.05622">
        <ele>280.507</ele>
        <time>2013-06-25T15:58:23Z</time>
      </trkpt>
      <trkpt lat="44.61038" lon="2.05598">
        <ele>279.177</ele>
        <time>2013-06-25T15:58:43Z</time>
      </trkpt>
      <trkpt lat="44.61033" lon="2.05571">
        <ele>277.185</ele>
        <time>2013-06-25T15:59:03Z</time>
      </trkpt>
      <trkpt lat="44.61025" lon="2.05546">
        <ele>274.967</ele>
        <time>2013-06-25T15:59:26Z</time>
      </trkpt>
      <trkpt lat="44.61018" lon="2.05526">
        <ele>271.85</ele>
        <time>2013-06-25T15:59:45Z</time>
      </trkpt>
      <trkpt lat="44.61014" lon="2.05515">
        <ele>269.883</ele>
        <time>2013-06-25T15:59:57Z</time>
      </trkpt>
      <trkpt lat="44.61011" lon="2.05498">
        <ele>266.809</ele>
        <time>2013-06-25T16:00:10Z</time>
      </trkpt>
      <trkpt lat="44.61007" lon="2.05469">
        <ele>265.151</ele>
        <time>2013-06-25T16:00:29Z</time>
      </trkpt>
      <trkpt lat="44.61" lon="2.05448">
        <ele>263.026</ele>
        <time>2013-06-25T16:00:46Z</time>
      </trkpt>
      <trkpt lat="44.60994" lon="2.05426">
        <ele>260.906</ele>
        <time>2013-06-25T16:01:03Z</time>
      </trkpt>
      <trkpt lat="44.60991" lon="2.05409">
        <ele>258.553</ele>
        <time>2013-06-25T16:01:18Z</time>
      </trkpt>
      <trkpt lat="44.6099" lon="2.05396">
        <ele>255.508</ele>
        <time>2013-06-25T16:01:30Z</time>
      </trkpt>
      <trkpt lat="44.60988" lon="2.0538">
        <ele>252.038</ele>
        <time>2013-06-25T16:01:46Z</time>
      </trkpt>
      <trkpt lat="44.60988" lon="2.05376">
        <ele>251.086</ele>
        <time>2013-06-25T16:01:50Z</time>
      </trkpt>
      <trkpt lat="44.60983" lon="2.0536">
        <ele>248.513</ele>
        <time>2013-06-25T16:02:05Z</time>
      </trkpt>
      <trkpt lat="44.60981" lon="2.05342">
        <ele>247.299</ele>
        <time>2013-06-25T16:02:17Z</time>
      </trkpt>
      <trkpt lat="44.6098" lon="2.05325">
        <ele>245.846</ele>
        <time>2013-06-25T16:02:31Z</time>
      </trkpt>
      <trkpt lat="44.6098" lon="2.05307">
        <ele>244.406</ele>
        <time>2013-06-25T16:02:44Z</time>
      </trkpt>
      <trkpt lat="44.60981" lon="2.0529">
        <ele>243.548</ele>
        <time>2013-06-25T16:02:59Z</time>
      </trkpt>
      <trkpt lat="44.60984" lon="2.05274">
        <ele>240.52</ele>
        <time>2013-06-25T16:03:14Z</time>
      </trkpt>
      <trkpt lat="44.6098" lon="2.05251">
        <ele>238.427</ele>
        <time>2013-06-25T16:03:34Z</time>
      </trkpt>
      <trkpt lat="44.60976" lon="2.0524">
        <ele>235.24</ele>
        <time>2013-06-25T16:03:50Z</time>
      </trkpt>
      <trkpt lat="44.60976" lon="2.0523">
        <ele>233.331</ele>
        <time>2013-06-25T16:04:10Z</time>
      </trkpt>
      <trkpt lat="44.60983" lon="2.05216">
        <ele>233.087</ele>
        <time>2013-06-25T16:05:03Z</time>
      </trkpt>
      <trkpt lat="44.60978" lon="2.05203">
        <ele>231.661</ele>
        <time>2013-06-25T16:05:21Z</time>
      </trkpt>
      <trkpt lat="44.60975" lon="2.05181">
        <ele>228.467</ele>
        <time>2013-06-25T16:05:40Z</time>
      </trkpt>
      <trkpt lat="44.6097" lon="2.05158">
        <ele>226.116</ele>
        <time>2013-06-25T16:06:01Z</time>
      </trkpt>
      <trkpt lat="44.60974" lon="2.0513">
        <ele>223.635</ele>
        <time>2013-06-25T16:06:22Z</time>
      </trkpt>
      <trkpt lat="44.6098" lon="2.05113">
        <ele>221.337</ele>
        <time>2013-06-25T16:06:37Z</time>
      </trkpt>
      <trkpt lat="44.60982" lon="2.05091">
        <ele>218.285</ele>
        <time>2013-06-25T16:06:56Z</time>
      </trkpt>
      <trkpt lat="44.60981" lon="2.0509">
        <ele>218.659</ele>
        <time>2013-06-25T16:07:11Z</time>
      </trkpt>
      <trkpt lat="44.6098" lon="2.0509">
        <ele>217.994</ele>
        <time>2013-06-25T16:07:54Z</time>
      </trkpt>
      <trkpt lat="44.60972" lon="2.05097">
        <ele>216.193</ele>
        <time>2013-06-25T16:08:11Z</time>
      </trkpt>
      <trkpt lat="44.60966" lon="2.051">
        <ele>216.06</ele>
        <time>2013-06-25T16:08:18Z</time>
      </trkpt>
      <trkpt lat="44.60946" lon="2.05095">
        <ele>214.301</ele>
        <time>2013-06-25T16:08:37Z</time>
      </trkpt>
      <trkpt lat="44.6094" lon="2.05092">
        <ele>213.92</ele>
        <time>2013-06-25T16:08:42Z</time>
      </trkpt>
      <trkpt lat="44.60923" lon="2.05078">
        <ele>213.303</ele>
        <time>2013-06-25T16:08:59Z</time>
      </trkpt>
      <trkpt lat="44.60908" lon="2.05057">
        <ele>213.077</ele>
        <time>2013-06-25T16:09:20Z</time>
      </trkpt>
      <trkpt lat="44.60916" lon="2.05031">
        <ele>211.393</ele>
        <time>2013-06-25T16:09:39Z</time>
      </trkpt>
      <trkpt lat="44.60907" lon="2.05008">
        <ele>211.433</ele>
        <time>2013-06-25T16:09:59Z</time>
      </trkpt>
      <trkpt lat="44.60899" lon="2.04994">
        <ele>210.876</ele>
        <time>2013-06-25T16:10:16Z</time>
      </trkpt>
      <trkpt lat="44.60888" lon="2.04974">
        <ele>211.327</ele>
        <time>2013-06-25T16:10:33Z</time>
      </trkpt>
      <trkpt lat="44.60886" lon="2.04966">
        <ele>210.518</ele>
        <time>2013-06-25T16:10:39Z</time>
      </trkpt>
      <trkpt lat="44.60879" lon="2.04947">
        <ele>211.007</ele>
        <time>2013-06-25T16:10:57Z</time>
      </trkpt>
      <trkpt lat="44.60865" lon="2.04925">
        <ele>210.992</ele>
        <time>2013-06-25T16:11:18Z</time>
      </trkpt>
      <trkpt lat="44.60852" lon="2.04899">
        <ele>210.852</ele>
        <time>2013-06-25T16:11:40Z</time>
      </trkpt>
      <trkpt lat="44.6084" lon="2.04877">
        <ele>211.094</ele>
        <time>2013-06-25T16:11:59Z</time>
      </trkpt>
      <trkpt lat="44.60829" lon="2.04854">
        <ele>210.213</ele>
        <time>2013-06-25T16:12:21Z</time>
      </trkpt>
      <trkpt lat="44.60821" lon="2.0484">
        <ele>211.351</ele>
        <time>2013-06-25T16:12:54Z</time>
      </trkpt>
      <trkpt lat="44.60811" lon="2.0482">
        <ele>211.46</ele>
        <time>2013-06-25T16:13:16Z</time>
      </trkpt>
      <trkpt lat="44.60804" lon="2.04801">
        <ele>211.421</ele>
        <time>2013-06-25T16:13:31Z</time>
      </trkpt>
      <trkpt lat="44.60796" lon="2.04786">
        <ele>211.391</ele>
        <time>2013-06-25T16:13:45Z</time>
      </trkpt>
      <trkpt lat="44.60784" lon="2.04768">
        <ele>211.635</ele>
        <time>2013-06-25T16:14:02Z</time>
      </trkpt>
      <trkpt lat="44.60778" lon="2.0475">
        <ele>212.328</ele>
        <time>2013-06-25T16:14:16Z</time>
      </trkpt>
      <trkpt lat="44.60772" lon="2.04728">
        <ele>212.9</ele>
        <time>2013-06-25T16:14:34Z</time>
      </trkpt>
      <trkpt lat="44.60769" lon="2.04709">
        <ele>212.278</ele>
        <time>2013-06-25T16:14:51Z</time>
      </trkpt>
      <trkpt lat="44.60765" lon="2.04685">
        <ele>212.871</ele>
        <time>2013-06-25T16:15:09Z</time>
      </trkpt>
      <trkpt lat="44.60761" lon="2.04653">
        <ele>215.05</ele>
        <time>2013-06-25T16:15:31Z</time>
      </trkpt>
      <trkpt lat="44.6076" lon="2.04634">
        <ele>215.847</ele>
        <time>2013-06-25T16:15:43Z</time>
      </trkpt>
      <trkpt lat="44.60761" lon="2.046">
        <ele>215.593</ele>
        <time>2013-06-25T16:16:07Z</time>
      </trkpt>
      <trkpt lat="44.6076" lon="2.04585">
        <ele>216.202</ele>
        <time>2013-06-25T16:16:23Z</time>
      </trkpt>
      <trkpt lat="44.60752" lon="2.0455">
        <ele>217.107</ele>
        <time>2013-06-25T16:16:51Z</time>
      </trkpt>
      <trkpt lat="44.60752" lon="2.04541">
        <ele>217.095</ele>
        <time>2013-06-25T16:17:09Z</time>
      </trkpt>
      <trkpt lat="44.6075" lon="2.04527">
        <ele>217.593</ele>
        <time>2013-06-25T16:18:04Z</time>
      </trkpt>
      <trkpt lat="44.60747" lon="2.04509">
        <ele>218.057</ele>
        <time>2013-06-25T16:18:20Z</time>
      </trkpt>
      <trkpt lat="44.60745" lon="2.04489">
        <ele>218.529</ele>
        <time>2013-06-25T16:18:35Z</time>
      </trkpt>
      <trkpt lat="44.60741" lon="2.04462">
        <ele>219.384</ele>
        <time>2013-06-25T16:18:51Z</time>
      </trkpt>
      <trkpt lat="44.60735" lon="2.04435">
        <ele>219.8</ele>
        <time>2013-06-25T16:19:10Z</time>
      </trkpt>
      <trkpt lat="44.60731" lon="2.0441">
        <ele>221.191</ele>
        <time>2013-06-25T16:19:28Z</time>
      </trkpt>
      <trkpt lat="44.60725" lon="2.04375">
        <ele>221.189</ele>
        <time>2013-06-25T16:19:50Z</time>
      </trkpt>
      <trkpt lat="44.60721" lon="2.04358">
        <ele>221.055</ele>
        <time>2013-06-25T16:20:02Z</time>
      </trkpt>
      <trkpt lat="44.60717" lon="2.0433">
        <ele>220.891</ele>
        <time>2013-06-25T16:20:22Z</time>
      </trkpt>
      <trkpt lat="44.60714" lon="2.04305">
        <ele>220.341</ele>
        <time>2013-06-25T16:20:41Z</time>
      </trkpt>
      <trkpt lat="44.60709" lon="2.04288">
        <ele>218.335</ele>
        <time>2013-06-25T16:21:00Z</time>
      </trkpt>
      <trkpt lat="44.60713" lon="2.04276">
        <ele>218.003</ele>
        <time>2013-06-25T16:21:16Z</time>
      </trkpt>
      <trkpt lat="44.60721" lon="2.04278">
        <ele>217.837</ele>
        <time>2013-06-25T16:21:40Z</time>
      </trkpt>
      <trkpt lat="44.60721" lon="2.04277">
        <ele>218.498</ele>
        <time>2013-06-25T16:22:01Z</time>
      </trkpt>
      <trkpt lat="44.60713" lon="2.04268">
        <ele>217.518</ele>
        <time>2013-06-25T16:22:33Z</time>
      </trkpt>
      <trkpt lat="44.60712" lon="2.04254">
        <ele>218.424</ele>
        <time>2013-06-25T16:22:52Z</time>
      </trkpt>
      <trkpt lat="44.60712" lon="2.0425">
        <ele>217.144</ele>
        <time>2013-06-25T16:22:55Z</time>
      </trkpt>
      <trkpt lat="44.60714" lon="2.04232">
        <ele>216.81</ele>
        <time>2013-06-25T16:23:09Z</time>
      </trkpt>
      <trkpt lat="44.60707" lon="2.0422">
        <ele>216.375</ele>
        <time>2013-06-25T16:23:26Z</time>
      </trkpt>
      <trkpt lat="44.60708" lon="2.04222">
        <ele>216.52</ele>
        <time>2013-06-25T16:23:45Z</time>
      </trkpt>
      <trkpt lat="44.60711" lon="2.04222">
        <ele>216.141</ele>
        <time>2013-06-25T16:24:45Z</time>
      </trkpt>
      <trkpt lat="44.6071" lon="2.04216">
        <ele>217.212</ele>
        <time>2013-06-25T16:25:08Z</time>
      </trkpt>
      <trkpt lat="44.60706" lon="2.04211">
        <ele>217.151</ele>
        <time>2013-06-25T16:25:25Z</time>
      </trkpt>
      <trkpt lat="44.60702" lon="2.04209">
        <ele>216.911</ele>
        <time>2013-06-25T16:26:22Z</time>
      </trkpt>
      <trkpt lat="44.60698" lon="2.04211">
        <ele>216.839</ele>
        <time>2013-06-25T16:26:52Z</time>
      </trkpt>
      <trkpt lat="44.607" lon="2.04192">
        <ele>217.129</ele>
        <time>2013-06-25T16:27:08Z</time>
      </trkpt>
      <trkpt lat="44.60699" lon="2.04175">
        <ele>216.925</ele>
        <time>2013-06-25T16:27:21Z</time>
      </trkpt>
      <trkpt lat="44.607" lon="2.04152">
        <ele>216.925</ele>
        <time>2013-06-25T16:27:39Z</time>
      </trkpt>
      <trkpt lat="44.60697" lon="2.04134">
        <ele>217.072</ele>
        <time>2013-06-25T16:27:55Z</time>
      </trkpt>
      <trkpt lat="44.60696" lon="2.04109">
        <ele>217.29</ele>
        <time>2013-06-25T16:28:14Z</time>
      </trkpt>
      <trkpt lat="44.60689" lon="2.04071">
        <ele>217.6</ele>
        <time>2013-06-25T16:28:40Z</time>
      </trkpt>
      <trkpt lat="44.60683" lon="2.04046">
        <ele>218.167</ele>
        <time>2013-06-25T16:28:56Z</time>
      </trkpt>
      <trkpt lat="44.60682" lon="2.04042">
        <ele>218.038</ele>
        <time>2013-06-25T16:28:59Z</time>
      </trkpt>
      <trkpt lat="44.60681" lon="2.04025">
        <ele>217.237</ele>
        <time>2013-06-25T16:29:15Z</time>
      </trkpt>
      <trkpt lat="44.60681" lon="2.04018">
        <ele>217.694</ele>
        <time>2013-06-25T16:29:31Z</time>
      </trkpt>
      <trkpt lat="44.60678" lon="2.04002">
        <ele>216.874</ele>
        <time>2013-06-25T16:29:47Z</time>
      </trkpt>
      <trkpt lat="44.60679" lon="2.03992">
        <ele>217.671</ele>
        <time>2013-06-25T16:30:02Z</time>
      </trkpt>
      <trkpt lat="44.6068" lon="2.03971">
        <ele>217.501</ele>
        <time>2013-06-25T16:30:22Z</time>
      </trkpt>
      <trkpt lat="44.60676" lon="2.03951">
        <ele>217.781</ele>
        <time>2013-06-25T16:30:39Z</time>
      </trkpt>
      <trkpt lat="44.60677" lon="2.03944">
        <ele>218.522</ele>
        <time>2013-06-25T16:31:01Z</time>
      </trkpt>
      <trkpt lat="44.60673" lon="2.03917">
        <ele>217.911</ele>
        <time>2013-06-25T16:31:23Z</time>
      </trkpt>
      <trkpt lat="44.60668" lon="2.03886">
        <ele>218.542</ele>
        <time>2013-06-25T16:31:44Z</time>
      </trkpt>
      <trkpt lat="44.60661" lon="2.03865">
        <ele>217.454</ele>
        <time>2013-06-25T16:32:02Z</time>
      </trkpt>
      <trkpt lat="44.60658" lon="2.03842">
        <ele>216.978</ele>
        <time>2013-06-25T16:32:20Z</time>
      </trkpt>
      <trkpt lat="44.60658" lon="2.03817">
        <ele>216.512</ele>
        <time>2013-06-25T16:32:39Z</time>
      </trkpt>
      <trkpt lat="44.60654" lon="2.03799">
        <ele>216.445</ele>
        <time>2013-06-25T16:32:53Z</time>
      </trkpt>
      <trkpt lat="44.60665" lon="2.03795">
        <ele>215.825</ele>
        <time>2013-06-25T16:33:17Z</time>
      </trkpt>
      <trkpt lat="44.60663" lon="2.03778">
        <ele>216.104</ele>
        <time>2013-06-25T16:33:34Z</time>
      </trkpt>
      <trkpt lat="44.6066" lon="2.03769">
        <ele>215.923</ele>
        <time>2013-06-25T16:33:51Z</time>
      </trkpt>
      <trkpt lat="44.60673" lon="2.03754">
        <ele>216.125</ele>
        <time>2013-06-25T16:34:05Z</time>
      </trkpt>
      <trkpt lat="44.60676" lon="2.03736">
        <ele>215.39</ele>
        <time>2013-06-25T16:34:20Z</time>
      </trkpt>
      <trkpt lat="44.60674" lon="2.03718">
        <ele>214.923</ele>
        <time>2013-06-25T16:34:33Z</time>
      </trkpt>
      <trkpt lat="44.6066" lon="2.03705">
        <ele>214.47</ele>
        <time>2013-06-25T16:34:46Z</time>
      </trkpt>
      <trkpt lat="44.60662" lon="2.03694">
        <ele>214.391</ele>
        <time>2013-06-25T16:35:03Z</time>
      </trkpt>
      <trkpt lat="44.60659" lon="2.03689">
        <ele>214.349</ele>
        <time>2013-06-25T16:35:17Z</time>
      </trkpt>
      <trkpt lat="44.60656" lon="2.03689">
        <ele>214.062</ele>
        <time>2013-06-25T16:36:10Z</time>
      </trkpt>
      <trkpt lat="44.60655" lon="2.03685">
        <ele>214.7</ele>
        <time>2013-06-25T16:37:11Z</time>
      </trkpt>
      <trkpt lat="44.60653" lon="2.03672">
        <ele>214.143</ele>
        <time>2013-06-25T16:37:31Z</time>
      </trkpt>
      <trkpt lat="44.60651" lon="2.03668">
        <ele>213.846</ele>
        <time>2013-06-25T16:37:51Z</time>
      </trkpt>
      <trkpt lat="44.6065" lon="2.03667">
        <ele>213.917</ele>
        <time>2013-06-25T16:38:35Z</time>
      </trkpt>
      <trkpt lat="44.60651" lon="2.03662">
        <ele>213.694</ele>
        <time>2013-06-25T16:39:06Z</time>
      </trkpt>
      <trkpt lat="44.60646" lon="2.03654">
        <ele>213.551</ele>
        <time>2013-06-25T16:39:58Z</time>
      </trkpt>
      <trkpt lat="44.60645" lon="2.03653">
        <ele>213.577</ele>
        <time>2013-06-25T16:39:59Z</time>
      </trkpt>
      <trkpt lat="44.6064" lon="2.03632">
        <ele>213.473</ele>
        <time>2013-06-25T16:40:15Z</time>
      </trkpt>
      <trkpt lat="44.60645" lon="2.03608">
        <ele>212.47</ele>
        <time>2013-06-25T16:40:31Z</time>
      </trkpt>
      <trkpt lat="44.60642" lon="2.03595">
        <ele>212.046</ele>
        <time>2013-06-25T16:40:42Z</time>
      </trkpt>
      <trkpt lat="44.60653" lon="2.03574">
        <ele>212.105</ele>
        <time>2013-06-25T16:40:55Z</time>
      </trkpt>
      <trkpt lat="44.6065" lon="2.03551">
        <ele>212.313</ele>
        <time>2013-06-25T16:41:12Z</time>
      </trkpt>
      <trkpt lat="44.60646" lon="2.0353">
        <ele>211.974</ele>
        <time>2013-06-25T16:41:25Z</time>
      </trkpt>
      <trkpt lat="44.60648" lon="2.03513">
        <ele>211.764</ele>
        <time>2013-06-25T16:41:38Z</time>
      </trkpt>
      <trkpt lat="44.60651" lon="2.035">
        <ele>211.878</ele>
        <time>2013-06-25T16:41:49Z</time>
      </trkpt>
      <trkpt lat="44.6065" lon="2.03489">
        <ele>211.976</ele>
        <time>2013-06-25T16:41:59Z</time>
      </trkpt>
      <trkpt lat="44.60639" lon="2.03478">
        <ele>212.252</ele>
        <time>2013-06-25T16:42:16Z</time>
      </trkpt>
      <trkpt lat="44.60637" lon="2.03471">
        <ele>211.306</ele>
        <time>2013-06-25T16:42:56Z</time>
      </trkpt>
      <trkpt lat="44.6065" lon="2.03469">
        <ele>208.314</ele>
        <time>2013-06-25T16:43:10Z</time>
      </trkpt>
      <trkpt lat="44.60662" lon="2.03463">
        <ele>206.946</ele>
        <time>2013-06-25T16:43:23Z</time>
      </trkpt>
      <trkpt lat="44.60665" lon="2.03468">
        <ele>207.512</ele>
        <time>2013-06-25T16:43:44Z</time>
      </trkpt>
      <trkpt lat="44.60668" lon="2.03481">
        <ele>207.919</ele>
        <time>2013-06-25T16:44:02Z</time>
      </trkpt>
      <trkpt lat="44.60669" lon="2.03482">
        <ele>207.288</ele>
        <time>2013-06-25T16:44:19Z</time>
      </trkpt>
      <trkpt lat="44.6066" lon="2.0349">
        <ele>207.73</ele>
        <time>2013-06-25T16:44:42Z</time>
      </trkpt>
      <trkpt lat="44.60662" lon="2.03484">
        <ele>206.505</ele>
        <time>2013-06-25T16:45:06Z</time>
      </trkpt>
      <trkpt lat="44.60667" lon="2.03494">
        <ele>206.844</ele>
        <time>2013-06-25T16:45:31Z</time>
      </trkpt>
      <trkpt lat="44.60681" lon="2.03509">
        <ele>206.868</ele>
        <time>2013-06-25T16:46:01Z</time>
      </trkpt>
      <trkpt lat="44.60673" lon="2.03505">
        <ele>208.99</ele>
        <time>2013-06-25T16:46:28Z</time>
      </trkpt>
      <trkpt lat="44.60667" lon="2.03503">
        <ele>209.736</ele>
        <time>2013-06-25T16:46:39Z</time>
      </trkpt>
      <trkpt lat="44.6067" lon="2.03506">
        <ele>210.874</ele>
        <time>2013-06-25T16:46:55Z</time>
      </trkpt>
      <trkpt lat="44.60671" lon="2.03514">
        <ele>210.627</ele>
        <time>2013-06-25T16:47:15Z</time>
      </trkpt>
      <trkpt lat="44.60669" lon="2.03516">
        <ele>209.317</ele>
        <time>2013-06-25T16:47:49Z</time>
      </trkpt>
      <trkpt lat="44.60672" lon="2.03521">
        <ele>207.977</ele>
        <time>2013-06-25T16:48:03Z</time>
      </trkpt>
      <trkpt lat="44.60668" lon="2.03515">
        <ele>208.67</ele>
        <time>2013-06-25T16:48:23Z</time>
      </trkpt>
      <trkpt lat="44.60671" lon="2.03515">
        <ele>208.448</ele>
        <time>2013-06-25T16:48:38Z</time>
      </trkpt>
      <trkpt lat="44.60675" lon="2.0352">
        <ele>207.958</ele>
        <time>2013-06-25T16:48:44Z</time>
      </trkpt>
      <trkpt lat="44.60671" lon="2.03512">
        <ele>208.146</ele>
        <time>2013-06-25T16:50:58Z</time>
      </trkpt>
      <trkpt lat="44.60664" lon="2.03515">
        <ele>206.862</ele>
        <time>2013-06-25T16:51:47Z</time>
      </trkpt>
      <trkpt lat="44.60668" lon="2.03509">
        <ele>205.802</ele>
        <time>2013-06-25T16:52:29Z</time>
      </trkpt>
      <trkpt lat="44.60666" lon="2.03512">
        <ele>204.637</ele>
        <time>2013-06-25T16:53:21Z</time>
      </trkpt>
      <trkpt lat="44.60667" lon="2.03512">
        <ele>204.923</ele>
        <time>2013-06-25T16:53:45Z</time>
      </trkpt>
      <trkpt lat="44.60668" lon="2.03512">
        <ele>205.101</ele>
        <time>2013-06-25T16:54:03Z</time>
      </trkpt>
      <trkpt lat="44.60664" lon="2.03516">
        <ele>203.673</ele>
        <time>2013-06-25T16:54:18Z</time>
      </trkpt>
      <trkpt lat="44.60665" lon="2.03517">
        <ele>205.677</ele>
        <time>2013-06-25T16:54:22Z</time>
      </trkpt>
      <trkpt lat="44.60667" lon="2.03518">
        <ele>205.369</ele>
        <time>2013-06-25T16:54:34Z</time>
      </trkpt>
      <trkpt lat="44.60664" lon="2.03513">
        <ele>206.163</ele>
        <time>2013-06-25T16:54:46Z</time>
      </trkpt>
    </trkseg>
  </trk>
</gpx>